Provisional Data: Lititz Run near Lititz, PA


Please select a monitoring station.
Please select start date.
Please select start date.

Toggle Unit: C/F Toggle Unit: C/F
Sample Time Temperature (C) Temperature (F) Specific Conductivity (mS/cm) pH   Turbidity (NTU+) DO (mg/L)
1/12/2021 12:00:00 AM 8.38 47.084 0.894 7.91 6.14 10.46
1/12/2021 12:15:00 AM 8.34 47.012 0.894 7.92 6.11 10.47
1/12/2021 12:30:00 AM 8.3 46.94 0.893 7.92 6.06 10.48
1/12/2021 12:45:00 AM 8.26 46.868 0.891 7.91 6.13 10.49
1/12/2021 1:00:00 AM 8.22 46.796 0.887 7.92 5.92 10.5
1/12/2021 1:15:00 AM 8.18 46.724 0.883 7.92 6.13 10.52
1/12/2021 1:30:00 AM 8.13 46.634 0.879 7.93 6.51 10.53
1/12/2021 1:45:00 AM 8.09 46.562 0.876 7.93 6.3 10.54
1/12/2021 2:00:00 AM 8.05 46.49 0.872 7.93 6.3 10.56
1/12/2021 2:15:00 AM 8 46.4 0.868 7.93 6.43 10.58
1/12/2021 2:30:00 AM 7.96 46.328 0.863 7.93 6.29 10.59
1/12/2021 2:45:00 AM 7.91 46.238 0.859 7.93 6.31 10.61
1/12/2021 3:00:00 AM 7.87 46.166 0.856 7.93 6.47 10.63
1/12/2021 3:15:00 AM 7.83 46.094 0.853 7.94 6.15 10.64
1/12/2021 3:30:00 AM 7.79 46.022 0.85 7.94 6.36 10.65
1/12/2021 3:45:00 AM 7.76 45.968 0.845 7.94 6.26 10.67
1/12/2021 4:00:00 AM 7.72 45.896 0.841 7.95 6.3 10.68
1/12/2021 4:15:00 AM 7.68 45.824 0.836 7.94 6.37 10.7
1/12/2021 4:30:00 AM 7.64 45.752 0.831 7.92 6.61 10.71
1/12/2021 4:45:00 AM 7.6 45.68 0.825 7.92 6.75 10.73
1/12/2021 5:00:00 AM 7.56 45.608 0.821 7.94 6.7 10.74
1/12/2021 5:15:00 AM 7.53 45.554 0.817 7.94 6.47 10.76
1/12/2021 5:30:00 AM 7.5 45.5 0.814 7.94 6.92 10.77
1/12/2021 5:45:00 AM 7.47 45.446 0.813 7.93 6.55 10.78
1/12/2021 6:00:00 AM 7.44 45.392 0.813 7.94 6.74 10.78
1/12/2021 6:15:00 AM 7.43 45.374 0.814 7.94 6.54 10.78
1/12/2021 6:30:00 AM 7.42 45.356 0.815 7.94 6.6 10.79
1/12/2021 6:45:00 AM 7.4 45.32 0.814 7.94 6.51 10.79
1/12/2021 7:00:00 AM 7.39 45.302 0.814 7.94 6.21 10.8
1/12/2021 7:15:00 AM 7.37 45.266 0.814 7.95 6.05 10.8
1/12/2021 7:30:00 AM 7.36 45.248 0.815 7.94 6.09 10.82
1/12/2021 7:45:00 AM 7.35 45.23 0.813 7.95 5.99 10.85
1/12/2021 8:00:00 AM 7.34 45.212 0.812 7.95 6.14 10.88
1/12/2021 8:15:00 AM 7.33 45.194 0.811 7.95 6.37 10.93
1/12/2021 8:30:00 AM 7.33 45.194 0.809 7.95 6.93 10.98
1/12/2021 8:45:00 AM 7.35 45.23 0.806 7.96 7.05 11.04
1/12/2021 9:00:00 AM 7.38 45.284 0.805 7.96 6.84 11.1
1/12/2021 9:15:00 AM 7.42 45.356 0.804 7.98 6.69 11.17
1/12/2021 9:30:00 AM 7.48 45.464 0.803 7.97 6.35 11.25
1/12/2021 9:45:00 AM 7.55 45.59 0.804 7.98 6.5 11.33
1/12/2021 10:00:00 AM 7.64 45.752 0.806 7.98 6.02 11.41
1/12/2021 10:15:00 AM 7.74 45.932 0.811 7.98 6.16 11.48
1/12/2021 10:30:00 AM 7.86 46.148 0.818 8.01 6.02 11.54
1/12/2021 10:45:00 AM 7.98 46.364 0.826 8.01 6.43 11.6
1/12/2021 11:00:00 AM 8.13 46.634 0.835 8.02 6.15 11.67
1/12/2021 11:15:00 AM 8.28 46.904 0.843 8.02 6.02 11.73
1/12/2021 11:30:00 AM 8.42 47.156 0.851 8.02 6.44 11.76
1/12/2021 11:45:00 AM 8.56 47.408 0.856 8.04 6.01 11.82
1/12/2021 12:00:00 PM 8.69 47.642 0.859 8.03 6.05 11.87
1/12/2021 12:15:00 PM 8.81 47.858 0.861 8.04 5.63 11.92
1/12/2021 12:30:00 PM 8.94 48.092 0.864 8.07 6.13 11.94
1/12/2021 12:45:00 PM 9.06 48.308 0.866 8.07 5.84 11.98
1/12/2021 1:00:00 PM 9.18 48.524 0.868 8.07 5.78 11.98
1/12/2021 1:15:00 PM 9.27 48.686 0.87 8.07 5.29 11.98
1/12/2021 1:30:00 PM 9.37 48.866 0.873 8.08 5.54 11.98
1/12/2021 1:45:00 PM 9.45 49.01 0.878 8.09 5.75 11.96
1/12/2021 2:00:00 PM 9.53 49.154 0.883 8.08 5.68 11.94
1/12/2021 2:15:00 PM 9.6 49.28 0.886 8.1 6.07 11.9
1/12/2021 2:30:00 PM 9.65 49.37 0.887 8.09 6.6 11.85
1/12/2021 2:45:00 PM 9.68 49.424 0.886 8.09 6.85 11.8
1/12/2021 3:00:00 PM 9.71 49.478 0.885 8.08 6.89 11.73
1/12/2021 3:15:00 PM 9.73 49.514 0.883 8.08 6.39 11.66
1/12/2021 3:30:00 PM 9.74 49.532 0.882 8.09 6.49 11.58
1/12/2021 3:45:00 PM 9.74 49.532 0.882 8.07 6.25 11.48
1/12/2021 4:00:00 PM 9.74 49.532 0.883 8.05 6.54 11.37
1/12/2021 4:15:00 PM 9.75 49.55 0.882 8.05 6.96 11.29
1/12/2021 4:30:00 PM 9.75 49.55 0.88 8.05 6.76 11.2
1/12/2021 4:45:00 PM 9.74 49.532 0.878 8.04 6.7 11.12
1/12/2021 5:00:00 PM 9.72 49.496 0.878 8.03 6.97 11.03
1/12/2021 5:15:00 PM 9.7 49.46 0.879 8.03 6.85 10.94
1/12/2021 5:30:00 PM 9.68 49.424 0.879 8.03 7.36 10.87
1/12/2021 5:45:00 PM 9.64 49.352 0.879 8.02 6.8 10.81
1/12/2021 6:00:00 PM 9.6 49.28 0.879 7.99 6.77 10.76
1/12/2021 6:15:00 PM 9.56 49.208 0.878 8 6.33 10.71
1/12/2021 6:30:00 PM 9.51 49.118 0.876 8 6.16 10.67
1/12/2021 6:45:00 PM 9.46 49.028 0.874 7.98 6.22 10.62
1/12/2021 7:00:00 PM 9.4 48.92 0.871 7.98 6.49 10.58
1/12/2021 7:15:00 PM 9.34 48.812 0.866 8 6.43 10.54
1/12/2021 7:30:00 PM 9.27 48.686 0.861 7.98 6.05 10.5
1/12/2021 7:45:00 PM 9.21 48.578 0.856 7.96 6.32 10.48
1/12/2021 8:00:00 PM 9.14 48.452 0.855 7.95 6.39 10.46
1/12/2021 8:15:00 PM 9.09 48.362 0.855 7.96 6.17 10.44
1/12/2021 8:30:00 PM 9.04 48.272 0.856 7.96 6.15 10.41
1/12/2021 8:45:00 PM 9.02 48.236 0.858 7.95 6.21 10.39
1/12/2021 9:00:00 PM 9 48.2 0.859 7.95 6.08 10.38
1/12/2021 9:15:00 PM 8.98 48.164 0.861 7.96 6.24 10.37
1/12/2021 9:30:00 PM 8.96 48.128 0.865 7.94 6.53 10.35
1/12/2021 9:45:00 PM 8.94 48.092 0.869 7.94 6.1 10.33
1/12/2021 10:00:00 PM 8.93 48.074 0.873 7.92 6.47 10.32
1/12/2021 10:15:00 PM 8.92 48.056 0.875 7.94 6.37 10.32
1/12/2021 10:30:00 PM 8.91 48.038 0.877 7.94 6.36 10.31
1/12/2021 10:45:00 PM 8.9 48.02 0.88 7.94 6.48 10.3
1/12/2021 11:00:00 PM 8.9 48.02 0.884 7.93 6.15 10.31
1/12/2021 11:15:00 PM 8.88 47.984 0.885 7.92 6.43 10.3
1/12/2021 11:30:00 PM 8.87 47.966 0.887 7.93 6.21 10.3
1/12/2021 11:45:00 PM 8.85 47.93 0.888 7.93 6.39 10.29
1/13/2021 12:00:00 AM 8.82 47.876 0.889 7.93 6.19 10.29
1/13/2021 12:15:00 AM 8.81 47.858 0.889 7.93 5.96 10.28
1/13/2021 12:30:00 AM 8.81 47.858 0.89 7.93 5.93 10.29
1/13/2021 12:45:00 AM 8.8 47.84 0.889 7.91 6.3 10.3
1/13/2021 1:00:00 AM 8.79 47.822 0.886 7.93 6.65 10.29
1/13/2021 1:15:00 AM 8.78 47.804 0.883 7.93 7.15 10.3
1/13/2021 1:30:00 AM 8.76 47.768 0.879 7.92 6.3 10.32
1/13/2021 1:45:00 AM 8.74 47.732 0.875 7.92 6.83 10.32
1/13/2021 2:00:00 AM 8.71 47.678 0.871 7.92 6.6 10.33
1/13/2021 2:15:00 AM 8.67 47.606 0.867 7.92 6.26 10.34
1/13/2021 2:30:00 AM 8.63 47.534 0.864 7.93 6.61 10.35
1/13/2021 2:45:00 AM 8.58 47.444 0.861 7.94 6.45 10.37
1/13/2021 3:00:00 AM 8.54 47.372 0.857 7.94 6.46 10.38
1/13/2021 3:15:00 AM 8.51 47.318 0.853 7.95 6.67 10.39
1/13/2021 3:30:00 AM 8.47 47.246 0.849 7.94 6.97 10.4
1/13/2021 3:45:00 AM 8.43 47.174 0.844 7.94 6.92 10.42
1/13/2021 4:00:00 AM 8.39 47.102 0.839 7.95 6.92 10.44
1/13/2021 4:15:00 AM 8.36 47.048 0.835 7.94 6.69 10.45
1/13/2021 4:30:00 AM 8.32 46.976 0.831 7.93 6.59 10.46
1/13/2021 4:45:00 AM 8.28 46.904 0.827 7.94 6.42 10.47
1/13/2021 5:00:00 AM 8.23 46.814 0.823 7.94 6.22 10.49
1/13/2021 5:15:00 AM 8.2 46.76 0.819 7.93 6.59 10.5
1/13/2021 5:30:00 AM 8.17 46.706 0.816 7.94 6.56 10.51
1/13/2021 5:45:00 AM 8.14 46.652 0.814 7.95 6.22 10.52
1/13/2021 6:00:00 AM 8.12 46.616 0.812 7.95 6.28 10.53
1/13/2021 6:15:00 AM 8.1 46.58 0.811 7.94 6.34 10.54
1/13/2021 6:30:00 AM 8.07 46.526 0.811 7.94 6.55 10.55
1/13/2021 6:45:00 AM 8.05 46.49 0.812 7.93 6.66 10.55
1/13/2021 7:00:00 AM 8.03 46.454 0.813 7.95 6.77 10.55
1/13/2021 7:15:00 AM 8.02 46.436 0.814 7.95 6.38 10.56
1/13/2021 7:30:00 AM 8.02 46.436 0.814 7.94 6.6 10.57
1/13/2021 7:45:00 AM 8.02 46.436 0.812 7.95 6.18 10.59
1/13/2021 8:00:00 AM 8.03 46.454 0.81 7.93 6.07 10.62
1/13/2021 8:15:00 AM 8.05 46.49 0.808 7.94 6.32 10.66
1/13/2021 8:30:00 AM 8.07 46.526 0.807 7.95 6.34 10.7
1/13/2021 8:45:00 AM 8.09 46.562 0.805 7.95 6.06 10.76
1/13/2021 9:00:00 AM 8.13 46.634 0.804 7.96 6.21 10.84
1/13/2021 9:15:00 AM 8.18 46.724 0.804 7.96 6.08 10.94
1/13/2021 9:30:00 AM 8.23 46.814 0.804 7.98 7.22 10.99
1/13/2021 9:45:00 AM 8.31 46.958 0.805 7.98 6.23 11.1
1/13/2021 10:00:00 AM 8.39 47.102 0.807 7.99 6.12 11.19
1/13/2021 10:15:00 AM 8.5 47.3 0.812 7.99 6.38 11.29
1/13/2021 10:30:00 AM 8.59 47.462 0.818 8 6.23 11.33
1/13/2021 10:45:00 AM 8.73 47.714 0.827 8.01 6.18 11.39
1/13/2021 11:00:00 AM 8.87 47.966 0.837 8.03 6.32 11.52
1/13/2021 11:15:00 AM 9.01 48.218 0.847 8.03 6.56 11.57
1/13/2021 11:30:00 AM 9.19 48.542 0.857 8.04 6.23 11.66
1/13/2021 11:45:00 AM 9.32 48.776 0.867 8.05 6.84 11.71
1/13/2021 12:00:00 PM 9.43 48.974 0.876 8.03 5.72 11.71
1/13/2021 12:15:00 PM 9.55 49.19 0.882 8.05 5.9 11.74
1/13/2021 12:30:00 PM 9.67 49.406 0.884 8.06 6.19 11.82
1/13/2021 12:45:00 PM 9.81 49.658 0.884 8.07 6.35 11.91
1/13/2021 1:00:00 PM 9.9 49.82 0.883 8.08 6.23 11.92
1/13/2021 1:15:00 PM 9.98 49.964 0.883 8.09 5.89 11.92
1/13/2021 1:30:00 PM 10.06 50.108 0.883 8.09 5.57 11.93
1/13/2021 1:45:00 PM 10.12 50.216 0.882 8.1 6.03 11.92
1/13/2021 2:00:00 PM 10.17 50.306 0.882 8.09 6.12 11.9
1/13/2021 2:15:00 PM 10.19 50.342 0.881 8.09 5.95 11.87
1/13/2021 2:30:00 PM 10.21 50.378 0.21 8.08 5.91 11.81
1/13/2021 2:45:00 PM 10.22 50.396 0.878 8.09 6.27 11.76
1/13/2021 3:00:00 PM 10.23 50.414 0.873 8.08 5.88 11.7
1/13/2021 3:15:00 PM 10.22 50.396 0.868 8.09 6.42 11.64
1/13/2021 3:30:00 PM 10.21 50.378 0.864 8.08 6.31 11.53
1/13/2021 3:45:00 PM 10.2 50.36 0.864 8.07 6.7 11.42
1/13/2021 4:00:00 PM 10.18 50.324 0.866 8.07 6.64 11.32
1/13/2021 4:15:00 PM 10.17 50.306 0.868 8.06 6.79 11.2
1/13/2021 4:30:00 PM 10.18 50.324 0.87 8.05 6.48 11.12
1/13/2021 4:45:00 PM 10.17 50.306 0.871 8.05 6.39 11.04
1/13/2021 5:00:00 PM 10.15 50.27 0.872 8.05 6.59 10.93
1/13/2021 5:15:00 PM 10.13 50.234 0.874 8.03 6.38 10.84
1/13/2021 5:30:00 PM 10.09 50.162 0.873 8.03 6.21 10.77
1/13/2021 5:45:00 PM 10.05 50.09 0.873 8.03 5.91 10.7
1/13/2021 6:00:00 PM 10 50 0.873 8.02 6.34 10.64
1/13/2021 6:15:00 PM 9.95 49.91 0.873 8.01 6.46 10.59
1/13/2021 6:30:00 PM 9.9 49.82 0.874 8 6.36 10.54
1/13/2021 6:45:00 PM 9.85 49.73 0.875 8.01 6.28 10.49
1/13/2021 7:00:00 PM 9.8 49.64 0.876 8 6.18 10.44
1/13/2021 7:15:00 PM 9.75 49.55 0.876 7.99 6.39 10.39
1/13/2021 7:30:00 PM 9.69 49.442 0.875 7.98 6.31 10.36
1/13/2021 7:45:00 PM 9.64 49.352 0.875 7.98 6.55 10.33
1/13/2021 8:00:00 PM 9.59 49.262 0.877 7.97 6.49 10.3
1/13/2021 8:15:00 PM 9.54 49.172 0.879 7.96 6.42 10.27
1/13/2021 8:30:00 PM 9.48 49.064 0.88 7.96 6.3 10.24
1/13/2021 8:45:00 PM 9.43 48.974 0.881 7.95 6.21 10.23
1/13/2021 9:00:00 PM 9.38 48.884 0.883 7.95 6.18 10.21
1/13/2021 9:15:00 PM 9.34 48.812 0.886 7.94 6.22 10.19
1/13/2021 9:30:00 PM 9.3 48.74 0.889 7.94 6.28 10.19
1/13/2021 9:45:00 PM 9.26 48.668 0.89 7.95 6.42 10.18
1/13/2021 10:00:00 PM 9.22 48.596 0.891 7.94 6.51 10.17
1/13/2021 10:15:00 PM 9.18 48.524 0.894 7.94 6.69 10.18
1/13/2021 10:30:00 PM 9.15 48.47 0.895 7.93 6.49 10.18
1/13/2021 10:45:00 PM 9.11 48.398 0.896 7.94 6.78 10.18
1/13/2021 11:00:00 PM 9.08 48.344 0.898 7.94 7.38 10.19
1/13/2021 11:15:00 PM 9.05 48.29 0.899 7.94 6.7 10.19
1/13/2021 11:30:00 PM 9.03 48.254 0.901 7.93 7.14 10.2
1/13/2021 11:45:00 PM 9.01 48.218 0.902 7.93 6.65 10.2
1/14/2021 12:00:00 AM 8.99 48.182 0.903 7.93 6.24 10.2
1/14/2021 12:15:00 AM 8.96 48.128 0.903 7.93 6.4 10.2
1/14/2021 12:30:00 AM 8.92 48.056 0.902 7.93 6.42 10.22
1/14/2021 12:45:00 AM 8.89 48.002 0.902 7.94 6.22 10.22
1/14/2021 1:00:00 AM 8.85 47.93 0.902 7.94 6.21 10.23
1/14/2021 1:15:00 AM 8.82 47.876 0.901 7.94 6.32 10.24
1/14/2021 1:30:00 AM 8.78 47.804 0.899 7.93 6.34 10.24
1/14/2021 1:45:00 AM 8.74 47.732 0.895 7.94 6.17 10.26
1/14/2021 2:00:00 AM 8.71 47.678 0.891 7.94 6.33 10.27
1/14/2021 2:15:00 AM 8.69 47.642 0.888 7.95 6.28 10.27
1/14/2021 2:30:00 AM 8.67 47.606 0.886 7.94 6.14 10.28
1/14/2021 2:45:00 AM 8.65 47.57 0.884 7.95 6.54 10.3
1/14/2021 3:00:00 AM 8.63 47.534 0.881 7.95 7.02 10.3
1/14/2021 3:15:00 AM 8.61 47.498 0.878 7.94 6.76 10.31
1/14/2021 3:30:00 AM 8.59 47.462 0.875 7.94 6.6 10.32
1/14/2021 3:45:00 AM 8.57 47.426 0.871 7.95 7.82 10.33
1/14/2021 4:00:00 AM 8.55 47.39 0.866 7.94 6.94 10.34
1/14/2021 4:15:00 AM 8.53 47.354 0.862 7.96 7.25 10.35
1/14/2021 4:30:00 AM 8.51 47.318 0.858 7.95 7.11 10.36
1/14/2021 4:45:00 AM 8.48 47.264 0.855 7.96 6.92 10.38
1/14/2021 5:00:00 AM 8.47 47.246 0.853 7.96 6.99 10.38
1/14/2021 5:15:00 AM 8.46 47.228 0.85 7.96 6.35 10.39
1/14/2021 5:30:00 AM 8.46 47.228 0.847 7.96 6.45 10.39
1/14/2021 5:45:00 AM 8.46 47.228 0.844 7.95 6.38 10.4
1/14/2021 6:00:00 AM 8.47 47.246 0.843 7.97 6.66 10.4
1/14/2021 6:15:00 AM 8.47 47.246 0.844 7.96 6.13 10.4
1/14/2021 6:30:00 AM 8.47 47.246 0.844 7.96 5.95 10.4
1/14/2021 6:45:00 AM 8.47 47.246 0.843 7.95 6.16 10.4
1/14/2021 7:00:00 AM 8.46 47.228 0.844 7.96 5.86 10.41
1/14/2021 7:15:00 AM 8.46 47.228 0.844 7.96 5.79 10.41
1/14/2021 7:30:00 AM 8.46 47.228 0.844 7.96 5.88 10.41
1/14/2021 7:45:00 AM 8.48 47.264 0.843 7.96 5.6 10.43
1/14/2021 8:00:00 AM 8.5 47.3 0.842 7.97 5.55 10.48
1/14/2021 8:15:00 AM 8.54 47.372 0.839 7.98 5.67 10.56
1/14/2021 8:30:00 AM 8.57 47.426 0.838 7.97 7 10.6
1/14/2021 8:45:00 AM 8.61 47.498 0.836 7.98 6.4 10.64
1/14/2021 9:00:00 AM 8.65 47.57 0.835 7.97 5.66 10.72
1/14/2021 9:15:00 AM 8.7 47.66 0.834 7.98 5.64 10.78
1/14/2021 9:30:00 AM 8.76 47.768 0.834 7.97 5.71 10.85
1/14/2021 9:45:00 AM 8.82 47.876 0.834 7.99 6.04 10.95
1/14/2021 10:00:00 AM 8.89 48.002 0.836 8 6.04 11.03
1/14/2021 10:15:00 AM 8.97 48.146 0.842 8.01 6.1 11.12
1/14/2021 10:30:00 AM 9.07 48.326 0.851 8.02 5.73 11.19
1/14/2021 10:45:00 AM 9.19 48.542 0.86 8.04 5.66 11.28
1/14/2021 11:00:00 AM 9.31 48.758 0.871 8.03 5.99 11.35
1/14/2021 11:15:00 AM 9.43 48.974 0.882 8.05 5.88 11.41
1/14/2021 11:30:00 AM 9.54 49.172 0.894 8.04 5.82 11.45
1/14/2021 11:45:00 AM 9.67 49.406 0.904 8.05 5.61 11.53
1/14/2021 12:00:00 PM 9.82 49.676 0.912 8.06 5.35 11.61
1/14/2021 12:15:00 PM 9.94 49.892 0.914 8.07 5.36 11.67
1/14/2021 12:30:00 PM 10.06 50.108 0.916 8.07 5.24 11.71
1/14/2021 12:45:00 PM 10.18 50.324 0.919 8.08 5.72 11.77
1/14/2021 1:00:00 PM 10.3 50.54 0.926 8.09 6.94 11.78
1/14/2021 1:15:00 PM 10.41 50.738 0.929 8.09 6.37 11.79
1/14/2021 1:30:00 PM 10.48 50.864 0.932 8.09 5.91 11.72
1/14/2021 1:45:00 PM 10.55 50.99 0.934 8.09 5.71 11.71
1/14/2021 2:00:00 PM 10.61 51.098 0.936 8.09 6.01 11.68
1/14/2021 2:15:00 PM 10.68 51.224 0.938 8.09 5.69 11.64
1/14/2021 2:30:00 PM 10.78 51.404 0.939 8.1 5.4 11.71
1/14/2021 2:45:00 PM 10.83 51.494 0.94 8.1 5.78 11.67
1/14/2021 3:00:00 PM 10.86 51.548 0.939 8.1 5.7 11.55
1/14/2021 3:15:00 PM 10.89 51.602 0.938 8.09 5.44 11.49
1/14/2021 3:30:00 PM 10.89 51.602 0.936 8.09 5.31 11.42
1/14/2021 3:45:00 PM 10.89 51.602 0.933 8.09 5.36 11.3
1/14/2021 4:00:00 PM 10.89 51.602 0.931 8.07 5.42 11.19
1/14/2021 4:15:00 PM 10.89 51.602 0.928 8.07 5.65 11.09
1/14/2021 4:30:00 PM 10.88 51.584 0.927 8.06 5.74 10.99
1/14/2021 4:45:00 PM 10.84 51.512 0.925 8.05 5.74 10.86
1/14/2021 5:00:00 PM 10.79 51.422 0.921 8.04 5.36 10.75
1/14/2021 5:15:00 PM 10.73 51.314 0.915 8.03 5.46 10.65
1/14/2021 5:30:00 PM 10.68 51.224 0.906 8.04 5.45 10.57
1/14/2021 5:45:00 PM 10.62 51.116 0.898 8.03 5.46 10.51
1/14/2021 6:00:00 PM 10.56 51.008 0.893 8.03 5.79 10.45
1/14/2021 6:15:00 PM 10.5 50.9 0.89 8.01 6.05 10.4
1/14/2021 6:30:00 PM 10.45 50.81 0.89 8.01 5.86 10.36
1/14/2021 6:45:00 PM 10.4 50.72 0.891 8.01 6.63 10.3
1/14/2021 7:00:00 PM 10.35 50.63 0.891 8.01 6 10.26
1/14/2021 7:15:00 PM 10.29 50.522 0.89 7.99 6.19 10.21
1/14/2021 7:30:00 PM 10.23 50.414 0.888 7.98 6.06 10.17
1/14/2021 7:45:00 PM 10.16 50.288 0.887 7.98 6.03 10.14
1/14/2021 8:00:00 PM 10.09 50.162 0.888 7.97 6.22 10.11
1/14/2021 8:15:00 PM 10.02 50.036 0.888 7.97 6.08 10.07
1/14/2021 8:30:00 PM 9.96 49.928 0.89 7.96 6.31 10.05
1/14/2021 8:45:00 PM 9.9 49.82 0.892 7.96 6.08 10.03
1/14/2021 9:00:00 PM 9.85 49.73 0.897 7.96 6.11 10.02
1/14/2021 9:15:00 PM 9.8 49.64 0.9 7.96 5.92 10.01
1/14/2021 9:30:00 PM 9.75 49.55 0.903 7.95 6.1 10
1/14/2021 9:45:00 PM 9.7 49.46 0.905 7.95 6.45 10
1/14/2021 10:00:00 PM 9.65 49.37 0.907 7.95 6.43 10.01
1/14/2021 10:15:00 PM 9.6 49.28 0.909 7.94 6.25 10.01
1/14/2021 10:30:00 PM 9.57 49.226 0.913 7.93 6.04 10.01
1/14/2021 10:45:00 PM 9.54 49.172 0.916 7.93 6.44 10.01
1/14/2021 11:00:00 PM 9.51 49.118 0.919 7.93 6.36 10.01
1/14/2021 11:15:00 PM 9.48 49.064 0.922 7.94 6.32 10.01
1/14/2021 11:30:00 PM 9.45 49.01 0.924 7.93 6.29 10.01
1/14/2021 11:45:00 PM 9.42 48.956 0.925 7.91 6.24 10.02
1/15/2021 12:00:00 AM 9.39 48.902 0.925 7.92 6.18 10.03
1/15/2021 12:15:00 AM 9.36 48.848 0.925 7.92 6.26 10.04
1/15/2021 12:30:00 AM 9.34 48.812 0.924 7.93 6.07 10.05
1/15/2021 12:45:00 AM 9.31 48.758 0.923 7.94 6.29 10.06
1/15/2021 1:00:00 AM 9.28 48.704 0.921 7.93 6.42 10.07
1/15/2021 1:15:00 AM 9.24 48.632 0.917 7.93 6.08 10.07
1/15/2021 1:30:00 AM 9.2 48.56 0.912 7.93 7 10.09
1/15/2021 1:45:00 AM 9.16 48.488 0.907 7.93 6.75 10.1
1/15/2021 2:00:00 AM 9.12 48.416 0.903 7.94 6.68 10.11
1/15/2021 2:15:00 AM 9.08 48.344 0.898 7.94 6.85 10.14
1/15/2021 2:30:00 AM 9.04 48.272 0.895 7.94 7.34 10.15
1/15/2021 2:45:00 AM 9.01 48.218 0.891 7.94 7.17 10.17
1/15/2021 3:00:00 AM 8.98 48.164 0.886 7.94 6.7 10.17
1/15/2021 3:15:00 AM 8.95 48.11 0.881 7.94 6.57 10.2
1/15/2021 3:30:00 AM 8.93 48.074 0.876 7.94 6.41 10.21
1/15/2021 3:45:00 AM 8.89 48.002 0.873 7.95 6.9 10.23
1/15/2021 4:00:00 AM 8.86 47.948 0.869 7.95 7.38 10.23
1/15/2021 4:15:00 AM 8.82 47.876 0.864 7.94 8.11 10.24
1/15/2021 4:30:00 AM 8.79 47.822 0.859 7.95 7.68 10.27
1/15/2021 4:45:00 AM 8.76 47.768 0.854 7.95 8.03 10.28
1/15/2021 5:00:00 AM 8.73 47.714 0.85 7.95 7.55 10.28
1/15/2021 5:15:00 AM 8.71 47.678 0.845 7.96 6.99 10.3
1/15/2021 5:30:00 AM 8.69 47.642 0.84 7.96 7.32 10.31
1/15/2021 5:45:00 AM 8.68 47.624 0.837 7.95 6.56 10.32
1/15/2021 6:00:00 AM 8.67 47.606 0.835 7.96 6.87 10.33
1/15/2021 6:15:00 AM 8.67 47.606 0.835 7.96 6.62 10.33
1/15/2021 6:30:00 AM 8.66 47.588 0.836 7.96 6.27 10.33
1/15/2021 6:45:00 AM 8.66 47.588 0.836 7.96 6.37 10.34
1/15/2021 7:00:00 AM 8.65 47.57 0.836 7.96 6.5 10.34
1/15/2021 7:15:00 AM 8.65 47.57 0.837 7.97 6.2 10.35
1/15/2021 7:30:00 AM 8.64 47.552 0.839 7.97 5.86 10.36
1/15/2021 7:45:00 AM 8.65 47.57 0.841 7.96 6.27 10.37
1/15/2021 8:00:00 AM 8.66 47.588 0.84 7.97 6.27 10.41
1/15/2021 8:15:00 AM 8.67 47.606 0.838 7.96 6.48 10.45
1/15/2021 8:30:00 AM 8.69 47.642 0.837 7.97 6.41 10.52
1/15/2021 8:45:00 AM 8.72 47.696 0.836 7.98 7.19 10.6
1/15/2021 9:00:00 AM 8.75 47.75 0.832 7.99 6.11 10.69
1/15/2021 9:15:00 AM 8.8 47.84 0.831 8 6.28 10.79
1/15/2021 9:30:00 AM 8.86 47.948 0.832 8.01 6.23 10.88
1/15/2021 9:45:00 AM 8.93 48.074 0.833 8.02 6.39 10.96
1/15/2021 10:00:00 AM 9 48.2 0.837 8.03 5.96 11.03
1/15/2021 10:15:00 AM 9.08 48.344 0.843 8.02 5.78 11.09
1/15/2021 10:30:00 AM 9.15 48.47 0.852 8.04 5.68 11.13
1/15/2021 10:45:00 AM 9.23 48.614 0.862 8.04 5.46 11.18
1/15/2021 11:00:00 AM 9.32 48.776 0.873 8.03 5.51 11.22
1/15/2021 11:15:00 AM 9.41 48.938 0.884 8.05 5.71 11.25
1/15/2021 11:30:00 AM 9.5 49.1 0.897 8.05 5.65 11.27
1/15/2021 11:45:00 AM 9.58 49.244 0.908 8.04 6.08 11.27
1/15/2021 12:00:00 PM 9.67 49.406 0.916 8.05 5.92 11.33
1/15/2021 12:15:00 PM 9.75 49.55 0.922 8.05 6.04 11.38
1/15/2021 12:30:00 PM 9.82 49.676 0.926 8.06 6.21 11.37
1/15/2021 12:45:00 PM 9.9 49.82 0.929 8.06 6.62 11.41
1/15/2021 1:00:00 PM 9.96 49.928 0.929 8.06 6.31 11.38
1/15/2021 1:15:00 PM 10.02 50.036 0.929 8.07 5.82 11.36
1/15/2021 1:30:00 PM 10.08 50.144 0.928 8.07 6.27 11.38
1/15/2021 1:45:00 PM 10.14 50.252 0.927 8.07 5.7 11.35
1/15/2021 2:00:00 PM 10.2 50.36 0.925 8.07 5.68 11.35
1/15/2021 2:15:00 PM 10.25 50.45 0.925 8.07 6.96 11.29
1/15/2021 2:30:00 PM 10.3 50.54 0.925 8.08 6.78 11.22
1/15/2021 2:45:00 PM 10.34 50.612 0.925 8.07 6.06 11.16
1/15/2021 3:00:00 PM 10.37 50.666 0.924 8.06 5.99 11.12
1/15/2021 3:15:00 PM 10.4 50.72 0.924 8.06 5.89 11.07
1/15/2021 3:30:00 PM 10.43 50.774 0.925 8.05 6.46 11.01
1/15/2021 3:45:00 PM 10.46 50.828 0.925 8.05 6.37 10.93
1/15/2021 4:00:00 PM 10.47 50.846 0.925 8.04 6.24 10.84
1/15/2021 4:15:00 PM 10.48 50.864 0.924 8.04 6.15 10.75
1/15/2021 4:30:00 PM 10.49 50.882 0.921 8.02 6.39 10.67
1/15/2021 4:45:00 PM 10.49 50.882 0.919 8.03 6.69 10.6
1/15/2021 5:00:00 PM 10.5 50.9 0.918 8.02 6.32 10.52
1/15/2021 5:15:00 PM 10.51 50.918 0.918 8.02 5.88 10.46
1/15/2021 5:30:00 PM 10.52 50.936 0.918 8.01 6.03 10.38
1/15/2021 5:45:00 PM 10.52 50.936 0.917 8 6.03 10.32
1/15/2021 6:00:00 PM 10.53 50.954 0.917 8.01 6.53 10.26
1/15/2021 6:15:00 PM 10.53 50.954 0.919 8 6.53 10.21
1/15/2021 6:30:00 PM 10.54 50.972 0.923 7.98 6.84 10.15
1/15/2021 6:45:00 PM 10.54 50.972 0.924 7.98 6.36 10.1
1/15/2021 7:00:00 PM 10.54 50.972 0.922 7.98 6.87 10.06
1/15/2021 7:15:00 PM 10.53 50.954 0.918 7.97 6.67 10.02
1/15/2021 7:30:00 PM 10.52 50.936 0.914 7.97 6.08 9.98
1/15/2021 7:45:00 PM 10.52 50.936 0.911 7.97 6.17 9.95
1/15/2021 8:00:00 PM 10.52 50.936 0.908 7.96 6.08 9.92
1/15/2021 8:15:00 PM 10.51 50.918 0.905 7.96 5.92 9.89
1/15/2021 8:30:00 PM 10.51 50.918 0.905 7.96 5.99 9.87
1/15/2021 8:45:00 PM 10.51 50.918 0.904 7.96 6.18 9.85
1/15/2021 9:00:00 PM 10.5 50.9 0.904 7.95 5.62 9.84
1/15/2021 9:15:00 PM 10.5 50.9 0.903 7.96 5.71 9.83
1/15/2021 9:30:00 PM 10.5 50.9 0.902 7.95 5.87 9.82
1/15/2021 9:45:00 PM 10.49 50.882 0.902 7.94 6.33 9.81
1/15/2021 10:00:00 PM 10.48 50.864 0.902 7.94 6.55 9.82
1/15/2021 10:15:00 PM 10.46 50.828 0.9 7.94 7.86 9.81
1/15/2021 10:30:00 PM 10.43 50.774 0.896 7.93 7.63 9.82
1/15/2021 10:45:00 PM 10.41 50.738 0.894 7.94 8.04 9.82
1/15/2021 11:00:00 PM 10.39 50.702 0.892 7.93 8.46 9.82
1/15/2021 11:15:00 PM 10.38 50.684 0.891 7.92 9.22 9.82
1/15/2021 11:30:00 PM 10.37 50.666 0.891 7.92 11.16 9.81
1/15/2021 11:45:00 PM 10.37 50.666 0.888 7.91 13.94 9.8
1/16/2021 12:00:00 AM 10.38 50.684 0.886 7.91 15.98 9.8
1/16/2021 12:15:00 AM 10.38 50.684 0.882 7.9 16.3 9.8
1/16/2021 12:30:00 AM 10.38 50.684 0.876 7.9 16.52 9.8
1/16/2021 12:45:00 AM 10.36 50.648 0.862 7.9 16 9.81
1/16/2021 1:00:00 AM 10.31 50.558 0.839 7.88 15.73 9.82
1/16/2021 1:15:00 AM 10.25 50.45 0.812 7.86 15.45 9.75
1/16/2021 1:30:00 AM 10.19 50.342 0.792 7.8 14.63 9.55
1/16/2021 1:45:00 AM 10.09 50.162 0.777 7.74 15.03 9.37
1/16/2021 2:00:00 AM 9.97 49.946 0.759 7.7 14.91 9.3
1/16/2021 2:15:00 AM 9.84 49.712 0.736 7.69 14.77 9.3
1/16/2021 2:30:00 AM 9.72 49.496 0.713 7.67 14.38 9.35
1/16/2021 2:45:00 AM 9.63 49.334 0.694 7.67 13.89 9.41
1/16/2021 3:00:00 AM 9.55 49.19 0.681 7.67 13.08 9.46
1/16/2021 3:15:00 AM 9.48 49.064 0.672 7.67 14.57 9.51
1/16/2021 3:30:00 AM 9.42 48.956 0.667 7.65 13.44 9.56
1/16/2021 3:45:00 AM 9.38 48.884 0.666 7.66 12.18 9.59
1/16/2021 4:00:00 AM 9.35 48.83 0.667 7.69 11.48 9.62
1/16/2021 4:15:00 AM 9.32 48.776 0.67 7.67 11.5 9.64
1/16/2021 4:30:00 AM 9.3 48.74 0.674 7.68 11.09 9.68
1/16/2021 4:45:00 AM 9.3 48.74 0.68 7.68 10.96 9.71
1/16/2021 5:00:00 AM 9.31 48.758 0.688 7.7 10.41 9.73
1/16/2021 5:15:00 AM 9.33 48.794 0.699 7.73 10.65 9.74
1/16/2021 5:30:00 AM 9.36 48.848 0.709 7.75 10.42 9.74
1/16/2021 5:45:00 AM 9.4 48.92 0.721 7.74 10.24 9.74
1/16/2021 6:00:00 AM 9.45 49.01 0.734 7.74 10.41 9.74
1/16/2021 6:15:00 AM 9.49 49.082 0.745 7.75 10.41 9.74
1/16/2021 6:30:00 AM 9.53 49.154 0.752 7.76 10.4 9.73
1/16/2021 6:45:00 AM 9.56 49.208 0.76 7.76 10.22 9.73
1/16/2021 7:00:00 AM 9.57 49.226 0.766 7.78 10.19 9.74
1/16/2021 7:15:00 AM 9.56 49.208 0.77 7.78 9.3 9.74
1/16/2021 7:30:00 AM 9.55 49.19 0.771 7.79 8.42 9.75
1/16/2021 7:45:00 AM 9.54 49.172 0.772 7.8 8.03 9.78
1/16/2021 8:00:00 AM 9.52 49.136 0.773 7.8 7.95 9.82
1/16/2021 8:15:00 AM 9.5 49.1 0.775 7.81 7.5 9.86
1/16/2021 8:30:00 AM 9.47 49.046 0.776 7.81 7.6 9.91
1/16/2021 8:45:00 AM 9.46 49.028 0.773 7.81 7.21 9.96
1/16/2021 9:00:00 AM 9.44 48.992 0.771 7.82 7.17 10.03
1/16/2021 9:15:00 AM 9.44 48.992 0.766 7.82 7.05 10.12
1/16/2021 9:30:00 AM 9.44 48.992 0.762 7.83 6.5 10.22
1/16/2021 9:45:00 AM 9.44 48.992 0.761 7.83 7.09 10.33
1/16/2021 10:00:00 AM 9.47 49.046 0.763 7.85 7.01 10.47
1/16/2021 10:15:00 AM 9.5 49.1 0.767 7.87 6.75 10.58
1/16/2021 10:30:00 AM 9.55 49.19 0.772 7.87 6.73 10.69
1/16/2021 10:45:00 AM 9.63 49.334 0.779 7.9 7.18 10.83
1/16/2021 11:00:00 AM 9.71 49.478 0.787 7.92 7.63 10.93
1/16/2021 11:15:00 AM 9.78 49.604 0.795 7.93 7.44 10.98
1/16/2021 11:30:00 AM 9.89 49.802 0.804 7.94 6.88 11.11
1/16/2021 11:45:00 AM 9.97 49.946 0.812 7.95 6.86 11.23
1/16/2021 12:00:00 PM 10.03 50.054 0.82 7.96 6.79 11.27
1/16/2021 12:15:00 PM 10.09 50.162 0.83 7.97 6.94 11.3
1/16/2021 12:30:00 PM 10.14 50.252 0.839 7.98 7.19 11.3
1/16/2021 12:45:00 PM 10.2 50.36 0.849 7.98 7.13 11.31
1/16/2021 1:00:00 PM 10.27 50.486 0.859 8 7 11.36
1/16/2021 1:15:00 PM 10.34 50.612 0.87 8 6.87 11.37
1/16/2021 1:30:00 PM 10.43 50.774 0.878 8 7.87 11.42
1/16/2021 1:45:00 PM 10.51 50.918 0.886 8.01 7.89 11.43
1/16/2021 2:00:00 PM 10.6 51.08 0.891 8.02 6.42 11.48
1/16/2021 2:15:00 PM 10.66 51.188 0.895 8.03 6.45 11.5
1/16/2021 2:30:00 PM 10.71 51.278 0.897 8.03 6.45 11.51
1/16/2021 2:45:00 PM 10.71 51.278 0.898 8.03 6.81 11.43
1/16/2021 3:00:00 PM 10.73 51.314 0.898 8.03 6.97 11.42
1/16/2021 3:15:00 PM 10.75 51.35 0.899 8.04 7.05 11.41
1/16/2021 3:30:00 PM 10.73 51.314 0.898 8.03 8.39 11.31
1/16/2021 3:45:00 PM 10.72 51.296 0.894 8.03 9.62 11.2
1/16/2021 4:00:00 PM 10.71 51.278 0.891 8.02 8.46 11.14
1/16/2021 4:15:00 PM 10.69 51.242 0.888 8.02 7.47 11.08
1/16/2021 4:30:00 PM 10.68 51.224 0.886 8.02 7.34 10.99
1/16/2021 4:45:00 PM 10.66 51.188 0.883 8.02 7.86 10.89
1/16/2021 5:00:00 PM 10.62 51.116 0.882 8.01 7.4 10.79
1/16/2021 5:15:00 PM 10.58 51.044 0.882 8 7.39 10.7
1/16/2021 5:30:00 PM 10.54 50.972 0.883 7.99 6.46 10.61
1/16/2021 5:45:00 PM 10.5 50.9 0.882 7.99 6.45 10.53
1/16/2021 6:00:00 PM 10.46 50.828 0.881 7.98 6.86 10.46
1/16/2021 6:15:00 PM 10.41 50.738 0.881 7.97 6.77 10.38
1/16/2021 6:30:00 PM 10.36 50.648 0.882 7.97 6.63 10.32
1/16/2021 6:45:00 PM 10.3 50.54 0.882 7.96 7.44 10.25
1/16/2021 7:00:00 PM 10.25 50.45 0.879 7.95 7.12 10.19
1/16/2021 7:15:00 PM 10.2 50.36 0.877 7.94 6.97 10.14
1/16/2021 7:30:00 PM 10.15 50.27 0.875 7.94 7.2 10.09
1/16/2021 7:45:00 PM 10.09 50.162 0.876 7.93 7.88 10.04
1/16/2021 8:00:00 PM 10.03 50.054 0.877 7.93 7.81 10
1/16/2021 8:15:00 PM 9.97 49.946 0.878 7.92 7.76 9.97
1/16/2021 8:30:00 PM 9.91 49.838 0.877 7.92 7.27 9.94
1/16/2021 8:45:00 PM 9.85 49.73 0.878 7.92 7.39 9.92
1/16/2021 9:00:00 PM 9.79 49.622 0.878 7.91 7.47 9.9
1/16/2021 9:15:00 PM 9.73 49.514 0.88 7.91 7.3 9.9
1/16/2021 9:30:00 PM 9.68 49.424 0.882 7.91 7.49 9.88
1/16/2021 9:45:00 PM 9.62 49.316 0.883 7.91 7.4 9.88
1/16/2021 10:00:00 PM 9.58 49.244 0.882 7.91 7.46 9.88
1/16/2021 10:15:00 PM 9.52 49.136 0.882 7.9 7.52 9.88
1/16/2021 10:30:00 PM 9.48 49.064 0.883 7.91 7.86 9.88
1/16/2021 10:45:00 PM 9.43 48.974 0.885 7.9 7.36 9.89
1/16/2021 11:00:00 PM 9.38 48.884 0.886 7.9 7.24 9.89
1/16/2021 11:15:00 PM 9.34 48.812 0.884 7.9 7.31 9.89
1/16/2021 11:30:00 PM 9.3 48.74 0.883 7.9 7.5 9.9
1/16/2021 11:45:00 PM 9.27 48.686 0.884 7.9 7.45 9.91
1/17/2021 12:00:00 AM 9.24 48.632 0.885 7.9 7.07 9.92
1/17/2021 12:15:00 AM 9.2 48.56 0.884 7.9 7.72 9.93
1/17/2021 12:30:00 AM 9.16 48.488 0.884 7.9 7.16 9.94
1/17/2021 12:45:00 AM 9.12 48.416 0.882 7.9 7.39 9.95
1/17/2021 1:00:00 AM 9.08 48.344 0.88 7.9 7.06 9.96
1/17/2021 1:15:00 AM 9.04 48.272 0.879 7.91 7.03 9.98
1/17/2021 1:30:00 AM 9.01 48.218 0.878 7.91 7.12 9.99
1/17/2021 1:45:00 AM 8.97 48.146 0.874 7.91 7.07 10
1/17/2021 2:00:00 AM 8.93 48.074 0.872 7.9 7.47 10.02
1/17/2021 2:15:00 AM 8.89 48.002 0.868 7.9 7.56 10.04
1/17/2021 2:30:00 AM 8.85 47.93 0.865 7.91 7.49 10.05
1/17/2021 2:45:00 AM 8.81 47.858 0.862 7.91 7.41 10.07
1/17/2021 3:00:00 AM 8.77 47.786 0.861 7.91 7.69 10.08
1/17/2021 3:15:00 AM 8.72 47.696 0.859 7.91 8.01 10.1
1/17/2021 3:30:00 AM 8.68 47.624 0.856 7.92 8 10.12
1/17/2021 3:45:00 AM 8.65 47.57 0.853 7.92 7.8 10.13
1/17/2021 4:00:00 AM 8.61 47.498 0.851 7.91 8.08 10.14
1/17/2021 4:15:00 AM 8.59 47.462 0.848 7.92 7.4 10.16
1/17/2021 4:30:00 AM 8.58 47.444 0.845 7.94 7.43 10.17
1/17/2021 4:45:00 AM 8.57 47.426 0.842 7.93 7.69 10.18
1/17/2021 5:00:00 AM 8.55 47.39 0.84 7.92 7.08 10.2
1/17/2021 5:15:00 AM 8.54 47.372 0.837 7.93 8.1 10.21
1/17/2021 5:30:00 AM 8.52 47.336 0.833 7.92 8.3 10.23
1/17/2021 5:45:00 AM 8.52 47.336 0.831 7.94 7.13 10.24
1/17/2021 6:00:00 AM 8.51 47.318 0.83 7.94 7.2 10.25
1/17/2021 6:15:00 AM 8.51 47.318 0.83 7.94 7.14 10.25
1/17/2021 6:30:00 AM 8.51 47.318 0.83 7.94 6.43 10.26
1/17/2021 6:45:00 AM 8.51 47.318 0.829 7.95 6.43 10.26
1/17/2021 7:00:00 AM 8.51 47.318 0.829 7.94 6.38 10.27
1/17/2021 7:15:00 AM 8.52 47.336 0.83 7.94 6.05 10.27
1/17/2021 7:30:00 AM 8.53 47.354 0.83 7.94 5.8 10.27
1/17/2021 7:45:00 AM 8.53 47.354 0.83 7.94 5.92 10.28
1/17/2021 8:00:00 AM 8.54 47.372 0.829 7.96 5.62 10.3
1/17/2021 8:15:00 AM 8.55 47.39 0.825 7.94 5.44 10.33
1/17/2021 8:30:00 AM 8.56 47.408 0.822 7.96 5.44 10.37
1/17/2021 8:45:00 AM 8.57 47.426 0.819 7.95 5.83 10.43
1/17/2021 9:00:00 AM 8.6 47.48 0.817 7.95 5.71 10.53
1/17/2021 9:15:00 AM 8.63 47.534 0.815 7.97 5.11 10.58
1/17/2021 9:30:00 AM 8.66 47.588 0.812 7.99 5.22 10.64
1/17/2021 9:45:00 AM 8.69 47.642 0.811 7.98 4.82 10.69
1/17/2021 10:00:00 AM 8.74 47.732 0.81 7.98 5.22 10.8
1/17/2021 10:15:00 AM 8.8 47.84 0.808 8 5.17 10.96
1/17/2021 10:30:00 AM 8.87 47.966 0.808 8.01 5.58 11.08
1/17/2021 10:45:00 AM 8.94 48.092 0.81 8.02 5.56 11.17
1/17/2021 11:00:00 AM 9.02 48.236 0.813 8.03 6.24 11.26
1/17/2021 11:15:00 AM 9.09 48.362 0.817 8.03 5.86 11.32
1/17/2021 11:30:00 AM 9.23 48.614 0.822 8.04 5.71 11.4
1/17/2021 11:45:00 AM 9.36 48.848 0.828 8.06 5.93 11.53
1/17/2021 12:00:00 PM 9.45 49.01 0.835 8.06 5.57 11.59
1/17/2021 12:15:00 PM 9.56 49.208 0.843 8.07 5.52 11.61
1/17/2021 12:30:00 PM 9.65 49.37 0.851 8.08 5.38 11.66
1/17/2021 12:45:00 PM 9.75 49.55 0.859 8.08 5.26 11.75
1/17/2021 1:00:00 PM 9.84 49.712 0.868 8.08 5.3 11.79
1/17/2021 1:15:00 PM 9.94 49.892 0.876 8.1 5.26 11.86
1/17/2021 1:30:00 PM 10.04 50.072 0.882 8.1 5.23 11.88
1/17/2021 1:45:00 PM 10.13 50.234 0.889 8.1 5.62 11.85
1/17/2021 2:00:00 PM 10.18 50.324 0.893 8.1 5.41 11.8
1/17/2021 2:15:00 PM 10.2 50.36 0.894 8.1 5.42 11.75
1/17/2021 2:30:00 PM 10.22 50.396 0.894 8.12 5.41 11.76
1/17/2021 2:45:00 PM 10.24 50.432 0.894 8.11 5.12 11.77
1/17/2021 3:00:00 PM 10.25 50.45 0.895 8.11 4.94 11.73
1/17/2021 3:15:00 PM 10.29 50.522 0.895 8.11 5.28 11.7
1/17/2021 3:30:00 PM 10.32 50.576 0.895 8.11 5.13 11.6
1/17/2021 3:45:00 PM 10.32 50.576 0.893 8.1 4.94 11.5
1/17/2021 4:00:00 PM 10.33 50.594 0.895 8.1 5.27 11.45
1/17/2021 4:15:00 PM 10.33 50.594 0.897 8.08 5.19 11.31
1/17/2021 4:30:00 PM 10.33 50.594 0.899 8.08 5.19 11.2
1/17/2021 4:45:00 PM 10.33 50.594 0.898 8.06 4.92 11.09
1/17/2021 5:00:00 PM 10.33 50.594 0.898 8.07 5.41 10.97
1/17/2021 5:15:00 PM 10.31 50.558 0.897 8.05 5.86 10.87
1/17/2021 5:30:00 PM 10.29 50.522 0.896 8.04 5.44 10.76
1/17/2021 5:45:00 PM 10.26 50.468 0.895 8.04 5.69 10.67
1/17/2021 6:00:00 PM 10.22 50.396 0.894 8.02 5.86 10.59
1/17/2021 6:15:00 PM 10.18 50.324 0.893 8.01 5.65 10.51
1/17/2021 6:30:00 PM 10.14 50.252 0.892 8 5.89 10.45
1/17/2021 6:45:00 PM 10.1 50.18 0.891 8.01 5.85 10.38
1/17/2021 7:00:00 PM 10.07 50.126 0.891 8 6.08 10.32
1/17/2021 7:15:00 PM 10.04 50.072 0.89 7.99 6.47 10.27
1/17/2021 7:30:00 PM 10.01 50.018 0.891 7.98 6.46 10.21
1/17/2021 7:45:00 PM 9.98 49.964 0.892 7.97 5.9 10.17
1/17/2021 8:00:00 PM 9.96 49.928 0.892 7.97 6.11 10.12
1/17/2021 8:15:00 PM 9.93 49.874 0.893 7.97 6.1 10.08
1/17/2021 8:30:00 PM 9.9 49.82 0.894 7.96 6.18 10.05
1/17/2021 8:45:00 PM 9.88 49.784 0.895 7.95 6.17 10.02
1/17/2021 9:00:00 PM 9.85 49.73 0.896 7.95 6.82 10
1/17/2021 9:15:00 PM 9.83 49.694 0.897 7.95 6.55 9.98
1/17/2021 9:30:00 PM 9.81 49.658 0.898 7.95 6.62 9.96
1/17/2021 9:45:00 PM 9.8 49.64 0.9 7.95 6.35 9.95
1/17/2021 10:00:00 PM 9.77 49.586 0.9 7.94 6.36 9.94
1/17/2021 10:15:00 PM 9.75 49.55 0.9 7.94 6.26 9.93
1/17/2021 10:30:00 PM 9.73 49.514 0.901 7.94 6.4 9.93
1/17/2021 10:45:00 PM 9.72 49.496 0.902 7.94 6.42 9.92
1/17/2021 11:00:00 PM 9.72 49.496 0.903 7.94 6.5 9.92
1/17/2021 11:15:00 PM 9.71 49.478 0.902 7.94 6.67 9.91
1/17/2021 11:30:00 PM 9.71 49.478 0.902 7.93 6.85 9.91
1/17/2021 11:45:00 PM 9.7 49.46 0.901 7.93 6.61 9.9
1/18/2021 12:00:00 AM 9.69 49.442 0.899 7.93 6.47 9.91
1/18/2021 12:15:00 AM 9.68 49.424 0.9 7.93 6.67 9.91
1/18/2021 12:30:00 AM 9.67 49.406 0.901 7.93 6.39 9.9
1/18/2021 12:45:00 AM 9.66 49.388 0.9 7.93 6.69 9.91
1/18/2021 1:00:00 AM 9.65 49.37 0.898 7.93 6.76 9.91
1/18/2021 1:15:00 AM 9.63 49.334 0.895 7.94 6.63 9.92
1/18/2021 1:30:00 AM 9.62 49.316 0.892 7.94 6.59 9.92
1/18/2021 1:45:00 AM 9.61 49.298 0.889 7.93 6.62 9.93
1/18/2021 2:00:00 AM 9.6 49.28 0.888 7.93 6.77 9.93
1/18/2021 2:15:00 AM 9.6 49.28 0.885 7.93 6.47 9.93
1/18/2021 2:30:00 AM 9.59 49.262 0.881 7.94 6.84 9.94
1/18/2021 2:45:00 AM 9.58 49.244 0.878 7.93 7.34 9.94
1/18/2021 3:00:00 AM 9.57 49.226 0.875 7.94 7.76 9.95
1/18/2021 3:15:00 AM 9.56 49.208 0.872 7.93 8.04 9.95
1/18/2021 3:30:00 AM 9.54 49.172 0.869 7.93 7.65 9.96
1/18/2021 3:45:00 AM 9.52 49.136 0.866 7.93 8.45 9.97
1/18/2021 4:00:00 AM 9.48 49.064 0.862 7.93 8.22 9.97
1/18/2021 4:15:00 AM 9.43 48.974 0.857 7.94 7.23 9.99
1/18/2021 4:30:00 AM 9.38 48.884 0.852 7.94 7.67 10
1/18/2021 4:45:00 AM 9.34 48.812 0.847 7.94 7.86 10.01
1/18/2021 5:00:00 AM 9.29 48.722 0.843 7.94 7.94 10.02
1/18/2021 5:15:00 AM 9.25 48.65 0.839 7.94 8.31 10.04
1/18/2021 5:30:00 AM 9.21 48.578 0.834 7.95 9 10.05
1/18/2021 5:45:00 AM 9.18 48.524 0.831 7.95 9.61 10.07
1/18/2021 6:00:00 AM 9.16 48.488 0.829 7.96 8.8 10.09
1/18/2021 6:15:00 AM 9.13 48.434 0.828 7.95 7.95 10.1
1/18/2021 6:30:00 AM 9.1 48.38 0.827 7.94 7.94 10.11
1/18/2021 6:45:00 AM 9.06 48.308 0.827 7.95 7.65 10.12
1/18/2021 7:00:00 AM 9.02 48.236 0.827 7.97 7.21 10.13
1/18/2021 7:15:00 AM 8.98 48.164 0.828 7.96 7.2 10.15
1/18/2021 7:30:00 AM 8.94 48.092 0.828 7.95 6.5 10.16
1/18/2021 7:45:00 AM 8.91 48.038 0.827 7.96 6.34 10.2
1/18/2021 8:00:00 AM 8.9 48.02 0.826 7.95 6.53 10.24
1/18/2021 8:15:00 AM 8.9 48.02 0.825 7.98 6.02 10.29
1/18/2021 8:30:00 AM 8.92 48.056 0.823 7.97 6.21 10.37
1/18/2021 8:45:00 AM 8.94 48.092 0.821 7.97 6.39 10.44
1/18/2021 9:00:00 AM 8.95 48.11 0.819 7.98 6.98 10.48
1/18/2021 9:15:00 AM 8.97 48.146 0.819 7.98 7.56 10.58
1/18/2021 9:30:00 AM 9 48.2 0.818 7.99 7.76 10.67
1/18/2021 9:45:00 AM 9 48.2 0.816 8 7.89 10.73
1/18/2021 10:00:00 AM 9.04 48.272 0.816 8 7.74 10.84
1/18/2021 10:15:00 AM 9.11 48.398 0.817 8.01 7.59 10.99
1/18/2021 10:30:00 AM 9.18 48.524 0.821 8.03 7.4 11.12
1/18/2021 10:45:00 AM 9.25 48.65 0.825 8.04 7.67 11.19
1/18/2021 11:00:00 AM 9.35 48.83 0.831 8.05 7.35 11.29
1/18/2021 11:15:00 AM 9.43 48.974 0.838 8.06 6.85 11.39
1/18/2021 11:30:00 AM 9.53 49.154 0.845 8.07 6.64 11.5
1/18/2021 11:45:00 AM 9.63 49.334 0.852 8.07 6.15 11.59
1/18/2021 12:00:00 PM 9.71 49.478 0.858 8.08 6.09 11.68
1/18/2021 12:15:00 PM 9.79 49.622 0.865 8.1 6.39 11.74
1/18/2021 12:30:00 PM 9.87 49.766 0.872 8.11 6.03 11.84
1/18/2021 12:45:00 PM 9.95 49.91 0.88 8.12 5.6 11.91
1/18/2021 1:00:00 PM 10.03 50.054 0.885 8.12 5.62 11.96
1/18/2021 1:15:00 PM 10.09 50.162 0.888 8.12 5.61 11.96
1/18/2021 1:30:00 PM 10.16 50.288 0.891 8.13 5.32 11.97
1/18/2021 1:45:00 PM 10.25 50.45 0.893 8.15 5.58 12.03
1/18/2021 2:00:00 PM 10.33 50.594 0.895 8.15 5.74 12.1
1/18/2021 2:15:00 PM 10.33 50.594 0.895 8.15 6.02 11.97
1/18/2021 2:30:00 PM 10.36 50.648 0.895 8.15 6 11.93
1/18/2021 2:45:00 PM 10.38 50.684 0.894 8.15 5.52 11.9
1/18/2021 3:00:00 PM 10.36 50.648 0.892 8.14 5.73 11.79
1/18/2021 3:15:00 PM 10.35 50.63 0.889 8.13 5.51 11.7
1/18/2021 3:30:00 PM 10.35 50.63 0.887 8.14 5.39 11.7
1/18/2021 3:45:00 PM 10.33 50.594 0.885 8.13 5.16 11.63
1/18/2021 4:00:00 PM 10.32 50.576 0.883 8.13 5.32 11.51
1/18/2021 4:15:00 PM 10.3 50.54 0.881 8.12 5.78 11.43
1/18/2021 4:30:00 PM 10.27 50.486 0.88 8.11 5.21 11.34
1/18/2021 4:45:00 PM 10.25 50.45 0.879 8.11 5.86 11.21
1/18/2021 5:00:00 PM 10.21 50.378 0.878 8.08 5.61 11.07
1/18/2021 5:15:00 PM 10.18 50.324 0.879 8.08 5.71 10.97
1/18/2021 5:30:00 PM 10.15 50.27 0.879 8.06 5.69 10.88
1/18/2021 5:45:00 PM 10.11 50.198 0.878 8.05 5.75 10.78
1/18/2021 6:00:00 PM 10.05 50.09 0.878 8.05 5.83 10.7
1/18/2021 6:15:00 PM 9.98 49.964 0.878 8.05 5.81 10.62
1/18/2021 6:30:00 PM 9.92 49.856 0.878 8.03 6.01 10.55
1/18/2021 6:45:00 PM 9.85 49.73 0.879 8.03 6.48 10.49
1/18/2021 7:00:00 PM 9.79 49.622 0.878 8.02 6.15 10.45
1/18/2021 7:15:00 PM 9.74 49.532 0.878 8 6.33 10.4
1/18/2021 7:30:00 PM 9.67 49.406 0.878 8.01 6.43 10.36
1/18/2021 7:45:00 PM 9.61 49.298 0.878 7.99 6.12 10.32
1/18/2021 8:00:00 PM 9.55 49.19 0.878 7.97 6.58 10.29
1/18/2021 8:15:00 PM 9.49 49.082 0.879 7.99 6.53 10.26
1/18/2021 8:30:00 PM 9.42 48.956 0.88 7.98 6.3 10.24
1/18/2021 8:45:00 PM 9.36 48.848 0.881 7.98 6.61 10.21
1/18/2021 9:00:00 PM 9.29 48.722 0.882 7.98 6.67 10.2
1/18/2021 9:15:00 PM 9.25 48.65 0.883 7.96 6.46 10.19
1/18/2021 9:30:00 PM 9.21 48.578 0.886 7.97 6.63 10.19
1/18/2021 9:45:00 PM 9.19 48.542 0.889 7.97 6.43 10.18
1/18/2021 10:00:00 PM 9.16 48.488 0.893 7.97 6.53 10.17
1/18/2021 10:15:00 PM 9.14 48.452 0.896 7.96 6.74 10.18
1/18/2021 10:30:00 PM 9.12 48.416 0.9 7.96 6.69 10.17
1/18/2021 10:45:00 PM 9.08 48.344 0.904 7.95 6.65 10.17
1/18/2021 11:00:00 PM 9.05 48.29 0.908 7.96 6.66 10.17
1/18/2021 11:15:00 PM 9.02 48.236 0.911 7.95 7.19 10.18
1/18/2021 11:30:00 PM 9 48.2 0.912 7.95 7.15 10.17
1/18/2021 11:45:00 PM 8.98 48.164 0.914 7.94 7.29 10.18
1/19/2021 12:00:00 AM 8.97 48.146 0.915 7.95 7.4 10.18
1/19/2021 12:15:00 AM 8.96 48.128 0.916 7.95 7.54 10.19
1/19/2021 12:30:00 AM 8.95 48.11 0.916 7.94 7.46 10.19
1/19/2021 12:45:00 AM 8.94 48.092 0.915 7.95 7.18 10.18
1/19/2021 1:00:00 AM 8.92 48.056 0.913 7.94 7.67 10.2
1/19/2021 1:15:00 AM 8.89 48.002 0.91 7.94 7.68 10.21
1/19/2021 1:30:00 AM 8.86 47.948 0.907 7.94 7.99 10.22
1/19/2021 1:45:00 AM 8.83 47.894 0.904 7.95 7.28 10.22
1/19/2021 2:00:00 AM 8.8 47.84 0.9 7.96 7.04 10.24
1/19/2021 2:15:00 AM 8.76 47.768 0.896 7.95 7.66 10.25
1/19/2021 2:30:00 AM 8.73 47.714 0.892 7.96 6.96 10.26
1/19/2021 2:45:00 AM 8.7 47.66 0.888 7.96 6.94 10.27
1/19/2021 3:00:00 AM 8.67 47.606 0.884 7.97 7.13 10.28
1/19/2021 3:15:00 AM 8.64 47.552 0.881 7.97 7.32 10.29
1/19/2021 3:30:00 AM 8.61 47.498 0.878 7.97 7.61 10.3
1/19/2021 3:45:00 AM 8.57 47.426 0.873 7.97 8.16 10.32
1/19/2021 4:00:00 AM 8.54 47.372 0.869 7.97 8.04 10.33
1/19/2021 4:15:00 AM 8.51 47.318 0.865 7.97 7.82 10.34
1/19/2021 4:30:00 AM 8.5 47.3 0.862 7.97 7.83 10.36
1/19/2021 4:45:00 AM 8.49 47.282 0.859 7.98 7.25 10.37
1/19/2021 5:00:00 AM 8.48 47.264 0.855 7.99 6.68 10.38
1/19/2021 5:15:00 AM 8.47 47.246 0.852 7.98 6.65 10.39
1/19/2021 5:30:00 AM 8.47 47.246 0.849 7.98 7.02 10.4
1/19/2021 5:45:00 AM 8.47 47.246 0.847 7.98 6.9 10.41
1/19/2021 6:00:00 AM 8.47 47.246 0.846 7.98 6.7 10.41
1/19/2021 6:15:00 AM 8.46 47.228 0.845 7.98 6.43 10.42
1/19/2021 6:30:00 AM 8.45 47.21 0.843 7.99 6.45 10.43
1/19/2021 6:45:00 AM 8.42 47.156 0.84 7.98 6.23 10.43
1/19/2021 7:00:00 AM 8.42 47.156 0.838 7.98 6.14 10.44
1/19/2021 7:15:00 AM 8.41 47.138 0.836 7.97 6.22 10.45
1/19/2021 7:30:00 AM 8.41 47.138 0.834 7.99 6.07 10.47
1/19/2021 7:45:00 AM 8.41 47.138 0.833 7.98 6.51 10.5
1/19/2021 8:00:00 AM 8.41 47.138 0.832 7.99 6.1 10.54
1/19/2021 8:15:00 AM 8.41 47.138 0.831 8 6.02 10.59
1/19/2021 8:30:00 AM 8.42 47.156 0.83 8 5.89 10.67
1/19/2021 8:45:00 AM 8.45 47.21 0.83 8.01 6.11 10.76
1/19/2021 9:00:00 AM 8.5 47.3 0.83 8 5.81 10.84
1/19/2021 9:15:00 AM 8.55 47.39 0.829 8.01 6.51 10.92
1/19/2021 9:30:00 AM 8.6 47.48 0.826 8.03 6.78 11.03
1/19/2021 9:45:00 AM 8.65 47.57 0.825 8.04 6.69 11.12
1/19/2021 10:00:00 AM 8.73 47.714 0.825 8.06 6.64 11.28
1/19/2021 10:15:00 AM 8.81 47.858 0.827 8.07 6.42 11.38
1/19/2021 10:30:00 AM 8.87 47.966 0.833 8.07 6.63 11.44
1/19/2021 10:45:00 AM 8.93 48.074 0.841 8.07 6.04 11.5
1/19/2021 11:00:00 AM 9.02 48.236 0.85 8.07 6.29 11.59
1/19/2021 11:15:00 AM 9.13 48.434 0.859 8.1 6.13 11.69
1/19/2021 11:30:00 AM 9.19 48.542 0.87 8.09 6.62 11.69
1/19/2021 11:45:00 AM 9.27 48.686 0.88 8.1 5.95 11.73
1/19/2021 12:00:00 PM 9.37 48.866 0.889 8.11 5.77 11.83
1/19/2021 12:15:00 PM 9.46 49.028 0.896 8.12 5.44 11.91
1/19/2021 12:30:00 PM 9.55 49.19 0.9 8.12 5.42 11.98
1/19/2021 12:45:00 PM 9.61 49.298 0.903 8.12 5.44 12.03
1/19/2021 1:00:00 PM 9.69 49.442 0.906 8.12 5.82 12.06
1/19/2021 1:15:00 PM 9.74 49.532 0.909 8.14 5.31 12.04
1/19/2021 1:30:00 PM 9.85 49.73 0.911 8.15 5.19 12.13
1/19/2021 1:45:00 PM 9.94 49.892 0.917 8.16 4.99 12.19
1/19/2021 2:00:00 PM 10 50 0.927 8.15 5.33 12.19
1/19/2021 2:15:00 PM 10.08 50.144 0.935 8.16 5.17 12.2
1/19/2021 2:30:00 PM 10.16 50.288 0.939 8.16 5.3 12.19
1/19/2021 2:45:00 PM 10.18 50.324 0.941 8.18 5.2 12.13
1/19/2021 3:00:00 PM 10.17 50.306 0.94 8.16 5.41 12.05
1/19/2021 3:15:00 PM 10.14 50.252 0.935 8.15 5.14 11.96
1/19/2021 3:30:00 PM 10.1 50.18 0.931 8.15 5.22 11.87
1/19/2021 3:45:00 PM 10.06 50.108 0.93 8.14 4.96 11.75
1/19/2021 4:00:00 PM 10.02 50.036 0.934 8.13 5.6 11.64
1/19/2021 4:15:00 PM 10 50 0.942 8.12 4.91 11.51
1/19/2021 4:30:00 PM 9.99 49.982 0.947 8.11 5.06 11.38
1/19/2021 4:45:00 PM 9.99 49.982 0.95 8.1 5.1 11.26
1/19/2021 5:00:00 PM 9.98 49.964 0.951 8.09 4.83 11.16
1/19/2021 5:15:00 PM 9.97 49.946 0.95 8.08 5 11.05
1/19/2021 5:30:00 PM 9.93 49.874 0.946 8.07 5.09 10.96
1/19/2021 5:45:00 PM 9.89 49.802 0.945 8.06 5.15 10.88
1/19/2021 6:00:00 PM 9.84 49.712 0.946 8.05 5.47 10.81
1/19/2021 6:15:00 PM 9.79 49.622 0.948 8.05 5.62 10.74
1/19/2021 6:30:00 PM 9.73 49.514 0.947 8.04 5.62 10.68
1/19/2021 6:45:00 PM 9.66 49.388 0.943 8.03 5.45 10.63
1/19/2021 7:00:00 PM 9.58 49.244 0.937 8.03 6.04 10.58
1/19/2021 7:15:00 PM 9.5 49.1 0.928 8.03 5.84 10.54
1/19/2021 7:30:00 PM 9.42 48.956 0.92 8.01 6.21 10.49
1/19/2021 7:45:00 PM 9.35 48.83 0.914 8.03 5.56 10.45
1/19/2021 8:00:00 PM 9.27 48.686 0.909 8.01 5.89 10.41
1/19/2021 8:15:00 PM 9.21 48.578 0.903 8 5.95 10.38
1/19/2021 8:30:00 PM 9.14 48.452 0.9 8 5.86 10.36
1/19/2021 8:45:00 PM 9.08 48.344 0.898 7.99 5.75 10.34
1/19/2021 9:00:00 PM 9.02 48.236 0.897 7.97 5.6 10.31
1/19/2021 9:15:00 PM 8.97 48.146 0.898 7.98 5.87 10.29
1/19/2021 9:30:00 PM 8.92 48.056 0.898 7.97 6.15 10.27
1/19/2021 9:45:00 PM 8.88 47.984 0.898 7.97 6.3 10.26
1/19/2021 10:00:00 PM 8.83 47.894 0.9 7.95 6.37 10.25
1/19/2021 10:15:00 PM 8.8 47.84 0.902 7.97 6.05 10.24
1/19/2021 10:30:00 PM 8.76 47.768 0.905 7.97 6.19 10.23
1/19/2021 10:45:00 PM 8.73 47.714 0.91 7.96 6.41 10.22
1/19/2021 11:00:00 PM 8.71 47.678 0.913 7.96 6.16 10.21
1/19/2021 11:15:00 PM 8.69 47.642 0.915 7.95 6.04 10.21
1/19/2021 11:30:00 PM 8.68 47.624 0.917 7.96 6.42 10.21
1/19/2021 11:45:00 PM 8.67 47.606 0.919 7.95 6.37 10.2
1/20/2021 12:00:00 AM 8.66 47.588 0.922 7.93 6.29 10.19
1/20/2021 12:15:00 AM 8.65 47.57 0.923 7.96 6.56 10.19
1/20/2021 12:30:00 AM 8.63 47.534 0.924 7.95 6.44 10.19
1/20/2021 12:45:00 AM 8.61 47.498 0.924 7.96 6.8 10.19
1/20/2021 1:00:00 AM 8.59 47.462 0.923 7.95 6.43 10.19
1/20/2021 1:15:00 AM 8.58 47.444 0.922 7.95 6.62 10.19
1/20/2021 1:30:00 AM 8.56 47.408 0.92 7.97 6.28 10.21
1/20/2021 1:45:00 AM 8.55 47.39 0.918 7.96 6.8 10.21
1/20/2021 2:00:00 AM 8.55 47.39 0.916 7.96 6.19 10.21
1/20/2021 2:15:00 AM 8.54 47.372 0.912 7.97 6.32 10.22
1/20/2021 2:30:00 AM 8.53 47.354 0.909 7.97 6.53 10.22
1/20/2021 2:45:00 AM 8.52 47.336 0.907 7.96 7.86 10.22
1/20/2021 3:00:00 AM 8.52 47.336 0.904 7.96 7.83 10.22
1/20/2021 3:15:00 AM 8.5 47.3 0.901 7.97 7.01 10.23
1/20/2021 3:30:00 AM 8.49 47.282 0.897 7.96 7.15 10.24
1/20/2021 3:45:00 AM 8.47 47.246 0.892 7.96 6.47 10.24
1/20/2021 4:00:00 AM 8.46 47.228 0.885 7.97 6.65 10.26
1/20/2021 4:15:00 AM 8.45 47.21 0.879 7.95 6.11 10.26
1/20/2021 4:30:00 AM 8.44 47.192 0.874 7.96 6.7 10.27
1/20/2021 4:45:00 AM 8.44 47.192 0.87 7.96 6.55 10.27
1/20/2021 5:00:00 AM 8.44 47.192 0.866 7.95 6.6 10.28
1/20/2021 5:15:00 AM 8.44 47.192 0.862 7.98 6.75 10.29
1/20/2021 5:30:00 AM 8.44 47.192 0.858 7.97 7.37 10.29
1/20/2021 5:45:00 AM 8.44 47.192 0.855 7.98 7.43 10.29
1/20/2021 6:00:00 AM 8.44 47.192 0.852 7.97 7.09 10.3
1/20/2021 6:15:00 AM 8.42 47.156 0.85 7.98 6.77 10.3
1/20/2021 6:30:00 AM 8.41 47.138 0.848 7.98 6.74 10.31
1/20/2021 6:45:00 AM 8.4 47.12 0.847 7.98 6.85 10.32
1/20/2021 7:00:00 AM 8.39 47.102 0.845 7.98 6.85 10.33
1/20/2021 7:15:00 AM 8.37 47.066 0.845 7.96 6.44 10.33
1/20/2021 7:30:00 AM 8.37 47.066 0.847 7.97 6.81 10.34
1/20/2021 7:45:00 AM 8.37 47.066 0.848 7.97 6.31 10.37
1/20/2021 8:00:00 AM 8.38 47.084 0.85 7.97 6.05 10.41
1/20/2021 8:15:00 AM 8.39 47.102 0.851 7.97 5.79 10.46
1/20/2021 8:30:00 AM 8.39 47.102 0.849 7.99 5.63 10.52
1/20/2021 8:45:00 AM 8.39 47.102 0.849 8.01 5.69 10.59
1/20/2021 9:00:00 AM 8.39 47.102 0.848 8.01 5.73 10.68
1/20/2021 9:15:00 AM 8.4 47.12 0.846 8.01 5.61 10.78
1/20/2021 9:30:00 AM 8.43 47.174 0.844 8.02 5.91 10.9
1/20/2021 9:45:00 AM 8.47 47.246 0.843 8.04 5.75 11.02
1/20/2021 10:00:00 AM 8.52 47.336 0.844 8.05 5.77 11.14
1/20/2021 10:15:00 AM 8.58 47.444 0.846 8.07 5.92 11.23
1/20/2021 10:30:00 AM 8.62 47.516 0.85 8.07 5.55 11.29
1/20/2021 10:45:00 AM 8.71 47.678 0.855 8.08 5.61 11.44
1/20/2021 11:00:00 AM 8.75 47.75 0.862 8.09 5.96 11.52
1/20/2021 11:15:00 AM 8.78 47.804 0.872 8.09 6.02 11.54
1/20/2021 11:30:00 AM 8.87 47.966 0.882 8.09 5.8 11.65
1/20/2021 11:45:00 AM 8.92 48.056 0.894 8.1 5.63 11.72
1/20/2021 12:00:00 PM 8.98 48.164 0.903 8.1 5.75 11.81
1/20/2021 12:15:00 PM 9.03 48.254 0.906 8.11 5.47 11.87
1/20/2021 12:30:00 PM 9.16 48.488 0.909 8.12 5.47 12.02
1/20/2021 12:45:00 PM 9.26 48.668 0.91 8.14 5.48 12.12
1/20/2021 1:00:00 PM 9.33 48.794 0.91 8.14 5.22 12.13
1/20/2021 1:15:00 PM 9.39 48.902 0.91 8.15 5.22 12.18
1/20/2021 1:30:00 PM 9.42 48.956 0.911 8.16 5.46 12.19
1/20/2021 1:45:00 PM 9.45 49.01 0.912 8.17 5.36 12.18
1/20/2021 2:00:00 PM 9.43 48.974 0.917 8.17 5.14 12.14
1/20/2021 2:15:00 PM 9.48 49.064 0.924 8.17 5.14 12.18
1/20/2021 2:30:00 PM 9.48 49.064 0.931 8.16 5.24 12.14
1/20/2021 2:45:00 PM 9.51 49.118 0.938 8.17 5.02 12.16
1/20/2021 3:00:00 PM 9.54 49.172 0.943 8.17 5.16 12.16
1/20/2021 3:15:00 PM 9.5 49.1 0.946 8.17 5.1 12.07
1/20/2021 3:30:00 PM 9.46 49.028 0.946 8.16 5.36 11.96
1/20/2021 3:45:00 PM 9.41 48.938 0.945 8.17 5.39 11.86
1/20/2021 4:00:00 PM 9.35 48.83 0.944 8.15 5.18 11.76
1/20/2021 4:15:00 PM 9.28 48.704 0.943 8.13 5.52 11.64
1/20/2021 4:30:00 PM 9.23 48.614 0.94 8.13 5.55 11.52
1/20/2021 4:45:00 PM 9.18 48.524 0.938 8.13 4.99 11.41
1/20/2021 5:00:00 PM 9.13 48.434 0.933 8.1 5.49 11.32
1/20/2021 5:15:00 PM 9.07 48.326 0.927 8.11 4.97 11.23
1/20/2021 5:30:00 PM 9.01 48.218 0.92 8.1 6.02 11.15
1/20/2021 5:45:00 PM 8.95 48.11 0.915 8.09 5.95 11.08
1/20/2021 6:00:00 PM 8.9 48.02 0.911 8.09 6.24 11.03
1/20/2021 6:15:00 PM 8.85 47.93 0.91 8.08 6.09 10.96
1/20/2021 6:30:00 PM 8.81 47.858 0.911 8.07 6.18 10.9
1/20/2021 6:45:00 PM 8.76 47.768 0.912 8.07 6.06 10.85
1/20/2021 7:00:00 PM 8.72 47.696 0.911 8.05 5.86 10.8
1/20/2021 7:15:00 PM 8.66 47.588 0.909 8.04 5.67 10.75
1/20/2021 7:30:00 PM 8.6 47.48 0.91 8.03 5.59 10.7
1/20/2021 7:45:00 PM 8.55 47.39 0.911 8.02 5.61 10.66
1/20/2021 8:00:00 PM 8.49 47.282 0.912 8.01 5.36 10.62
1/20/2021 8:15:00 PM 8.44 47.192 0.913 8.02 5.55 10.59
1/20/2021 8:30:00 PM 8.38 47.084 0.912 8.02 5.49 10.56
1/20/2021 8:45:00 PM 8.32 46.976 0.912 8.01 6.03 10.53
1/20/2021 9:00:00 PM 8.27 46.886 0.913 7.98 5.55 10.51
1/20/2021 9:15:00 PM 8.22 46.796 0.915 8.01 5.46 10.5
1/20/2021 9:30:00 PM 8.17 46.706 0.917 8 5.35 10.48
1/20/2021 9:45:00 PM 8.13 46.634 0.918 8 5.67 10.47
1/20/2021 10:00:00 PM 8.09 46.562 0.917 7.99 5.8 10.46
1/20/2021 10:15:00 PM 8.06 46.508 0.918 7.98 5.5 10.45
1/20/2021 10:30:00 PM 8.02 46.436 0.919 7.98 6.06 10.45
1/20/2021 10:45:00 PM 7.98 46.364 0.921 7.98 5.71 10.44
1/20/2021 11:00:00 PM 7.95 46.31 0.924 7.98 5.65 10.44
1/20/2021 11:15:00 PM 7.92 46.256 0.927 7.98 5.69 10.43
1/20/2021 11:30:00 PM 7.89 46.202 0.929 7.97 5.47 10.43
1/20/2021 11:45:00 PM 7.86 46.148 0.93 7.98 5.97 10.43
1/21/2021 12:00:00 AM 7.82 46.076 0.93 7.97 6.06 10.43
1/21/2021 12:15:00 AM 7.79 46.022 0.93 7.97 6.06 10.43
1/21/2021 12:30:00 AM 7.76 45.968 0.93 7.98 5.95 10.43
1/21/2021 12:45:00 AM 7.72 45.896 0.929 7.97 6.13 10.43
1/21/2021 1:00:00 AM 7.69 45.842 0.928 7.97 6.26 10.44
1/21/2021 1:15:00 AM 7.65 45.77 0.926 7.97 6.06 10.45
1/21/2021 1:30:00 AM 7.62 45.716 0.925 7.97 5.98 10.45
1/21/2021 1:45:00 AM 7.58 45.644 0.923 7.97 5.89 10.46
1/21/2021 2:00:00 AM 7.54 45.572 0.921 7.97 5.95 10.46
1/21/2021 2:15:00 AM 7.5 45.5 0.918 7.98 6.02 10.48
1/21/2021 2:30:00 AM 7.46 45.428 0.915 7.98 5.98 10.49
1/21/2021 2:45:00 AM 7.42 45.356 0.912 7.98 6 10.49
1/21/2021 3:00:00 AM 7.38 45.284 0.908 7.98 6.03 10.51
1/21/2021 3:15:00 AM 7.34 45.212 0.904 7.98 6.37 10.52
1/21/2021 3:30:00 AM 7.29 45.122 0.9 7.99 6.19 10.54
1/21/2021 3:45:00 AM 7.25 45.05 0.896 7.98 6.76 10.56
1/21/2021 4:00:00 AM 7.2 44.96 0.893 7.99 6.3 10.57
1/21/2021 4:15:00 AM 7.16 44.888 0.889 7.99 6.42 10.58
1/21/2021 4:30:00 AM 7.12 44.816 0.884 7.99 7.1 10.6
1/21/2021 4:45:00 AM 7.09 44.762 0.88 8 6.5 10.62
1/21/2021 5:00:00 AM 7.05 44.69 0.875 8 6.84 10.63
1/21/2021 5:15:00 AM 7.02 44.636 0.87 7.99 6.7 10.64
1/21/2021 5:30:00 AM 6.99 44.582 0.865 8.01 6.62 10.66
1/21/2021 5:45:00 AM 6.96 44.528 0.862 8.01 6.58 10.67
1/21/2021 6:00:00 AM 6.95 44.51 0.858 8.01 7.2 10.68
1/21/2021 6:15:00 AM 6.94 44.492 0.856 8 6.57 10.69
1/21/2021 6:30:00 AM 6.95 44.51 0.857 8.01 6.58 10.69
1/21/2021 6:45:00 AM 6.96 44.528 0.857 7.99 6.5 10.69
1/21/2021 7:00:00 AM 6.96 44.528 0.857 8 6.42 10.7
1/21/2021 7:15:00 AM 6.97 44.546 0.858 8 6.19 10.7
1/21/2021 7:30:00 AM 6.98 44.564 0.858 8 6.18 10.7
1/21/2021 7:45:00 AM 7 44.6 0.859 8 6.08 10.72
1/21/2021 8:00:00 AM 7.03 44.654 0.86 8.01 6.54 10.76
1/21/2021 8:15:00 AM 7.06 44.708 0.859 8.02 6.91 10.81
1/21/2021 8:30:00 AM 7.11 44.798 0.858 8.02 6.8 10.87
1/21/2021 8:45:00 AM 7.15 44.87 0.857 8.03 6.75 10.94
1/21/2021 9:00:00 AM 7.19 44.942 0.857 8.04 6.87 11
1/21/2021 9:15:00 AM 7.25 45.05 0.856 8.04 7.31 11.07
1/21/2021 9:30:00 AM 7.32 45.176 0.854 8.05 6.94 11.15
1/21/2021 9:45:00 AM 7.4 45.32 0.853 8.06 6.9 11.24
1/21/2021 10:00:00 AM 7.51 45.518 0.853 8.07 6.99 11.34
1/21/2021 10:15:00 AM 7.63 45.734 0.855 8.06 6.49 11.45
1/21/2021 10:30:00 AM 7.77 45.986 0.859 8.08 6.77 11.54
1/21/2021 10:45:00 AM 7.91 46.238 0.867 8.09 6.61 11.62
1/21/2021 11:00:00 AM 8.07 46.526 0.878 8.08 6.31 11.69
1/21/2021 11:15:00 AM 8.24 46.832 0.889 8.1 6.13 11.77
1/21/2021 11:30:00 AM 8.42 47.156 0.901 8.11 6.38 11.85
1/21/2021 11:45:00 AM 8.59 47.462 0.912 8.12 6.47 11.91
1/21/2021 12:00:00 PM 8.77 47.786 0.924 8.13 6.1 11.98
1/21/2021 12:15:00 PM 8.92 48.056 0.937 8.12 5.82 12.04
1/21/2021 12:30:00 PM 9.09 48.362 0.95 8.13 5.8 12.07
1/21/2021 12:45:00 PM 9.23 48.614 0.96 8.13 5.59 12.11
1/21/2021 1:00:00 PM 9.38 48.884 0.967 8.14 8.29 12.13
1/21/2021 1:15:00 PM 9.52 49.136 0.971 8.15 5.78 12.16
1/21/2021 1:30:00 PM 9.62 49.316 0.972 8.15 5.79 12.17
1/21/2021 1:45:00 PM 9.72 49.496 0.972 8.16 5.6 12.19
1/21/2021 2:00:00 PM 9.79 49.622 0.971 8.17 5.53 12.2
1/21/2021 2:15:00 PM 9.85 49.73 0.97 8.17 4.87 12.17
1/21/2021 2:30:00 PM 9.89 49.802 0.969 8.17 5.17 12.13
1/21/2021 2:45:00 PM 9.93 49.874 0.968 8.17 4.9 12.08
1/21/2021 3:00:00 PM 9.96 49.928 0.967 8.16 5.21 12.01
1/21/2021 3:15:00 PM 9.98 49.964 0.967 8.16 5.12 11.91
1/21/2021 3:30:00 PM 9.98 49.964 0.968 8.16 5.15 11.8
1/21/2021 3:45:00 PM 9.99 49.982 0.969 8.15 5.06 11.67
1/21/2021 4:00:00 PM 10 50 0.969 8.14 4.81 11.54
1/21/2021 4:15:00 PM 10 50 0.971 8.13 5.05 11.41
1/21/2021 4:30:00 PM 9.99 49.982 0.971 8.12 5.07 11.29
1/21/2021 4:45:00 PM 10 50 0.971 8.11 4.86 11.17
1/21/2021 5:00:00 PM 10 50 0.969 8.11 4.97 11.05
1/21/2021 5:15:00 PM 9.99 49.982 0.965 8.09 5.12 10.93
1/21/2021 5:30:00 PM 9.96 49.928 0.957 8.09 4.98 10.83
1/21/2021 5:45:00 PM 9.92 49.856 0.949 8.08 5.51 10.74
1/21/2021 6:00:00 PM 9.87 49.766 0.943 8.07 5.39 10.66
1/21/2021 6:15:00 PM 9.83 49.694 0.94 8.07 5.36 10.59
1/21/2021 6:30:00 PM 9.78 49.604 0.94 8.06 5.69 10.51
1/21/2021 6:45:00 PM 9.73 49.514 0.94 8.05 5.53 10.44
1/21/2021 7:00:00 PM 9.69 49.442 0.939 8.04 5.38 10.38
1/21/2021 7:15:00 PM 9.64 49.352 0.936 8.03 5.39 10.32
1/21/2021 7:30:00 PM 9.58 49.244 0.933 8.03 5.71 10.26
1/21/2021 7:45:00 PM 9.52 49.136 0.932 8.01 5.52 10.2
1/21/2021 8:00:00 PM 9.47 49.046 0.931 8.01 5.61 10.15
1/21/2021 8:15:00 PM 9.41 48.938 0.929 8 5.18 10.11
1/21/2021 8:30:00 PM 9.35 48.83 0.924 8 5.08 10.08
1/21/2021 8:45:00 PM 9.3 48.74 0.918 8 5.35 10.05
1/21/2021 9:00:00 PM 9.24 48.632 0.916 7.99 5.18 10.02
1/21/2021 9:15:00 PM 9.19 48.542 0.914 8 4.98 10.01
1/21/2021 9:30:00 PM 9.15 48.47 0.914 7.98 5.19 9.98
1/21/2021 9:45:00 PM 9.11 48.398 0.915 7.97 5.01 9.97
1/21/2021 10:00:00 PM 9.08 48.344 0.918 7.97 4.92 9.95
1/21/2021 10:15:00 PM 9.05 48.29 0.921 7.97 5.25 9.94
1/21/2021 10:30:00 PM 9.02 48.236 0.923 7.97 4.78 9.94
1/21/2021 10:45:00 PM 8.99 48.182 0.923 7.96 4.17 9.93
1/21/2021 11:00:00 PM 8.96 48.128 0.929 7.95 6.08 9.93
1/21/2021 11:15:00 PM 8.94 48.092 0.932 7.94 5.38 9.93
1/21/2021 11:30:00 PM 8.93 48.074 0.935 7.95 5.33 9.92
1/21/2021 11:45:00 PM 8.92 48.056 0.937 7.95 5.37 9.91
1/22/2021 12:00:00 AM 8.91 48.038 0.94 7.94 5.48 9.92
1/22/2021 12:15:00 AM 8.9 48.02 0.942 7.95 5.54 9.92
1/22/2021 12:30:00 AM 8.9 48.02 0.942 7.95 5.42 9.91
1/22/2021 12:45:00 AM 8.89 48.002 0.94 7.95 5.38 9.92
1/22/2021 1:00:00 AM 8.88 47.984 0.938 7.95 5.7 9.92
1/22/2021 1:15:00 AM 8.87 47.966 0.936 7.95 5.65 9.93
1/22/2021 1:30:00 AM 8.87 47.966 0.933 7.95 5.34 9.93
1/22/2021 1:45:00 AM 8.85 47.93 0.931 7.95 5.51 9.94
1/22/2021 2:00:00 AM 8.84 47.912 0.929 7.95 5.51 9.95
1/22/2021 2:15:00 AM 8.82 47.876 0.927 7.96 5.69 9.95
1/22/2021 2:30:00 AM 8.8 47.84 0.924 7.96 5.97 9.97
1/22/2021 2:45:00 AM 8.78 47.804 0.921 7.97 6 9.97
1/22/2021 3:00:00 AM 8.75 47.75 0.918 7.98 6.09 9.98
1/22/2021 3:15:00 AM 8.71 47.678 0.915 7.97 6.3 9.99
1/22/2021 3:30:00 AM 8.67 47.606 0.911 7.96 6.39 10
1/22/2021 3:45:00 AM 8.64 47.552 0.908 7.97 6.53 10.01
1/22/2021 4:00:00 AM 8.6 47.48 0.904 7.96 6.64 10.03
1/22/2021 4:15:00 AM 8.57 47.426 0.898 7.97 6.45 10.04
1/22/2021 4:30:00 AM 8.54 47.372 0.893 7.97 6.48 10.05
1/22/2021 4:45:00 AM 8.52 47.336 0.889 7.98 6.35 10.06
1/22/2021 5:00:00 AM 8.49 47.282 0.884 7.97 6.51 10.08
1/22/2021 5:15:00 AM 8.46 47.228 0.88 7.98 6.37 10.09
1/22/2021 5:30:00 AM 8.44 47.192 0.875 7.97 6.51 10.1
1/22/2021 5:45:00 AM 8.41 47.138 0.871 7.98 6.55 10.12
1/22/2021 6:00:00 AM 8.39 47.102 0.868 7.98 6.47 10.13
1/22/2021 6:15:00 AM 8.36 47.048 0.865 7.99 6.72 10.15
1/22/2021 6:30:00 AM 8.34 47.012 0.862 7.99 6.94 10.16
1/22/2021 6:45:00 AM 8.32 46.976 0.862 7.99 6.82 10.16
1/22/2021 7:00:00 AM 8.31 46.958 0.861 7.99 6.8 10.17
1/22/2021 7:15:00 AM 8.3 46.94 0.862 7.98 6.56 10.18
1/22/2021 7:30:00 AM 8.28 46.904 0.862 7.98 6.37 10.19
1/22/2021 7:45:00 AM 8.27 46.886 0.863 7.99 6.35 10.22
1/22/2021 8:00:00 AM 8.27 46.886 0.867 7.99 6.31 10.26
1/22/2021 8:15:00 AM 8.29 46.922 0.871 8 5.88 10.32
1/22/2021 8:30:00 AM 8.32 46.976 0.872 8 5.94 10.38
1/22/2021 8:45:00 AM 8.35 47.03 0.873 8.01 6.23 10.49
1/22/2021 9:00:00 AM 8.41 47.138 0.873 8.02 6.08 10.64
1/22/2021 9:15:00 AM 8.45 47.21 0.872 8.02 5.75 10.74
1/22/2021 9:30:00 AM 8.5 47.3 0.871 8.02 5.86 10.83
1/22/2021 9:45:00 AM 8.55 47.39 0.87 8.04 6.38 10.92
1/22/2021 10:00:00 AM 8.62 47.516 0.871 8.05 6.28 11.05
1/22/2021 10:15:00 AM 8.68 47.624 0.872 8.06 6.24 11.18
1/22/2021 10:30:00 AM 8.75 47.75 0.872 8.07 6.16 11.26
1/22/2021 10:45:00 AM 8.83 47.894 0.874 8.08 6.2 11.38
1/22/2021 11:00:00 AM 8.97 48.146 0.88 8.1 6.27 11.57
1/22/2021 11:15:00 AM 9.14 48.452 0.889 8.12 6.11 11.73
1/22/2021 11:30:00 AM 9.33 48.794 0.901 8.12 5.76 11.87
1/22/2021 11:45:00 AM 9.49 49.082 0.915 8.12 5.48 11.92
1/22/2021 12:00:00 PM 9.62 49.316 0.928 8.13 5.41 11.89
1/22/2021 12:15:00 PM 9.73 49.514 0.939 8.14 5.39 11.93
1/22/2021 12:30:00 PM 9.83 49.694 0.944 8.14 5.46 12.04
1/22/2021 12:45:00 PM 9.92 49.856 0.947 8.16 5.73 12.12
1/22/2021 1:00:00 PM 10 50 0.949 8.18 5.74 12.14
1/22/2021 1:15:00 PM 10.12 50.216 0.95 8.18 5.83 12.23
1/22/2021 1:30:00 PM 10.23 50.414 0.954 8.19 5.9 12.31
1/22/2021 1:45:00 PM 10.3 50.54 0.961 8.19 6.04 12.23
1/22/2021 2:00:00 PM 10.38 50.684 0.966 8.19 5.39 12.19
1/22/2021 2:15:00 PM 10.45 50.81 0.966 8.2 5.6 12.2
1/22/2021 2:30:00 PM 10.5 50.9 0.96 8.21 5.35 12.2
1/22/2021 2:45:00 PM 10.48 50.864 0.951 8.2 5.49 12.12
1/22/2021 3:00:00 PM 10.42 50.756 0.941 8.19 5.4 11.96
1/22/2021 3:15:00 PM 10.4 50.72 0.935 8.19 5.25 11.91
1/22/2021 3:30:00 PM 10.35 50.63 0.932 8.18 4.97 11.83
1/22/2021 3:45:00 PM 10.32 50.576 0.93 8.18 4.93 11.75
1/22/2021 4:00:00 PM 10.3 50.54 0.928 8.18 5.06 11.68
1/22/2021 4:15:00 PM 10.29 50.522 0.925 8.17 5.03 11.61
1/22/2021 4:30:00 PM 10.28 50.504 0.921 8.15 4.93 11.5
1/22/2021 4:45:00 PM 10.26 50.468 0.919 8.16 5.37 11.38
1/22/2021 5:00:00 PM 10.26 50.468 0.919 8.13 5.12 11.24
1/22/2021 5:15:00 PM 10.23 50.414 0.921 8.13 5.34 11.13
1/22/2021 5:30:00 PM 10.21 50.378 0.922 8.13 4.93 11.01
1/22/2021 5:45:00 PM 10.17 50.306 0.922 8.1 5.43 10.91
1/22/2021 6:00:00 PM 10.13 50.234 0.924 8.1 5.54 10.8
1/22/2021 6:15:00 PM 10.08 50.144 0.93 8.08 5.46 10.71
1/22/2021 6:30:00 PM 10.04 50.072 0.94 8.07 5.69 10.6
1/22/2021 6:45:00 PM 10 50 0.949 8.06 5.95 10.51
1/22/2021 7:00:00 PM 9.95 49.91 0.955 8.06 5.39 10.42
1/22/2021 7:15:00 PM 9.9 49.82 0.958 8.04 5.47 10.34
1/22/2021 7:30:00 PM 9.85 49.73 0.958 8.03 5.46 10.28
1/22/2021 7:45:00 PM 9.8 49.64 0.958 8.02 5.67 10.22
1/22/2021 8:00:00 PM 9.75 49.55 0.958 8.03 5.59 10.16
1/22/2021 8:15:00 PM 9.7 49.46 0.958 8 5.56 10.11
1/22/2021 8:30:00 PM 9.66 49.388 0.956 8 5.75 10.07
1/22/2021 8:45:00 PM 9.62 49.316 0.953 7.99 5.47 10.03
1/22/2021 9:00:00 PM 9.59 49.262 0.953 8 5.54 10
1/22/2021 9:15:00 PM 9.56 49.208 0.954 7.98 5.46 9.97
1/22/2021 9:30:00 PM 9.53 49.154 0.954 7.98 5.43 9.95
1/22/2021 9:45:00 PM 9.49 49.082 0.954 7.98 5.53 9.93
1/22/2021 10:00:00 PM 9.43 48.974 0.953 7.99 5.68 9.92
1/22/2021 10:15:00 PM 9.38 48.884 0.952 7.97 5.47 9.92
1/22/2021 10:30:00 PM 9.33 48.794 0.953 7.96 5.7 9.91
1/22/2021 10:45:00 PM 9.3 48.74 0.956 7.96 5.66 9.9
1/22/2021 11:00:00 PM 9.27 48.686 0.959 7.96 5.61 9.89
1/22/2021 11:15:00 PM 9.22 48.596 0.962 7.95 5.65 9.89
1/22/2021 11:30:00 PM 9.17 48.506 0.964 7.95 5.89 9.9
1/22/2021 11:45:00 PM 9.11 48.398 0.965 7.95 5.75 9.89
1/23/2021 12:00:00 AM 9.06 48.308 0.963 7.96 5.65 9.91
1/23/2021 12:15:00 AM 9.02 48.236 0.963 7.94 5.65 9.91
1/23/2021 12:30:00 AM 8.99 48.182 0.962 7.96 5.74 9.91
1/23/2021 12:45:00 AM 8.95 48.11 0.963 7.95 5.54 9.92
1/23/2021 1:00:00 AM 8.92 48.056 0.963 7.95 5.44 9.94
1/23/2021 1:15:00 AM 8.88 47.984 0.961 7.95 5.52 9.95
1/23/2021 1:30:00 AM 8.82 47.876 0.958 7.98 5.41 9.96
1/23/2021 1:45:00 AM 8.77 47.786 0.955 7.97 5.55 9.98
1/23/2021 2:00:00 AM 8.72 47.696 0.951 7.98 5.75 9.99
1/23/2021 2:15:00 AM 8.68 47.624 0.948 7.98 5.96 10.01
1/23/2021 2:30:00 AM 8.64 47.552 0.948 7.98 5.9 10.02
1/23/2021 2:45:00 AM 8.6 47.48 0.948 7.98 5.94 10.04
1/23/2021 3:00:00 AM 8.55 47.39 0.95 7.97 6.39 10.05
1/23/2021 3:15:00 AM 8.5 47.3 0.95 7.98 6.43 10.06
1/23/2021 3:30:00 AM 8.46 47.228 0.947 7.98 6.06 10.08
1/23/2021 3:45:00 AM 8.4 47.12 0.945 7.95 6.33 10.1
1/23/2021 4:00:00 AM 8.34 47.012 0.941 7.98 6.52 10.12
1/23/2021 4:15:00 AM 8.28 46.904 0.938 7.98 6.19 10.14
1/23/2021 4:30:00 AM 8.23 46.814 0.937 7.98 7.07 10.15
1/23/2021 4:45:00 AM 8.18 46.724 0.934 7.98 7.03 10.17
1/23/2021 5:00:00 AM 8.12 46.616 0.931 7.98 6.8 10.19
1/23/2021 5:15:00 AM 8.05 46.49 0.926 7.99 6.73 10.21
1/23/2021 5:30:00 AM 7.99 46.382 0.921 7.98 6.87 10.24
1/23/2021 5:45:00 AM 7.93 46.274 0.917 7.98 6.5 10.27
1/23/2021 6:00:00 AM 7.87 46.166 0.912 7.99 6.59 10.29
1/23/2021 6:15:00 AM 7.8 46.04 0.909 7.99 7.07 10.32
1/23/2021 6:30:00 AM 7.72 45.896 0.907 8 6.34 10.35
1/23/2021 6:45:00 AM 7.67 45.806 0.906 8 6.28 10.37
1/23/2021 7:00:00 AM 7.61 45.698 0.906 7.99 6.21 10.39
1/23/2021 7:15:00 AM 7.55 45.59 0.907 8 6.15 10.4
1/23/2021 7:30:00 AM 7.52 45.536 0.907 8 6.24 10.42
1/23/2021 7:45:00 AM 7.49 45.482 0.906 8 6.08 10.46
1/23/2021 8:00:00 AM 7.47 45.446 0.904 8 5.85 10.5
1/23/2021 8:15:00 AM 7.44 45.392 0.903 8.01 6.01 10.56
1/23/2021 8:30:00 AM 7.41 45.338 0.901 8.01 6.3 10.63
1/23/2021 8:45:00 AM 7.37 45.266 0.898 8.02 5.58 10.74
1/23/2021 9:00:00 AM 7.34 45.212 0.895 8.03 5.97 10.87
1/23/2021 9:15:00 AM 7.31 45.158 0.891 8.04 5.42 11.02
1/23/2021 9:30:00 AM 7.29 45.122 0.887 8.06 5.76 11.15
1/23/2021 9:45:00 AM 7.3 45.14 0.883 8.06 6.66 11.24
1/23/2021 10:00:00 AM 7.31 45.158 0.88 8.07 6.86 11.38
1/23/2021 10:15:00 AM 7.37 45.266 0.876 8.09 6.68 11.55
1/23/2021 10:30:00 AM 7.42 45.356 0.873 8.09 6.41 11.7
1/23/2021 10:45:00 AM 7.44 45.392 0.873 8.11 6.45 11.73
1/23/2021 11:00:00 AM 7.47 45.446 0.875 8.11 6.72 11.83
1/23/2021 11:15:00 AM 7.53 45.554 0.88 8.13 6.06 11.98
1/23/2021 11:30:00 AM 7.61 45.698 0.887 8.14 6.22 12.14
1/23/2021 11:45:00 AM 7.64 45.752 0.899 8.15 5.93 12.2
1/23/2021 12:00:00 PM 7.73 45.914 0.92 8.15 5.94 12.24
1/23/2021 12:15:00 PM 7.82 46.076 0.943 8.16 5.87 12.34
1/23/2021 12:30:00 PM 7.9 46.22 0.962 8.16 5.47 12.41
1/23/2021 12:45:00 PM 8.04 46.472 0.975 8.17 5.93 12.49
1/23/2021 1:00:00 PM 8.18 46.724 0.983 8.18 5.63 12.62
1/23/2021 1:15:00 PM 8.29 46.922 0.986 8.19 5.78 12.7
1/23/2021 1:30:00 PM 8.35 47.03 0.991 8.2 5.79 12.71
1/23/2021 1:45:00 PM 8.43 47.174 0.996 8.19 5.84 12.71
1/23/2021 2:00:00 PM 8.49 47.282 1.003 8.18 5.27 12.71
1/23/2021 2:15:00 PM 8.53 47.354 1.008 8.2 5.24 12.72
1/23/2021 2:30:00 PM 8.52 47.336 1.015 8.2 5.36 12.67
1/23/2021 2:45:00 PM 8.51 47.318 1.018 8.2 4.97 12.6
1/23/2021 3:00:00 PM 8.5 47.3 1.02 8.2 5.2 12.57
1/23/2021 3:15:00 PM 8.47 47.246 1.02 8.2 5.53 12.53
1/23/2021 3:30:00 PM 8.42 47.156 1.018 8.19 6.05 12.48
1/23/2021 3:45:00 PM 8.37 47.066 1.016 8.19 5.09 12.41
1/23/2021 4:00:00 PM 8.33 46.994 1.014 8.19 5.42 12.34
1/23/2021 4:15:00 PM 8.26 46.868 1.012 8.17 14.78 12.2
1/23/2021 4:30:00 PM 8.2 46.76 1.011 8.17 7.55 12.05
1/23/2021 4:45:00 PM 8.14 46.652 1.01 8.15 5.01 11.92
1/23/2021 5:00:00 PM 8.07 46.526 1.007 8.14 4.9 11.79
1/23/2021 5:15:00 PM 8.02 46.436 1.004 8.13 4.66 11.68
1/23/2021 5:30:00 PM 7.98 46.364 1.003 8.11 4.72 11.56
1/23/2021 5:45:00 PM 7.94 46.292 1.003 8.11 5.07 11.46
1/23/2021 6:00:00 PM 7.88 46.184 1.004 8.1 4.98 11.37
1/23/2021 6:15:00 PM 7.82 46.076 1.003 8.09 5.01 11.29
1/23/2021 6:30:00 PM 7.75 45.95 1 8.07 5.19 11.22
1/23/2021 6:45:00 PM 7.7 45.86 0.997 8.08 5.08 11.16
1/23/2021 7:00:00 PM 7.65 45.77 0.997 8.07 4.69 11.09
1/23/2021 7:15:00 PM 7.61 45.698 0.997 8.06 5.18 11.03
1/23/2021 7:30:00 PM 7.57 45.626 0.997 8.05 5.1 10.96
1/23/2021 7:45:00 PM 7.52 45.536 0.997 8.04 4.94 10.91
1/23/2021 8:00:00 PM 7.48 45.464 0.995 8.04 5.6 10.85
1/23/2021 8:15:00 PM 7.43 45.374 0.991 8.04 5.06 10.81
1/23/2021 8:30:00 PM 7.37 45.266 0.986 8.03 5.22 10.78
1/23/2021 8:45:00 PM 7.32 45.176 0.982 8.03 5.02 10.75
1/23/2021 9:00:00 PM 7.28 45.104 0.981 8.01 4.92 10.71
1/23/2021 9:15:00 PM 7.24 45.032 0.982 8.01 4.96 10.69
1/23/2021 9:30:00 PM 7.2 44.96 0.982 8 5.1 10.66
1/23/2021 9:45:00 PM 7.16 44.888 0.981 8.01 5.39 10.65
1/23/2021 10:00:00 PM 7.15 44.87 0.98 8.01 4.87 10.63
1/23/2021 10:15:00 PM 7.13 44.834 0.979 8 5.12 10.62
1/23/2021 10:30:00 PM 7.09 44.762 0.977 7.99 5.11 10.61
1/23/2021 10:45:00 PM 7.07 44.726 0.976 7.99 5.06 10.61
1/23/2021 11:00:00 PM 7.04 44.672 0.975 8 5.22 10.6
1/23/2021 11:15:00 PM 7.01 44.618 0.975 7.99 4.98 10.61
1/23/2021 11:30:00 PM 6.99 44.582 0.974 7.99 5.16 10.6
1/23/2021 11:45:00 PM 6.97 44.546 0.973 7.99 4.85 10.6
1/24/2021 12:00:00 AM 6.95 44.51 0.971 7.97 4.99 10.6
1/24/2021 12:15:00 AM 6.95 44.51 0.969 7.99 5.13 10.6
1/24/2021 12:30:00 AM 6.94 44.492 0.966 7.99 5.47 10.6
1/24/2021 12:45:00 AM 6.94 44.492 0.964 7.99 5.19 10.59
1/24/2021 1:00:00 AM 6.94 44.492 0.962 7.99 5.07 10.59
1/24/2021 1:15:00 AM 6.94 44.492 0.961 7.99 5.34 10.59
1/24/2021 1:30:00 AM 6.93 44.474 0.96 7.98 5.14 10.59
1/24/2021 1:45:00 AM 6.92 44.456 0.956 7.98 4.95 10.59
1/24/2021 2:00:00 AM 6.91 44.438 0.952 7.98 5.09 10.59
1/24/2021 2:15:00 AM 6.9 44.42 0.948 7.99 5.21 10.59
1/24/2021 2:30:00 AM 6.91 44.438 0.945 7.99 4.96 10.6
1/24/2021 2:45:00 AM 6.9 44.42 0.943 7.99 5 10.6
1/24/2021 3:00:00 AM 6.89 44.402 0.94 7.99 6.4 10.6
1/24/2021 3:15:00 AM 6.87 44.366 0.937 7.99 4.92 10.6
1/24/2021 3:30:00 AM 6.84 44.312 0.934 7.99 5.5 10.61
1/24/2021 3:45:00 AM 6.81 44.258 0.93 7.99 5.02 10.62
1/24/2021 4:00:00 AM 6.78 44.204 0.927 7.99 6.84 10.63
1/24/2021 4:15:00 AM 6.75 44.15 0.925 8 6.18 10.64
1/24/2021 4:30:00 AM 6.73 44.114 0.922 7.99 6.17 10.64
1/24/2021 4:45:00 AM 6.7 44.06 0.917 7.99 5.67 10.66
1/24/2021 5:00:00 AM 6.67 44.006 0.909 7.99 5.29 10.67
1/24/2021 5:15:00 AM 6.64 43.952 0.902 8 6.01 10.69
1/24/2021 5:30:00 AM 6.6 43.88 0.9 7.99 6.2 10.71
1/24/2021 5:45:00 AM 6.58 43.844 0.898 7.99 5.7 10.71
1/24/2021 6:00:00 AM 6.55 43.79 0.894 8 5.85 10.73
1/24/2021 6:15:00 AM 6.52 43.736 0.89 8 6.44 10.75
1/24/2021 6:30:00 AM 6.49 43.682 0.887 8 6.64 10.77
1/24/2021 6:45:00 AM 6.47 43.646 0.885 8 6.26 10.78
1/24/2021 7:00:00 AM 6.46 43.628 0.884 8 6.21 10.78
1/24/2021 7:15:00 AM 6.44 43.592 0.882 8 6.25 10.79
1/24/2021 7:30:00 AM 6.42 43.556 0.879 8 5.73 10.82
1/24/2021 7:45:00 AM 6.4 43.52 0.875 8 5.49 10.87
1/24/2021 8:00:00 AM 6.38 43.484 0.873 8.01 5.98 10.93
1/24/2021 8:15:00 AM 6.37 43.466 0.872 8.01 6.92 10.99
1/24/2021 8:30:00 AM 6.37 43.466 0.87 8.02 6.69 11.07
1/24/2021 8:45:00 AM 6.38 43.484 0.867 8.03 7.15 11.16
1/24/2021 9:00:00 AM 6.38 43.484 0.864 8.04 7.4 11.24
1/24/2021 9:15:00 AM 6.41 43.538 0.86 8.05 6.34 11.36
1/24/2021 9:30:00 AM 6.44 43.592 0.857 8.06 6.08 11.49
1/24/2021 9:45:00 AM 6.5 43.7 0.855 8.07 6.54 11.62
1/24/2021 10:00:00 AM 6.56 43.808 0.853 8.08 6.44 11.75
1/24/2021 10:15:00 AM 6.64 43.952 0.85 8.1 6.74 11.88
1/24/2021 10:30:00 AM 6.71 44.078 0.848 8.11 5.92 11.98
1/24/2021 10:45:00 AM 6.8 44.24 0.846 8.12 5.82 12.11
1/24/2021 11:00:00 AM 6.92 44.456 0.846 8.13 6.62 12.23
1/24/2021 11:15:00 AM 7.03 44.654 0.847 8.15 6.39 12.37
1/24/2021 11:30:00 AM 7.16 44.888 0.85 8.15 5.58 12.49
1/24/2021 11:45:00 AM 7.33 45.194 0.853 8.18 5.48 12.61
1/24/2021 12:00:00 PM 7.47 45.446 0.859 8.18 5.54 12.68
1/24/2021 12:15:00 PM 7.62 45.716 0.87 8.19 6.14 12.73
1/24/2021 12:30:00 PM 7.77 45.986 0.882 8.19 5.91 12.77
1/24/2021 12:45:00 PM 7.92 46.256 0.894 8.19 5.52 12.81
1/24/2021 1:00:00 PM 8.08 46.544 0.906 8.19 5.42 12.85
1/24/2021 1:15:00 PM 8.24 46.832 0.916 8.2 5.64 12.89
1/24/2021 1:30:00 PM 8.38 47.084 0.926 8.22 5.5 12.91
1/24/2021 1:45:00 PM 8.46 47.228 0.934 8.21 10.24 12.86
1/24/2021 2:00:00 PM 8.5 47.3 0.942 8.2 6.47 12.76
1/24/2021 2:15:00 PM 8.61 47.498 0.948 8.2 6.07 12.79
1/24/2021 2:30:00 PM 8.66 47.588 0.951 8.21 6.15 12.77
1/24/2021 2:45:00 PM 8.67 47.606 0.953 8.2 5.78 12.69
1/24/2021 3:00:00 PM 8.69 47.642 0.953 8.21 5.26 12.62
1/24/2021 3:15:00 PM 8.72 47.696 0.953 8.2 5.43 12.54
1/24/2021 3:30:00 PM 8.71 47.678 0.952 8.19 5.05 12.43
1/24/2021 3:45:00 PM 8.68 47.624 0.951 8.19 5.18 12.3
1/24/2021 4:00:00 PM 8.65 47.57 0.952 8.18 5.39 12.18
1/24/2021 4:15:00 PM 8.63 47.534 0.956 8.16 5.21 12.04
1/24/2021 4:30:00 PM 8.61 47.498 0.958 8.15 6.32 11.89
1/24/2021 4:45:00 PM 8.59 47.462 0.961 8.13 5.42 11.77
1/24/2021 5:00:00 PM 8.59 47.462 0.963 8.13 6.43 11.64
1/24/2021 5:15:00 PM 8.58 47.444 0.965 8.13 5.13 11.52
1/24/2021 5:30:00 PM 8.56 47.408 0.966 8.1 5.11 11.4
1/24/2021 5:45:00 PM 8.54 47.372 0.968 8.1 5.07 11.3
1/24/2021 6:00:00 PM 8.53 47.354 0.968 8.1 5.86 11.21
1/24/2021 6:15:00 PM 8.51 47.318 0.969 8.07 5.13 11.13
1/24/2021 6:30:00 PM 8.51 47.318 0.97 8.06 5.38 11.05
1/24/2021 6:45:00 PM 8.5 47.3 0.968 8.06 5.67 10.97
1/24/2021 7:00:00 PM 8.5 47.3 0.967 8.05 5.37 10.9
1/24/2021 7:15:00 PM 8.49 47.282 0.964 8.06 5.68 10.84
1/24/2021 7:30:00 PM 8.47 47.246 0.962 8.05 5.28 10.77
1/24/2021 7:45:00 PM 8.45 47.21 0.959 8.04 5.82 10.71
1/24/2021 8:00:00 PM 8.43 47.174 0.957 8.03 5.42 10.65
1/24/2021 8:15:00 PM 8.41 47.138 0.955 8.03 5.69 10.59
1/24/2021 8:30:00 PM 8.39 47.102 0.954 8.02 5.18 10.53
1/24/2021 8:45:00 PM 8.37 47.066 0.954 8.01 5.59 10.48
1/24/2021 9:00:00 PM 8.35 47.03 0.953 8.01 5.83 10.42
1/24/2021 9:15:00 PM 8.34 47.012 0.951 8 6.58 10.38
1/24/2021 9:30:00 PM 8.33 46.994 0.949 7.99 5.72 10.35
1/24/2021 9:45:00 PM 8.33 46.994 0.949 7.98 5.56 10.31
1/24/2021 10:00:00 PM 8.32 46.976 0.95 7.98 5.63 10.28
1/24/2021 10:15:00 PM 8.33 46.994 0.951 7.97 5.64 10.25
1/24/2021 10:30:00 PM 8.33 46.994 0.951 7.98 5.81 10.23
1/24/2021 10:45:00 PM 8.33 46.994 0.949 7.97 5.28 10.22
1/24/2021 11:00:00 PM 8.33 46.994 0.949 7.96 5.83 10.2
1/24/2021 11:15:00 PM 8.33 46.994 0.948 7.97 6.21 10.19
1/24/2021 11:30:00 PM 8.33 46.994 0.949 7.96 5.49 10.18
1/24/2021 11:45:00 PM 8.33 46.994 0.95 7.95 5.46 10.16
1/25/2021 12:00:00 AM 8.34 47.012 0.95 7.96 5.24 10.15
1/25/2021 12:15:00 AM 8.34 47.012 0.951 7.95 5.71 10.14
1/25/2021 12:30:00 AM 8.34 47.012 0.952 7.95 5.69 10.12
1/25/2021 12:45:00 AM 8.35 47.03 0.952 7.94 5.34 10.11
1/25/2021 1:00:00 AM 8.35 47.03 0.951 7.95 5.58 10.1
1/25/2021 1:15:00 AM 8.35 47.03 0.949 7.95 5.39 10.09
1/25/2021 1:30:00 AM 8.35 47.03 0.947 7.95 5.75 10.09
1/25/2021 1:45:00 AM 8.34 47.012 0.945 7.95 5.61 10.08
1/25/2021 2:00:00 AM 8.34 47.012 0.942 7.95 5.49 10.08
1/25/2021 2:15:00 AM 8.33 46.994 0.937 7.95 6.11 10.08
1/25/2021 2:30:00 AM 8.32 46.976 0.932 7.95 6.08 10.09
1/25/2021 2:45:00 AM 8.31 46.958 0.926 7.95 5.91 10.1
1/25/2021 3:00:00 AM 8.3 46.94 0.92 7.94 5.32 10.11
1/25/2021 3:15:00 AM 8.29 46.922 0.916 7.94 5.47 10.12
1/25/2021 3:30:00 AM 8.28 46.904 0.912 7.95 5.98 10.12
1/25/2021 3:45:00 AM 8.27 46.886 0.909 7.96 5.58 10.13
1/25/2021 4:00:00 AM 8.25 46.85 0.904 7.96 5.44 10.14
1/25/2021 4:15:00 AM 8.24 46.832 0.9 7.95 5.94 10.14
1/25/2021 4:30:00 AM 8.22 46.796 0.894 7.96 5.77 10.15
1/25/2021 4:45:00 AM 8.2 46.76 0.889 7.96 5.5 10.16
1/25/2021 5:00:00 AM 8.19 46.742 0.885 7.96 5.73 10.18
1/25/2021 5:15:00 AM 8.18 46.724 0.882 7.96 5.18 10.18
1/25/2021 5:30:00 AM 8.17 46.706 0.878 7.97 6.1 10.19
1/25/2021 5:45:00 AM 8.16 46.688 0.873 7.97 5.86 10.2
1/25/2021 6:00:00 AM 8.14 46.652 0.869 7.97 6.32 10.21
1/25/2021 6:15:00 AM 8.14 46.652 0.865 7.97 6.08 10.22
1/25/2021 6:30:00 AM 8.13 46.634 0.864 7.97 6.36 10.23
1/25/2021 6:45:00 AM 8.12 46.616 0.862 7.97 6.1 10.24
1/25/2021 7:00:00 AM 8.12 46.616 0.859 7.98 5.91 10.25
1/25/2021 7:15:00 AM 8.11 46.598 0.856 7.98 5.95 10.26
1/25/2021 7:30:00 AM 8.11 46.598 0.853 7.97 5.86 10.27
1/25/2021 7:45:00 AM 8.1 46.58 0.851 7.98 5.7 10.3
1/25/2021 8:00:00 AM 8.1 46.58 0.849 7.99 5.57 10.33
1/25/2021 8:15:00 AM 8.1 46.58 0.848 7.98 5.54 10.39
1/25/2021 8:30:00 AM 8.1 46.58 0.847 7.98 5.21 10.43
1/25/2021 8:45:00 AM 8.11 46.598 0.846 7.99 5.2 10.48
1/25/2021 9:00:00 AM 8.13 46.634 0.845 8 5.59 10.54
1/25/2021 9:15:00 AM 8.14 46.652 0.845 7.99 5.66 10.61
1/25/2021 9:30:00 AM 8.17 46.706 0.844 8 4.54 10.71
1/25/2021 9:45:00 AM 8.2 46.76 0.843 8.02 4.64 10.86
1/25/2021 10:00:00 AM 8.24 46.832 0.842 8.03 4.68 11.01
1/25/2021 10:15:00 AM 8.29 46.922 0.842 8.04 5.08 11.17
1/25/2021 10:30:00 AM 8.34 47.012 0.843 8.05 5.11 11.28
1/25/2021 10:45:00 AM 8.41 47.138 0.846 8.06 5.01 11.4
1/25/2021 11:00:00 AM 8.49 47.282 0.852 8.08 5.41 11.55
1/25/2021 11:15:00 AM 8.56 47.408 0.859 8.08 4.94 11.67
1/25/2021 11:30:00 AM 8.63 47.534 0.868 8.09 5.04 11.76
1/25/2021 11:45:00 AM 8.72 47.696 0.879 8.1 4.65 11.89
1/25/2021 12:00:00 PM 8.79 47.822 0.889 8.11 4.9 11.99
1/25/2021 12:15:00 PM 8.86 47.948 0.897 8.11 4.36 12.06
1/25/2021 12:30:00 PM 8.93 48.074 0.903 8.12 4.45 12.15
1/25/2021 12:45:00 PM 8.98 48.164 0.909 8.14 4.47 12.22
1/25/2021 1:00:00 PM 9.04 48.272 0.913 8.14 4.71 12.27
1/25/2021 1:15:00 PM 9.09 48.362 0.916 8.15 4.67 12.35
1/25/2021 1:30:00 PM 9.15 48.47 0.917 8.16 4.69 12.4
1/25/2021 1:45:00 PM 9.21 48.578 0.919 8.17 4.78 12.41
1/25/2021 2:00:00 PM 9.24 48.632 0.919 8.16 5.03 12.38
1/25/2021 2:15:00 PM 9.28 48.704 0.92 8.17 4.77 12.36
1/25/2021 2:30:00 PM 9.31 48.758 0.919 8.16 5.29 12.31
1/25/2021 2:45:00 PM 9.34 48.812 0.919 8.15 4.7 12.25
1/25/2021 3:00:00 PM 9.36 48.848 0.918 8.17 4.6 12.19
1/25/2021 3:15:00 PM 9.38 48.884 0.919 8.15 4.9 12.13
1/25/2021 3:30:00 PM 9.4 48.92 0.92 8.16 4.72 12.06
1/25/2021 3:45:00 PM 9.41 48.938 0.921 8.14 4.62 11.96
1/25/2021 4:00:00 PM 9.41 48.938 0.92 8.14 4.84 11.85
1/25/2021 4:15:00 PM 9.41 48.938 0.919 8.14 4.5 11.73
1/25/2021 4:30:00 PM 9.41 48.938 0.897 8.12 4.56 11.61
1/25/2021 4:45:00 PM 9.4 48.92 0.916 8.11 4.92 11.47
1/25/2021 5:00:00 PM 9.39 48.902 0.915 8.12 4.65 11.34
1/25/2021 5:15:00 PM 9.38 48.884 0.916 8.1 5.62 11.21
1/25/2021 5:30:00 PM 9.37 48.866 0.917 8.08 5.88 11.08
1/25/2021 5:45:00 PM 9.36 48.848 0.917 8.08 5.19 10.96
1/25/2021 6:00:00 PM 9.34 48.812 0.917 8.07 5.74 10.86
1/25/2021 6:15:00 PM 9.32 48.776 0.916 8.06 5.53 10.75
1/25/2021 6:30:00 PM 9.3 48.74 0.915 8.06 5.3 10.66
1/25/2021 6:45:00 PM 9.28 48.704 0.915 8.03 5.31 10.57
1/25/2021 7:00:00 PM 9.26 48.668 0.914 8.04 5.43 10.5
1/25/2021 7:15:00 PM 9.23 48.614 0.913 8.02 5.07 10.44
1/25/2021 7:30:00 PM 9.21 48.578 0.913 8.02 5.08 10.38
1/25/2021 7:45:00 PM 9.19 48.542 0.913 8.01 5.47 10.32
1/25/2021 8:00:00 PM 9.17 48.506 0.912 8.01 5.47 10.27
1/25/2021 8:15:00 PM 9.14 48.452 0.912 8 5.22 10.22
1/25/2021 8:30:00 PM 9.12 48.416 0.912 8 5.4 10.18
1/25/2021 8:45:00 PM 9.11 48.398 0.913 7.99 5.55 10.14
1/25/2021 9:00:00 PM 9.09 48.362 0.914 7.99 5.34 10.1
1/25/2021 9:15:00 PM 9.07 48.326 0.914 7.98 5.36 10.08
1/25/2021 9:30:00 PM 9.05 48.29 0.915 7.96 5.4 10.07
1/25/2021 9:45:00 PM 9.04 48.272 0.919 7.96 5.86 10.04
1/25/2021 10:00:00 PM 9.03 48.254 0.924 7.97 5.57 10.03
1/25/2021 10:15:00 PM 9.02 48.236 0.928 7.97 5.97 10
1/25/2021 10:30:00 PM 9.01 48.218 0.931 7.96 5.83 10
1/25/2021 10:45:00 PM 9 48.2 0.934 7.95 5.67 9.99
1/25/2021 11:00:00 PM 9 48.2 0.939 7.96 5.79 9.99
1/25/2021 11:15:00 PM 9 48.2 0.944 7.96 6.01 9.97
1/25/2021 11:30:00 PM 9 48.2 0.949 7.94 5.39 9.96
1/25/2021 11:45:00 PM 9 48.2 0.949 7.95 5.98 9.95
1/26/2021 12:00:00 AM 8.99 48.182 0.949 7.95 5.81 9.95
1/26/2021 12:15:00 AM 8.98 48.164 0.948 7.95 5.77 9.96
1/26/2021 12:30:00 AM 8.97 48.146 0.947 7.96 5.64 9.96
1/26/2021 12:45:00 AM 8.96 48.128 0.946 7.95 5.66 9.95
1/26/2021 1:00:00 AM 8.95 48.11 0.944 7.95 6.02 9.97
1/26/2021 1:15:00 AM 8.93 48.074 0.942 7.95 6.69 9.97
1/26/2021 1:30:00 AM 8.92 48.056 0.939 7.95 6.06 9.97
1/26/2021 1:45:00 AM 8.9 48.02 0.937 7.95 5.74 9.98
1/26/2021 2:00:00 AM 8.89 48.002 0.935 7.96 6.12 9.98
1/26/2021 2:15:00 AM 8.87 47.966 0.932 7.96 6.47 9.98
1/26/2021 2:30:00 AM 8.86 47.948 0.927 7.96 6.49 9.99
1/26/2021 2:45:00 AM 8.84 47.912 0.922 7.95 6.84 10.01
1/26/2021 3:00:00 AM 8.82 47.876 0.917 7.96 6.74 10.01
1/26/2021 3:15:00 AM 8.8 47.84 0.913 7.96 6.76 10.02
1/26/2021 3:30:00 AM 8.79 47.822 0.908 7.96 6.65 10.03
1/26/2021 3:45:00 AM 8.77 47.786 0.904 7.97 6.54 10.03
1/26/2021 4:00:00 AM 8.75 47.75 0.902 7.97 6.69 10.04
1/26/2021 4:15:00 AM 8.73 47.714 0.899 7.97 6.38 10.05
1/26/2021 4:30:00 AM 8.72 47.696 0.895 7.98 6.12 10.05
1/26/2021 4:45:00 AM 8.7 47.66 0.89 7.98 6.42 10.07
1/26/2021 5:00:00 AM 8.68 47.624 0.885 7.97 7.13 10.07
1/26/2021 5:15:00 AM 8.67 47.606 0.881 7.98 6.57 10.09
1/26/2021 5:30:00 AM 8.65 47.57 0.876 7.99 7.16 10.1
1/26/2021 5:45:00 AM 8.63 47.534 0.871 7.98 6.49 10.11
1/26/2021 6:00:00 AM 8.62 47.516 0.868 7.98 6.52 10.12
1/26/2021 6:15:00 AM 8.6 47.48 0.865 7.99 6.94 10.13
1/26/2021 6:30:00 AM 8.59 47.462 0.863 7.98 6.54 10.15
1/26/2021 6:45:00 AM 8.58 47.444 0.861 8 7.03 10.15
1/26/2021 7:00:00 AM 8.57 47.426 0.862 8 6.81 10.16
1/26/2021 7:15:00 AM 8.56 47.408 0.864 7.99 6.49 10.16
1/26/2021 7:30:00 AM 8.56 47.408 0.866 8 6.39 10.17
1/26/2021 7:45:00 AM 8.56 47.408 0.868 8 7.05 10.18
1/26/2021 8:00:00 AM 8.55 47.39 0.869 7.99 6.53 10.2
1/26/2021 8:15:00 AM 8.55 47.39 0.87 8 7 10.22
1/26/2021 8:30:00 AM 8.55 47.39 0.87 7.99 8.03 10.25
1/26/2021 8:45:00 AM 8.56 47.408 0.868 8 7.07 10.32
1/26/2021 9:00:00 AM 8.56 47.408 0.865 8.01 6.52 10.36
1/26/2021 9:15:00 AM 8.57 47.426 0.863 8.02 6.77 10.42
1/26/2021 9:30:00 AM 8.57 47.426 0.861 8.02 6.18 10.5
1/26/2021 9:45:00 AM 8.57 47.426 0.859 8.03 5.95 10.57
1/26/2021 10:00:00 AM 8.58 47.444 0.856 8.04 5.88 10.62
1/26/2021 10:15:00 AM 8.59 47.462 0.856 8.04 6.03 10.71
1/26/2021 10:30:00 AM 8.59 47.462 0.857 8.04 5.89 10.74
1/26/2021 10:45:00 AM 8.6 47.48 0.86 8.05 6 10.82
1/26/2021 11:00:00 AM 8.61 47.498 0.866 8.05 6.72 10.83
1/26/2021 11:15:00 AM 8.64 47.552 0.874 8.05 6.76 10.88
1/26/2021 11:30:00 AM 8.67 47.606 0.884 8.06 6.13 10.95
1/26/2021 11:45:00 AM 8.7 47.66 0.891 8.07 6.21 11.07
1/26/2021 12:00:00 PM 8.73 47.714 0.899 8.06 5.69 11.13
1/26/2021 12:15:00 PM 8.76 47.768 0.909 8.08 5.84 11.16
1/26/2021 12:30:00 PM 8.8 47.84 0.92 8.08 6.1 11.21
1/26/2021 12:45:00 PM 8.84 47.912 0.93 8.08 6.16 11.25
1/26/2021 1:00:00 PM 8.88 47.984 0.938 8.08 5.87 11.29
1/26/2021 1:15:00 PM 8.91 48.038 0.944 8.08 6.27 11.27
1/26/2021 1:30:00 PM 8.94 48.092 0.948 8.08 6.38 11.27
1/26/2021 1:45:00 PM 8.96 48.128 0.951 8.09 6.65 11.29
1/26/2021 2:00:00 PM 8.98 48.164 0.952 8.1 6.65 11.31
1/26/2021 2:15:00 PM 9.01 48.218 0.951 8.1 5.88 11.33
1/26/2021 2:30:00 PM 9.04 48.272 0.952 8.1 6.66 11.31
1/26/2021 2:45:00 PM 9.06 48.308 0.953 8.09 6.83 11.26
1/26/2021 3:00:00 PM 9.08 48.344 0.958 8.09 6.5 11.25
1/26/2021 3:15:00 PM 9.1 48.38 0.96 8.09 5.98 11.2
1/26/2021 3:30:00 PM 9.12 48.416 0.959 8.09 6.58 11.16
1/26/2021 3:45:00 PM 9.14 48.452 0.956 8.08 7.55 11.09
1/26/2021 4:00:00 PM 9.15 48.47 0.952 8.08 7.32 11.05
1/26/2021 4:15:00 PM 9.18 48.524 0.952 8.08 8.26 11.01
1/26/2021 4:30:00 PM 9.19 48.542 0.953 8.07 7.52 10.95
1/26/2021 4:45:00 PM 9.2 48.56 0.958 8.07 6.53 10.88
1/26/2021 5:00:00 PM 9.22 48.596 0.964 8.05 6.44 10.78
1/26/2021 5:15:00 PM 9.23 48.614 0.968 8.04 6.39 10.69
1/26/2021 5:30:00 PM 9.24 48.632 0.972 8.04 6.19 10.61
1/26/2021 5:45:00 PM 9.24 48.632 0.973 8.03 6.47 10.54
1/26/2021 6:00:00 PM 9.23 48.614 0.974 8.03 6.87 10.49
1/26/2021 6:15:00 PM 9.21 48.578 0.973 8.02 8.33 10.46
1/26/2021 6:30:00 PM 9.19 48.542 0.972 8.02 6.45 10.41
1/26/2021 6:45:00 PM 9.17 48.506 0.971 8.02 6.31 10.38
1/26/2021 7:00:00 PM 9.16 48.488 0.972 8.01 6.15 10.33
1/26/2021 7:15:00 PM 9.15 48.47 0.975 8.01 5.87 10.29
1/26/2021 7:30:00 PM 9.15 48.47 0.976 8 6.03 10.24
1/26/2021 7:45:00 PM 9.16 48.488 0.976 8 5.82 10.2
1/26/2021 8:00:00 PM 9.16 48.488 0.976 8 5.9 10.16
1/26/2021 8:15:00 PM 9.16 48.488 0.973 7.99 6.08 10.12
1/26/2021 8:30:00 PM 9.15 48.47 0.97 7.99 6.03 10.09
1/26/2021 8:45:00 PM 9.15 48.47 0.968 7.99 6.37 10.07
1/26/2021 9:00:00 PM 9.14 48.452 0.967 7.98 6.29 10.06
1/26/2021 9:15:00 PM 9.14 48.452 0.966 7.98 6.65 10.05
1/26/2021 9:30:00 PM 9.14 48.452 0.967 7.98 6.28 10.04
1/26/2021 9:45:00 PM 9.14 48.452 0.97 7.98 6.64 10.02
1/26/2021 10:00:00 PM 9.13 48.434 0.972 7.98 6.37 10.02
1/26/2021 10:15:00 PM 9.13 48.434 0.975 7.98 6.3 10.01
1/26/2021 10:30:00 PM 9.12 48.416 0.977 7.98 6.39 9.99
1/26/2021 10:45:00 PM 9.12 48.416 0.979 7.98 6.12 9.99
1/26/2021 11:00:00 PM 9.13 48.434 0.984 7.97 6.24 9.98
1/26/2021 11:15:00 PM 9.13 48.434 0.99 7.97 6.4 9.97
1/26/2021 11:30:00 PM 9.14 48.452 0.995 7.97 6.36 9.96
1/26/2021 11:45:00 PM 9.14 48.452 0.997 7.96 7.03 9.95
1/27/2021 12:00:00 AM 9.14 48.452 0.998 7.96 6.54 9.95
1/27/2021 12:15:00 AM 9.14 48.452 0.998 7.96 6.27 9.96
1/27/2021 12:30:00 AM 9.14 48.452 0.999 7.96 6.4 9.94
1/27/2021 12:45:00 AM 9.14 48.452 0.998 7.96 6.54 9.95
1/27/2021 1:00:00 AM 9.14 48.452 0.995 7.96 6.46 9.95
1/27/2021 1:15:00 AM 9.13 48.434 0.992 7.97 7.21 9.95
1/27/2021 1:30:00 AM 9.13 48.434 0.988 7.96 6.65 9.96
1/27/2021 1:45:00 AM 9.13 48.434 0.984 7.97 6.36 9.96
1/27/2021 2:00:00 AM 9.12 48.416 0.979 7.97 6.11 9.98
1/27/2021 2:15:00 AM 9.12 48.416 0.974 7.97 6.83 9.98
1/27/2021 2:30:00 AM 9.11 48.398 0.967 7.98 6 10
1/27/2021 2:45:00 AM 9.1 48.38 0.96 7.98 6.06 10.01
1/27/2021 3:00:00 AM 9.09 48.362 0.954 7.98 5.89 10.01
1/27/2021 3:15:00 AM 9.09 48.362 0.95 7.99 6.03 10.02
1/27/2021 3:30:00 AM 9.08 48.344 0.946 7.99 6.26 10.02
1/27/2021 3:45:00 AM 9.08 48.344 0.942 7.98 6.11 10.02
1/27/2021 4:00:00 AM 9.07 48.326 0.937 7.99 6.54 10.03
1/27/2021 4:15:00 AM 9.06 48.308 0.931 7.99 6.32 10.04
1/27/2021 4:30:00 AM 9.05 48.29 0.926 7.99 6.2 10.06
1/27/2021 4:45:00 AM 9.04 48.272 0.92 7.99 6.28 10.06
1/27/2021 5:00:00 AM 9.02 48.236 0.914 8 6.18 10.07
1/27/2021 5:15:00 AM 9.01 48.218 0.907 8 6.09 10.08
1/27/2021 5:30:00 AM 8.99 48.182 0.902 8 6.34 10.09
1/27/2021 5:45:00 AM 8.98 48.164 0.896 8.01 6.4 10.1
1/27/2021 6:00:00 AM 8.97 48.146 0.892 8.01 7.67 10.12
1/27/2021 6:15:00 AM 8.97 48.146 0.888 8.01 6.55 10.12
1/27/2021 6:30:00 AM 8.96 48.128 0.886 8.01 6.74 10.13
1/27/2021 6:45:00 AM 8.95 48.11 0.883 8.01 6.45 10.13
1/27/2021 7:00:00 AM 8.94 48.092 0.882 8.01 6.05 10.14
1/27/2021 7:15:00 AM 8.93 48.074 0.88 8.01 6.42 10.15
1/27/2021 7:30:00 AM 8.93 48.074 0.878 8.01 5.85 10.17
1/27/2021 7:45:00 AM 8.93 48.074 0.878 8.01 5.89 10.18
1/27/2021 8:00:00 AM 8.93 48.074 0.879 8.01 6.13 10.19
1/27/2021 8:15:00 AM 8.93 48.074 0.88 8.01 6.91 10.22
1/27/2021 8:30:00 AM 8.93 48.074 0.881 8.02 6.15 10.26
1/27/2021 8:45:00 AM 8.94 48.092 0.88 8.02 6.25 10.34
1/27/2021 9:00:00 AM 8.95 48.11 0.878 8.02 5.92 10.4
1/27/2021 9:15:00 AM 8.97 48.146 0.875 8.04 5.95 10.52
1/27/2021 9:30:00 AM 9 48.2 0.872 8.04 5.59 10.68
1/27/2021 9:45:00 AM 9.04 48.272 0.871 8.06 6.49 10.9
1/27/2021 10:00:00 AM 9.06 48.308 0.869 8.07 5.83 11
1/27/2021 10:15:00 AM 9.1 48.38 0.868 8.08 5.65 11.11
1/27/2021 10:30:00 AM 9.13 48.434 0.868 8.09 5.59 11.22
1/27/2021 10:45:00 AM 9.17 48.506 0.87 8.1 5.8 11.35
1/27/2021 11:00:00 AM 9.22 48.596 0.877 8.11 5.24 11.44
1/27/2021 11:15:00 AM 9.27 48.686 0.886 8.11 5.33 11.54
1/27/2021 11:30:00 AM 9.33 48.794 0.899 8.13 5.4 11.67
1/27/2021 11:45:00 AM 9.41 48.938 0.914 8.15 5.29 11.82
1/27/2021 12:00:00 PM 9.53 49.154 0.927 8.15 4.86 11.98
1/27/2021 12:15:00 PM 9.62 49.316 0.938 8.17 4.97 12.08
1/27/2021 12:30:00 PM 9.7 49.46 0.947 8.17 5.1 12.17
1/27/2021 12:45:00 PM 9.77 49.586 0.954 8.18 5.3 12.22
1/27/2021 1:00:00 PM 9.88 49.784 0.957 8.2 5.67 12.3
1/27/2021 1:15:00 PM 9.94 49.892 0.958 8.21 5.54 12.4
1/27/2021 1:30:00 PM 10 50 0.958 8.21 5.57 12.5
1/27/2021 1:45:00 PM 10.05 50.09 0.957 8.22 5.34 12.56
1/27/2021 2:00:00 PM 10.09 50.162 0.959 8.23 5.58 12.53
1/27/2021 2:15:00 PM 10.11 50.198 0.963 8.24 4.83 12.49
1/27/2021 2:30:00 PM 10.17 50.306 0.965 8.24 5.05 12.56
1/27/2021 2:45:00 PM 10.19 50.342 0.971 8.24 5.11 12.55
1/27/2021 3:00:00 PM 10.21 50.378 0.979 8.23 5.07 12.49
1/27/2021 3:15:00 PM 10.17 50.306 0.988 8.22 4.98 12.34
1/27/2021 3:30:00 PM 10.17 50.306 0.994 8.23 5.5 12.28
1/27/2021 3:45:00 PM 10.18 50.324 0.995 8.23 5.33 12.23
1/27/2021 4:00:00 PM 10.17 50.306 0.994 8.21 5.22 12.12
1/27/2021 4:15:00 PM 10.15 50.27 0.995 8.22 5.31 11.99
1/27/2021 4:30:00 PM 10.12 50.216 0.995 8.2 5.25 11.84
1/27/2021 4:45:00 PM 10.08 50.144 0.995 8.18 5.32 11.7
1/27/2021 5:00:00 PM 10.04 50.072 0.996 8.17 5.26 11.56
1/27/2021 5:15:00 PM 9.99 49.982 0.996 8.15 5 11.41
1/27/2021 5:30:00 PM 9.94 49.892 0.996 8.14 5.23 11.28
1/27/2021 5:45:00 PM 9.9 49.82 0.995 8.14 5.32 11.16
1/27/2021 6:00:00 PM 9.85 49.73 0.995 8.13 5.66 11.06
1/27/2021 6:15:00 PM 9.81 49.658 0.993 8.13 5.41 10.97
1/27/2021 6:30:00 PM 9.76 49.568 0.988 8.12 5.88 10.88
1/27/2021 6:45:00 PM 9.7 49.46 0.982 8.1 6.44 10.8
1/27/2021 7:00:00 PM 9.63 49.334 0.977 8.1 5.61 10.72
1/27/2021 7:15:00 PM 9.57 49.226 0.971 8.09 5.39 10.65
1/27/2021 7:30:00 PM 9.51 49.118 0.963 8.08 5.32 10.58
1/27/2021 7:45:00 PM 9.44 48.992 0.954 8.07 5.6 10.52
1/27/2021 8:00:00 PM 9.37 48.866 0.948 8.06 5.45 10.46
1/27/2021 8:15:00 PM 9.3 48.74 0.945 8.06 5.59 10.4
1/27/2021 8:30:00 PM 9.23 48.614 0.942 8.05 5.41 10.36
1/27/2021 8:45:00 PM 9.17 48.506 0.942 8.04 6.05 10.32
1/27/2021 9:00:00 PM 9.1 48.38 0.943 8.02 5.57 10.29
1/27/2021 9:15:00 PM 9.05 48.29 0.945 8.03 5.51 10.25
1/27/2021 9:30:00 PM 9.01 48.218 0.947 8.02 5.56 10.22
1/27/2021 9:45:00 PM 8.95 48.11 0.95 8.01 5.32 10.2
1/27/2021 10:00:00 PM 8.91 48.038 0.952 8.02 5.68 10.19
1/27/2021 10:15:00 PM 8.86 47.948 0.954 8.01 5.59 10.18
1/27/2021 10:30:00 PM 8.81 47.858 0.955 8 5.41 10.17
1/27/2021 10:45:00 PM 8.75 47.75 0.957 8 5.67 10.16
1/27/2021 11:00:00 PM 8.7 47.66 0.961 8 5.74 10.16
1/27/2021 11:15:00 PM 8.65 47.57 0.965 8 5.7 10.16
1/27/2021 11:30:00 PM 8.61 47.498 0.97 8 5.49 10.16
1/27/2021 11:45:00 PM 8.55 47.39 0.973 8 5.52 10.16
1/28/2021 12:00:00 AM 8.52 47.336 0.977 7.99 5.61 10.16
1/28/2021 12:15:00 AM 8.48 47.264 0.98 8 5.83 10.16
1/28/2021 12:30:00 AM 8.44 47.192 0.981 7.99 5.9 10.17
1/28/2021 12:45:00 AM 8.4 47.12 0.983 8 6.31 10.18
1/28/2021 1:00:00 AM 8.36 47.048 0.983 8 6.05 10.19
1/28/2021 1:15:00 AM 8.32 46.976 0.983 8 6.46 10.2
1/28/2021 1:30:00 AM 8.27 46.886 0.982 8 6.32 10.21
1/28/2021 1:45:00 AM 8.23 46.814 0.981 8 5.49 10.22
1/28/2021 2:00:00 AM 8.19 46.742 0.978 8 5.98 10.23
1/28/2021 2:15:00 AM 8.15 46.67 0.976 8 5.78 10.25
1/28/2021 2:30:00 AM 8.1 46.58 0.974 8 5.53 10.26
1/28/2021 2:45:00 AM 8.06 46.508 0.972 8 5.55 10.27
1/28/2021 3:00:00 AM 8.01 46.418 0.969 8.01 5.89 10.28
1/28/2021 3:15:00 AM 7.95 46.31 0.964 8.01 6.12 10.3
1/28/2021 3:30:00 AM 7.89 46.202 0.959 8.02 6.29 10.33
1/28/2021 3:45:00 AM 7.84 46.112 0.952 8 7.37 10.36
1/28/2021 4:00:00 AM 7.79 46.022 0.946 8.01 7.42 10.38
1/28/2021 4:15:00 AM 7.76 45.968 0.94 8.02 6.48 10.4
1/28/2021 4:30:00 AM 7.71 45.878 0.935 8.02 6.43 10.42
1/28/2021 4:45:00 AM 7.66 45.788 0.93 8.02 6.98 10.44
1/28/2021 5:00:00 AM 7.6 45.68 0.924 8.03 7.54 10.46
1/28/2021 5:15:00 AM 7.54 45.572 0.917 8.03 6.98 10.49
1/28/2021 5:30:00 AM 7.48 45.464 0.91 8.02 6.82 10.5
1/28/2021 5:45:00 AM 7.43 45.374 0.904 8.02 7.47 10.53
1/28/2021 6:00:00 AM 7.39 45.302 0.898 8.04 6.6 10.55
1/28/2021 6:15:00 AM 7.35 45.23 0.893 8.04 6.75 10.58
1/28/2021 6:30:00 AM 7.3 45.14 0.889 8.04 6.76 10.6
1/28/2021 6:45:00 AM 7.26 45.068 0.886 8.04 6.63 10.62
1/28/2021 7:00:00 AM 7.22 44.996 0.884 8.04 6.77 10.64
1/28/2021 7:15:00 AM 7.18 44.924 0.884 8.04 6.7 10.66
1/28/2021 7:30:00 AM 7.14 44.852 0.884 8.05 6.61 10.68
1/28/2021 7:45:00 AM 7.11 44.798 0.885 8.04 7.02 10.74
1/28/2021 8:00:00 AM 7.08 44.744 0.885 8.06 6.73 10.83
1/28/2021 8:15:00 AM 7.06 44.708 0.886 8.06 7.22 10.92
1/28/2021 8:30:00 AM 7.04 44.672 0.888 8.07 7.25 11
1/28/2021 8:45:00 AM 7.03 44.654 0.889 8.07 7.35 11.09
1/28/2021 9:00:00 AM 7 44.6 0.889 8.08 7.52 11.16
1/28/2021 9:15:00 AM 6.99 44.582 0.888 8.09 7.88 11.25
1/28/2021 9:30:00 AM 7 44.6 0.888 8.09 8.37 11.41
1/28/2021 9:45:00 AM 7.02 44.636 0.887 8.11 7.34 11.54
1/28/2021 10:00:00 AM 7.05 44.69 0.886 8.12 7.31 11.65
1/28/2021 10:15:00 AM 7.1 44.78 0.885 8.13 6.18 11.79
1/28/2021 10:30:00 AM 7.16 44.888 0.885 8.14 6.36 11.92
1/28/2021 10:45:00 AM 7.24 45.032 0.887 8.15 7.08 12.03
1/28/2021 11:00:00 AM 7.32 45.176 0.891 8.16 7 12.15
1/28/2021 11:15:00 AM 7.41 45.338 0.898 8.17 6.23 12.25
1/28/2021 11:30:00 AM 7.51 45.518 0.908 8.18 5.78 12.36
1/28/2021 11:45:00 AM 7.61 45.698 0.92 8.19 5.64 12.47
1/28/2021 12:00:00 PM 7.74 45.932 0.934 8.2 5.51 12.58
1/28/2021 12:15:00 PM 7.86 46.148 0.945 8.22 5.8 12.66
1/28/2021 12:30:00 PM 7.93 46.274 0.954 8.23 5.44 12.74
1/28/2021 12:45:00 PM 8.01 46.418 0.959 8.23 5.52 12.79
1/28/2021 1:00:00 PM 8.07 46.526 0.96 8.24 5.45 12.82
1/28/2021 1:15:00 PM 8.12 46.616 0.96 8.25 5.42 12.87
1/28/2021 1:30:00 PM 8.17 46.706 0.961 8.25 5.27 12.9
1/28/2021 1:45:00 PM 8.24 46.832 0.963 8.26 5.46 12.92
1/28/2021 2:00:00 PM 8.29 46.922 0.964 8.26 5.28 12.94
1/28/2021 2:15:00 PM 8.31 46.958 0.965 8.27 5.39 12.93
1/28/2021 2:30:00 PM 8.32 46.976 0.965 8.27 6.2 12.89
1/28/2021 2:45:00 PM 8.3 46.94 0.964 8.27 5.33 12.83
1/28/2021 3:00:00 PM 8.29 46.922 0.965 8.27 5.74 12.76
1/28/2021 3:15:00 PM 8.26 46.868 0.967 8.26 5.69 12.66
1/28/2021 3:30:00 PM 8.22 46.796 0.972 8.25 5.56 12.55
1/28/2021 3:45:00 PM 8.18 46.724 0.98 8.24 5.33 12.42
1/28/2021 4:00:00 PM 8.16 46.688 0.988 8.23 5.77 12.28
1/28/2021 4:15:00 PM 8.13 46.634 0.995 8.22 5.61 12.14
1/28/2021 4:30:00 PM 8.06 46.508 0.997 8.2 5.49 12.01
1/28/2021 4:45:00 PM 8.02 46.436 0.998 8.19 5.46 11.89
1/28/2021 5:00:00 PM 7.98 46.364 0.999 8.18 5.18 11.77
1/28/2021 5:15:00 PM 7.94 46.292 1 8.17 4.94 11.67
1/28/2021 5:30:00 PM 7.9 46.22 0.999 8.16 5.43 11.56
1/28/2021 5:45:00 PM 7.87 46.166 0.999 8.15 5.31 11.46
1/28/2021 6:00:00 PM 7.83 46.094 0.998 8.15 5.49 11.38
1/28/2021 6:15:00 PM 7.79 46.022 0.996 8.14 5.66 11.32
1/28/2021 6:30:00 PM 7.75 45.95 0.994 8.13 5.46 11.26
1/28/2021 6:45:00 PM 7.68 45.824 0.99 8.12 5.74 11.2
1/28/2021 7:00:00 PM 7.63 45.734 0.981 8.12 5.79 11.15
1/28/2021 7:15:00 PM 7.55 45.59 0.973 8.12 5.81 11.1
1/28/2021 7:30:00 PM 7.48 45.464 0.966 8.11 6.92 11.06
1/28/2021 7:45:00 PM 7.4 45.32 0.962 8.11 5.49 11.02
1/28/2021 8:00:00 PM 7.31 45.158 0.96 8.1 5.55 10.98
1/28/2021 8:15:00 PM 7.23 45.014 0.958 8.09 6.21 10.95
1/28/2021 8:30:00 PM 7.17 44.906 0.958 8.09 5.56 10.91
1/28/2021 8:45:00 PM 7.09 44.762 0.958 8.08 5.54 10.89
1/28/2021 9:00:00 PM 7.01 44.618 0.957 8.07 5.77 10.86
1/28/2021 9:15:00 PM 6.93 44.474 0.96 8.07 6.09 10.84
1/28/2021 9:30:00 PM 6.85 44.33 0.962 8.06 5.35 10.83
1/28/2021 9:45:00 PM 6.79 44.222 0.965 8.06 5.36 10.81
1/28/2021 10:00:00 PM 6.73 44.114 0.967 8.05 5.23 10.81
1/28/2021 10:15:00 PM 6.67 44.006 0.969 8.05 5.53 10.8
1/28/2021 10:30:00 PM 6.62 43.916 0.973 8.04 5.47 10.81
1/28/2021 10:45:00 PM 6.55 43.79 0.977 8.05 5.48 10.81
1/28/2021 11:00:00 PM 6.48 43.664 0.983 8.04 5.22 10.82
1/28/2021 11:15:00 PM 6.41 43.538 0.988 8.04 5.84 10.82
1/28/2021 11:30:00 PM 6.33 43.394 0.994 8.02 5.56 10.83
1/28/2021 11:45:00 PM 6.27 43.286 1 8.03 5.5 10.84
1/29/2021 12:00:00 AM 6.21 43.178 1.005 8.03 5.73 10.85
1/29/2021 12:15:00 AM 6.16 43.088 1.007 8.02 6.69 10.87
1/29/2021 12:30:00 AM 6.12 43.016 1.01 8.02 5.48 10.87
1/29/2021 12:45:00 AM 6.08 42.944 1.013 8.02 5.46 10.88
1/29/2021 1:00:00 AM 6.04 42.872 1.014 8.03 5.66 10.89
1/29/2021 1:15:00 AM 6.01 42.818 1.014 8.03 5.34 10.9
1/29/2021 1:30:00 AM 5.99 42.782 1.013 8.03 5.44 10.91
1/29/2021 1:45:00 AM 5.97 42.746 1.011 8.03 5.12 10.92
1/29/2021 2:00:00 AM 5.96 42.728 1.011 8.03 5.49 10.92
1/29/2021 2:15:00 AM 5.95 42.71 1.011 8.03 5.23 10.92
1/29/2021 2:30:00 AM 5.93 42.674 1.01 8.02 5.29 10.94
1/29/2021 2:45:00 AM 5.9 42.62 1.008 8.03 5.17 10.94
1/29/2021 3:00:00 AM 5.89 42.602 1.006 8.04 5.42 10.95
1/29/2021 3:15:00 AM 5.85 42.53 1.002 8.03 5.62 10.96
1/29/2021 3:30:00 AM 5.83 42.494 0.997 8.04 5.82 10.97
1/29/2021 3:45:00 AM 5.82 42.476 0.993 8.03 5.24 10.99
1/29/2021 4:00:00 AM 5.79 42.422 0.989 8.04 5.13 10.99
1/29/2021 4:15:00 AM 5.79 42.422 0.984 8.03 5.13 11.01
1/29/2021 4:30:00 AM 5.78 42.404 0.978 8.04 5.31 11.02
1/29/2021 4:45:00 AM 5.76 42.368 0.973 8.04 5.1 11.03
1/29/2021 5:00:00 AM 5.75 42.35 0.967 8.04 5.53 11.04
1/29/2021 5:15:00 AM 5.74 42.332 0.96 8.05 5.46 11.05
1/29/2021 5:30:00 AM 5.73 42.314 0.953 8.04 5.16 11.06
1/29/2021 5:45:00 AM 5.71 42.278 0.947 8.06 5.36 11.08
1/29/2021 6:00:00 AM 5.7 42.26 0.942 8.06 5.76 11.09
1/29/2021 6:15:00 AM 5.66 42.188 0.939 8.07 5.25 11.1
1/29/2021 6:30:00 AM 5.63 42.134 0.936 8.06 5.5 11.11
1/29/2021 6:45:00 AM 5.6 42.08 0.933 8.05 5.63 11.13
1/29/2021 7:00:00 AM 5.58 42.044 0.93 8.05 5.45 11.14
1/29/2021 7:15:00 AM 5.57 42.026 0.927 8.05 5.76 11.15
1/29/2021 7:30:00 AM 5.54 41.972 0.925 8.05 5.32 11.17
1/29/2021 7:45:00 AM 5.53 41.954 0.922 8.06 6.6 11.22
1/29/2021 8:00:00 AM 5.52 41.936 0.92 8.07 7.33 11.29
1/29/2021 8:15:00 AM 5.52 41.936 0.918 8.08 7.95 11.37
1/29/2021 8:30:00 AM 5.52 41.936 0.914 8.09 7.73 11.47
1/29/2021 8:45:00 AM 5.56 42.008 0.911 8.1 7.84 11.6
1/29/2021 9:00:00 AM 5.58 42.044 0.907 8.09 8.91 11.69
1/29/2021 9:15:00 AM 5.62 42.116 0.906 8.12 7.41 11.8
1/29/2021 9:30:00 AM 5.66 42.188 0.904 8.12 6.23 11.92
1/29/2021 9:45:00 AM 5.72 42.296 0.901 8.13 6.85 12.04
1/29/2021 10:00:00 AM 5.79 42.422 0.897 8.14 5.5 12.16
1/29/2021 10:15:00 AM 5.82 42.476 0.895 8.16 6.3 12.25
1/29/2021 10:30:00 AM 5.9 42.62 0.894 8.15 6.3 12.37
1/29/2021 10:45:00 AM 5.99 42.782 0.895 8.18 6.41 12.49
1/29/2021 11:00:00 AM 6.08 42.944 0.898 8.17 5.72 12.57
1/29/2021 11:15:00 AM 6.19 43.142 0.905 8.19 6.46 12.65
1/29/2021 11:30:00 AM 6.31 43.358 0.916 8.2 6.2 12.76
1/29/2021 11:45:00 AM 6.45 43.61 0.929 8.22 6.25 12.88
1/29/2021 12:00:00 PM 6.58 43.844 0.944 8.23 6.51 12.95
1/29/2021 12:15:00 PM 6.69 44.042 0.959 8.23 5.72 12.97
1/29/2021 12:30:00 PM 6.82 44.276 0.973 8.24 6.49 13.05
1/29/2021 12:45:00 PM 6.94 44.492 0.983 8.24 5.86 13.13
1/29/2021 1:00:00 PM 7.11 44.798 0.988 8.24 6.08 13.24
1/29/2021 1:15:00 PM 7.22 44.996 0.989 8.27 6.55 13.29
1/29/2021 1:30:00 PM 7.3 45.14 0.989 8.28 5.63 13.29
1/29/2021 1:45:00 PM 7.41 45.338 0.989 8.29 6.1 13.34
1/29/2021 2:00:00 PM 7.46 45.428 0.989 8.3 5.32 13.36
1/29/2021 2:15:00 PM 7.48 45.464 0.988 8.29 6.58 13.31
1/29/2021 2:30:00 PM 7.47 45.446 0.987 8.3 5.55 13.25
1/29/2021 2:45:00 PM 7.47 45.446 0.985 8.3 5.7 13.2
1/29/2021 3:00:00 PM 7.47 45.446 0.982 8.3 5.92 13.18
1/29/2021 3:15:00 PM 7.5 45.5 0.98 8.3 5.75 13.16
1/29/2021 3:30:00 PM 7.53 45.554 0.978 8.3 7.22 13.11
1/29/2021 3:45:00 PM 7.55 45.59 0.979 8.31 5.72 13.05
1/29/2021 4:00:00 PM 7.58 45.644 0.98 8.3 5.69 12.94
1/29/2021 4:15:00 PM 7.59 45.662 0.981 8.28 5.93 12.79
1/29/2021 4:30:00 PM 7.61 45.698 0.98 8.27 5.35 12.67
1/29/2021 4:45:00 PM 7.6 45.68 0.979 8.26 5.05 12.52
1/29/2021 5:00:00 PM 7.58 45.644 0.978 8.25 5.38 12.37
1/29/2021 5:15:00 PM 7.55 45.59 0.978 8.24 5.64 12.22
1/29/2021 5:30:00 PM 7.51 45.518 0.981 8.23 5.79 12.07
1/29/2021 5:45:00 PM 7.49 45.482 0.983 8.22 6.38 11.94
1/29/2021 6:00:00 PM 7.46 45.428 0.985 8.2 6.7 11.82
1/29/2021 6:15:00 PM 7.44 45.392 0.987 8.19 6.19 11.71
1/29/2021 6:30:00 PM 7.41 45.338 0.989 8.18 6.27 11.6
1/29/2021 6:45:00 PM 7.38 45.284 0.991 8.16 6.06 11.5
1/29/2021 7:00:00 PM 7.35 45.23 0.992 8.16 6.19 11.41
1/29/2021 7:15:00 PM 7.32 45.176 0.993 8.15 6.91 11.33
1/29/2021 7:30:00 PM 7.3 45.14 0.993 8.14 5.85 11.26
1/29/2021 7:45:00 PM 7.28 45.104 0.993 8.13 6.59 11.19
1/29/2021 8:00:00 PM 7.27 45.086 0.991 8.13 6.72 11.12
1/29/2021 8:15:00 PM 7.25 45.05 0.991 8.12 5.84 11.06
1/29/2021 8:30:00 PM 7.23 45.014 0.99 8.1 6.34 11
1/29/2021 8:45:00 PM 7.21 44.978 0.991 8.1 6.03 10.95
1/29/2021 9:00:00 PM 7.19 44.942 0.991 8.09 5.91 10.9
1/29/2021 9:15:00 PM 7.16 44.888 0.993 8.09 5.57 10.86
1/29/2021 9:30:00 PM 7.14 44.852 0.996 8.07 6.19 10.83
1/29/2021 9:45:00 PM 7.12 44.816 1 8.08 6.27 10.8
1/29/2021 10:00:00 PM 7.09 44.762 1.004 8.06 5.93 10.77
1/29/2021 10:15:00 PM 7.07 44.726 1.008 8.05 5.89 10.75
1/29/2021 10:30:00 PM 7.04 44.672 1.014 8.06 6.21 10.73
1/29/2021 10:45:00 PM 7.02 44.636 1.018 8.05 6.05 10.72
1/29/2021 11:00:00 PM 7.01 44.618 1.023 8.06 6.45 10.7
1/29/2021 11:15:00 PM 7.01 44.618 1.026 8.05 6.62 10.68
1/29/2021 11:30:00 PM 7.02 44.636 1.029 8.05 6.32 10.67
1/29/2021 11:45:00 PM 7.02 44.636 1.032 8.05 6.38 10.66
1/30/2021 12:00:00 AM 7.02 44.636 1.033 8.05 6.74 10.65
1/30/2021 12:15:00 AM 7.02 44.636 1.032 8.05 6.2 10.64
1/30/2021 12:30:00 AM 7.02 44.636 1.032 8.05 6.69 10.63
1/30/2021 12:45:00 AM 7.02 44.636 1.032 8.04 6.34 10.63
1/30/2021 1:00:00 AM 7.03 44.654 1.032 8.04 6.3 10.62
1/30/2021 1:15:00 AM 7.02 44.636 1.032 8.05 6.54 10.62
1/30/2021 1:30:00 AM 7.02 44.636 1.031 8.05 6.2 10.62
1/30/2021 1:45:00 AM 7.01 44.618 1.03 8.05 6.58 10.61
1/30/2021 2:00:00 AM 7.01 44.618 1.028 8.04 6.31 10.61
1/30/2021 2:15:00 AM 7 44.6 1.026 8.05 6.47 10.62
1/30/2021 2:30:00 AM 6.99 44.582 1.023 8.05 7.89 10.61
1/30/2021 2:45:00 AM 6.98 44.564 1.019 8.03 6.33 10.62
1/30/2021 3:00:00 AM 6.97 44.546 1.015 8.05 6.76 10.63
1/30/2021 3:15:00 AM 6.96 44.528 1.011 8.05 7.16 10.63
1/30/2021 3:30:00 AM 6.95 44.51 1.01 8.05 7.21 10.63
1/30/2021 3:45:00 AM 6.94 44.492 1.007 8.05 7.37 10.64
1/30/2021 4:00:00 AM 6.94 44.492 1.004 8.05 8.71 10.64
1/30/2021 4:15:00 AM 6.93 44.474 1 8.06 8.16 10.65
1/30/2021 4:30:00 AM 6.93 44.474 0.995 8.06 7.92 10.65
1/30/2021 4:45:00 AM 6.91 44.438 0.989 8.05 7.07 10.66
1/30/2021 5:00:00 AM 6.9 44.42 0.985 8.06 7.82 10.66
1/30/2021 5:15:00 AM 6.87 44.366 0.981 8.06 8.13 10.67
1/30/2021 5:30:00 AM 6.84 44.312 0.975 8.05 7.17 10.68
1/30/2021 5:45:00 AM 6.8 44.24 0.969 8.06 6.55 10.69
1/30/2021 6:00:00 AM 6.76 44.168 0.962 8.04 7.37 10.71
1/30/2021 6:15:00 AM 6.71 44.078 0.956 8.06 6.93 10.73
1/30/2021 6:30:00 AM 6.67 44.006 0.951 8.06 6.59 10.74
1/30/2021 6:45:00 AM 6.64 43.952 0.946 8.06 6.28 10.76
1/30/2021 7:00:00 AM 6.61 43.898 0.943 8.06 6.61 10.78
1/30/2021 7:15:00 AM 6.59 43.862 0.94 8.07 6.22 10.79
1/30/2021 7:30:00 AM 6.56 43.808 0.936 8.07 6.06 10.83
1/30/2021 7:45:00 AM 6.54 43.772 0.933 8.07 5.91 10.87
1/30/2021 8:00:00 AM 6.52 43.736 0.931 8.07 6.77 10.94
1/30/2021 8:15:00 AM 6.5 43.7 0.93 8.08 8.16 10.99
1/30/2021 8:30:00 AM 6.48 43.664 0.931 8.08 8.24 11.06
1/30/2021 8:45:00 AM 6.47 43.646 0.932 8.08 7.84 11.15
1/30/2021 9:00:00 AM 6.48 43.664 0.932 8.09 8.27 11.25
1/30/2021 9:15:00 AM 6.48 43.664 0.933 8.1 7.38 11.37
1/30/2021 9:30:00 AM 6.5 43.7 0.932 8.11 6.49 11.52
1/30/2021 9:45:00 AM 6.56 43.808 0.93 8.12 6.28 11.66
1/30/2021 10:00:00 AM 6.61 43.898 0.928 8.14 6.29 11.79
1/30/2021 10:15:00 AM 6.68 44.024 0.927 8.15 6.5 11.91
1/30/2021 10:30:00 AM 6.78 44.204 0.924 8.16 6.44 12.02
1/30/2021 10:45:00 AM 6.88 44.384 0.922 8.17 7.09 12.14
1/30/2021 11:00:00 AM 7 44.6 0.918 8.17 7.07 12.25
1/30/2021 11:15:00 AM 7.11 44.798 0.916 8.19 7.27 12.35
1/30/2021 11:30:00 AM 7.23 45.014 0.915 8.2 6.97 12.46
1/30/2021 11:45:00 AM 7.36 45.248 0.916 8.22 6.78 12.56
1/30/2021 12:00:00 PM 7.51 45.518 0.921 8.23 8.09 12.66
1/30/2021 12:15:00 PM 7.64 45.752 0.93 8.24 6.82 12.74
1/30/2021 12:30:00 PM 7.78 46.004 0.942 8.25 6.64 12.82
1/30/2021 12:45:00 PM 7.92 46.256 0.956 8.26 6.03 12.87
1/30/2021 1:00:00 PM 8.06 46.508 0.971 8.27 6.13 12.92
1/30/2021 1:15:00 PM 8.22 46.796 0.986 8.27 5.76 12.95
1/30/2021 1:30:00 PM 8.34 47.012 0.999 8.28 5.83 12.97
1/30/2021 1:45:00 PM 8.48 47.264 1.011 8.28 6.02 12.97
1/30/2021 2:00:00 PM 8.59 47.462 1.021 8.25 6.15 12.98
1/30/2021 2:15:00 PM 8.68 47.624 1.031 8.29 5.65 12.96
1/30/2021 2:30:00 PM 8.76 47.768 1.039 8.3 6.71 12.92
1/30/2021 2:45:00 PM 8.8 47.84 1.043 8.29 6.58 12.86
1/30/2021 3:00:00 PM 8.83 47.894 1.044 8.29 6.46 12.77
1/30/2021 3:15:00 PM 8.82 47.876 1.042 8.28 6.32 12.66
1/30/2021 3:30:00 PM 8.79 47.822 1.038 8.27 7.21 12.53
1/30/2021 3:45:00 PM 8.76 47.768 1.037 8.26 6.29 12.41
1/30/2021 4:00:00 PM 8.74 47.732 1.037 8.26 6.39 12.26
1/30/2021 4:15:00 PM 8.72 47.696 1.038 8.25 6.01 12.12
1/30/2021 4:30:00 PM 8.68 47.624 1.037 8.24 6.29 11.97
1/30/2021 4:45:00 PM 8.64 47.552 1.035 8.23 5.6 11.84
1/30/2021 5:00:00 PM 8.61 47.498 1.035 8.22 5.44 11.71
1/30/2021 5:15:00 PM 8.6 47.48 1.036 8.2 5.48 11.58
1/30/2021 5:30:00 PM 8.57 47.426 1.036 8.19 5.45 11.46
1/30/2021 5:45:00 PM 8.55 47.39 1.034 8.18 5.75 11.35
1/30/2021 6:00:00 PM 8.52 47.336 1.033 8.17 5.91 11.25
1/30/2021 6:15:00 PM 8.49 47.282 1.03 8.15 7.21 11.17
1/30/2021 6:30:00 PM 8.45 47.21 1.028 8.14 6.46 11.11
1/30/2021 6:45:00 PM 8.4 47.12 1.026 8.14 6.46 11.03
1/30/2021 7:00:00 PM 8.35 47.03 1.024 8.13 6.45 10.97
1/30/2021 7:15:00 PM 8.29 46.922 1.023 8.12 7.29 10.91
1/30/2021 7:30:00 PM 8.23 46.814 1.022 8.12 6.49 10.85
1/30/2021 7:45:00 PM 8.18 46.724 1.021 8.11 6.65 10.79
1/30/2021 8:00:00 PM 8.11 46.598 1.02 8.1 7.26 10.73
1/30/2021 8:15:00 PM 8.04 46.472 1.019 8.09 6.21 10.68
1/30/2021 8:30:00 PM 7.97 46.346 1.017 8.09 6.85 10.64
1/30/2021 8:45:00 PM 7.89 46.202 1.014 8.08 7.34 10.61
1/30/2021 9:00:00 PM 7.81 46.058 1.012 8.07 7.06 10.57
1/30/2021 9:15:00 PM 7.74 45.932 1.012 8.07 6.82 10.55
1/30/2021 9:30:00 PM 7.68 45.824 1.012 8.06 6.77 10.53
1/30/2021 9:45:00 PM 7.61 45.698 1.011 8.05 7.63 10.51
1/30/2021 10:00:00 PM 7.55 45.59 1.01 8.04 6.69 10.5
1/30/2021 10:15:00 PM 7.49 45.482 1.009 8.04 6.56 10.49
1/30/2021 10:30:00 PM 7.44 45.392 1.008 8.04 6.96 10.47
1/30/2021 10:45:00 PM 7.39 45.302 1.008 8.03 6.42 10.47
1/30/2021 11:00:00 PM 7.34 45.212 1.008 8.04 6.12 10.47
1/30/2021 11:15:00 PM 7.31 45.158 1.009 8.03 6.38 10.46
1/30/2021 11:30:00 PM 7.28 45.104 1.01 8.03 6.63 10.47
1/30/2021 11:45:00 PM 7.25 45.05 1.011 8.02 6.19 10.47
1/31/2021 12:00:00 AM 7.23 45.014 1.013 8.02 6.28 10.47
1/31/2021 12:15:00 AM 7.21 44.978 1.013 8.02 5.93 10.47
1/31/2021 12:30:00 AM 7.2 44.96 1.012 8.02 6.42 10.47
1/31/2021 12:45:00 AM 7.19 44.942 1.01 8.01 7.76 10.47
1/31/2021 1:00:00 AM 7.18 44.924 1.01 8.01 6.51 10.47
1/31/2021 1:15:00 AM 7.18 44.924 1.01 8.01 7.22 10.47
1/31/2021 1:30:00 AM 7.17 44.906 1.009 8 6.12 10.47
1/31/2021 1:45:00 AM 7.17 44.906 1.008 8.01 5.91 10.47
1/31/2021 2:00:00 AM 7.17 44.906 1.005 8 5.77 10.47
1/31/2021 2:15:00 AM 7.17 44.906 1.003 8.02 6 10.47
1/31/2021 2:30:00 AM 7.17 44.906 1 8.01 5.85 10.47
1/31/2021 2:45:00 AM 7.17 44.906 0.997 8 6.85 10.47
1/31/2021 3:00:00 AM 7.18 44.924 0.995 8.02 6.85 10.47
1/31/2021 3:15:00 AM 7.18 44.924 0.991 8.01 6.17 10.47
1/31/2021 3:30:00 AM 7.18 44.924 0.987 8 6.86 10.47
1/31/2021 3:45:00 AM 7.19 44.942 0.984 8.01 7.83 10.47
1/31/2021 4:00:00 AM 7.19 44.942 0.98 8.01 7.81 10.47
1/31/2021 4:15:00 AM 7.2 44.96 0.976 8.01 6.49 10.47
1/31/2021 4:30:00 AM 7.2 44.96 0.971 8.01 6.2 10.47
1/31/2021 4:45:00 AM 7.21 44.978 0.967 8.01 6.38 10.47
1/31/2021 5:00:00 AM 7.21 44.978 0.961 8.02 6.65 10.48
1/31/2021 5:15:00 AM 7.21 44.978 0.956 8.01 6.27 10.48
1/31/2021 5:30:00 AM 7.21 44.978 0.949 8.02 5.97 10.49
1/31/2021 5:45:00 AM 7.21 44.978 0.943 8.02 6.85 10.5
1/31/2021 6:00:00 AM 7.21 44.978 0.936 8.01 6.57 10.51
1/31/2021 6:15:00 AM 7.2 44.96 0.929 8.02 6.97 10.52
1/31/2021 6:30:00 AM 7.21 44.978 0.923 8.02 6.13 10.53
1/31/2021 6:45:00 AM 7.21 44.978 0.918 8.02 6.43 10.54
1/31/2021 7:00:00 AM 7.21 44.978 0.914 8.03 6.45 10.54
1/31/2021 7:15:00 AM 7.21 44.978 0.911 8.03 6.49 10.55
1/31/2021 7:30:00 AM 7.21 44.978 0.909 8.03 6.16 10.56
1/31/2021 7:45:00 AM 7.2 44.96 0.908 8.03 6.1 10.57
1/31/2021 8:00:00 AM 7.2 44.96 0.907 8.03 7.69 10.6
1/31/2021 8:15:00 AM 7.21 44.978 0.907 8.03 9.15 10.64
1/31/2021 8:30:00 AM 7.21 44.978 0.907 8.05 8.94 10.69
1/31/2021 8:45:00 AM 7.22 44.996 0.907 8.04 9.56 10.78
1/31/2021 9:00:00 AM 7.23 45.014 0.904 8.05 10.45 10.82
1/31/2021 9:15:00 AM 7.24 45.032 0.902 8.06 10.72 10.89
1/31/2021 9:30:00 AM 7.26 45.068 0.899 8.07 10.83 10.98
1/31/2021 9:45:00 AM 7.28 45.104 0.897 8.07 11.76 11.05
1/31/2021 10:00:00 AM 7.31 45.158 0.894 8.07 11.09 11.13
1/31/2021 10:15:00 AM 7.33 45.194 0.89 8.08 10.69 11.23
1/31/2021 10:30:00 AM 7.35 45.23 0.888 8.09 13.12 11.28
1/31/2021 10:45:00 AM 7.36 45.248 0.885 8.11 9.57 11.4
1/31/2021 11:00:00 AM 7.38 45.284 0.883 8.12 9.37 11.5
1/31/2021 11:15:00 AM 7.4 45.32 0.883 8.12 7.24 11.57
1/31/2021 11:30:00 AM 7.44 45.392 0.884 8.13 7.24 11.68
1/31/2021 11:45:00 AM 7.46 45.428 0.886 8.14 7.58 11.72
1/31/2021 12:00:00 PM 7.47 45.446 0.889 8.14 9.6 11.75
1/31/2021 12:15:00 PM 7.5 45.5 0.894 8.15 7.26 11.82
1/31/2021 12:30:00 PM 7.53 45.554 0.903 8.15 7.39 11.89
1/31/2021 12:45:00 PM 7.58 45.644 0.916 8.17 6.91 11.92
1/31/2021 1:00:00 PM 7.62 45.716 0.935 8.15 7.49 11.92
1/31/2021 1:15:00 PM 7.67 45.806 0.956 8.16 6.3 11.93
1/31/2021 1:30:00 PM 7.71 45.878 0.974 8.16 6.15 11.93
1/31/2021 1:45:00 PM 7.75 45.95 0.989 8.16 6.65 11.95
1/31/2021 2:00:00 PM 7.78 46.004 1 8.17 7.24 11.98
1/31/2021 2:15:00 PM 7.79 46.022 1.009 8.18 6.78 11.98
1/31/2021 2:30:00 PM 7.8 46.04 1.016 8.17 6.39 12.03
1/31/2021 2:45:00 PM 7.79 46.022 1.02 8.17 7.17 12.02
1/31/2021 3:00:00 PM 7.73 45.914 1.024 8.18 7.15 11.96
1/31/2021 3:15:00 PM 7.63 45.734 1.026 8.18 6.47 11.9
1/31/2021 3:30:00 PM 7.55 45.59 1.029 8.17 6.86 11.87
1/31/2021 3:45:00 PM 7.5 45.5 1.03 8.17 6.17 11.86
1/31/2021 4:00:00 PM 7.47 45.446 1.031 8.17 6.15 11.82
1/31/2021 4:15:00 PM 7.43 45.374 1.032 8.17 6.14 11.78
1/31/2021 4:30:00 PM 7.4 45.32 1.033 8.17 7.01 11.71
1/31/2021 4:45:00 PM 7.33 45.194 1.033 8.16 7.06 11.62
1/31/2021 5:00:00 PM 7.29 45.122 1.034 8.15 6.75 11.54
1/31/2021 5:15:00 PM 7.25 45.05 1.035 8.14 6.81 11.47
1/31/2021 5:30:00 PM 7.18 44.924 1.035 8.14 7.21 11.4
1/31/2021 5:45:00 PM 7.13 44.834 1.034 8.13 6.65 11.35
1/31/2021 6:00:00 PM 7.09 44.762 1.034 8.13 6.57 11.3
1/31/2021 6:15:00 PM 7.04 44.672 1.034 8.13 7.24 11.26
1/31/2021 6:30:00 PM 6.98 44.564 1.036 8.12 7.14 11.21
1/31/2021 6:45:00 PM 6.91 44.438 1.039 8.12 6.18 11.17
1/31/2021 7:00:00 PM 6.82 44.276 1.04 8.11 6.89 11.12
1/31/2021 7:15:00 PM 6.74 44.132 1.039 8.11 6.62 11.08
1/31/2021 7:30:00 PM 6.66 43.988 1.037 8.09 6.65 11.06
1/31/2021 7:45:00 PM 6.58 43.844 1.034 8.1 6.07 11.03
1/31/2021 8:00:00 PM 6.49 43.682 1.031 8.09 6.75 11.01
1/31/2021 8:15:00 PM 6.41 43.538 1.029 8.09 6.45 10.98
1/31/2021 8:30:00 PM 6.36 43.448 1.026 8.07 6.63 10.97
1/31/2021 8:45:00 PM 6.3 43.34 1.023 8.08 6.54 10.94
1/31/2021 9:00:00 PM 6.22 43.196 1.021 8.07 7.57 10.92
1/31/2021 9:15:00 PM 6.15 43.07 1.019 8.07 7.22 10.89
1/31/2021 9:30:00 PM 6.1 42.98 1.017 8.06 6.58 10.88
1/31/2021 9:45:00 PM 6.11 42.998 1.017 8.07 6.48 10.87
1/31/2021 10:00:00 PM 6.09 42.962 1.017 8.06 7 10.86
1/31/2021 10:15:00 PM 6.09 42.962 1.018 8.06 7.19 10.85
1/31/2021 10:30:00 PM 6.07 42.926 1.02 8.06 6.83 10.84
1/31/2021 10:45:00 PM 6.05 42.89 1.023 8.06 7.06 10.84
1/31/2021 11:00:00 PM 6.05 42.89 1.024 8.05 6.51 10.83
1/31/2021 11:15:00 PM 6.04 42.872 1.026 8.05 7.03 10.82
1/31/2021 11:30:00 PM 6.03 42.854 1.027 8.04 6.5 10.81
1/31/2021 11:45:00 PM 6.01 42.818 1.027 8.05 7.29 10.8
2/1/2021 12:00:00 AM 6.03 42.854 1.027 8.04 6.24 10.79
2/1/2021 12:15:00 AM 6.04 42.872 1.027 8.04 6.63 10.79
2/1/2021 12:30:00 AM 6.05 42.89 1.027 8.04 6.15 10.78
2/1/2021 12:45:00 AM 6.06 42.908 1.027 8.03 6.94 10.77
2/1/2021 1:00:00 AM 6.07 42.926 1.028 8.02 6.27 10.76
2/1/2021 1:15:00 AM 6.1 42.98 1.028 8.04 6.4 10.75
2/1/2021 1:30:00 AM 6.11 42.998 1.027 8.03 6.05 10.74
2/1/2021 1:45:00 AM 6.12 43.016 1.025 8.03 5.61 10.73
2/1/2021 2:00:00 AM 6.13 43.034 1.022 8.03 5.82 10.73
2/1/2021 2:15:00 AM 6.14 43.052 1.02 8.03 6.12 10.73
2/1/2021 2:30:00 AM 6.16 43.088 1.015 8.03 6.92 10.72
2/1/2021 2:45:00 AM 6.16 43.088 1.011 8.04 5.87 10.72
2/1/2021 3:00:00 AM 6.16 43.088 1.005 8.03 5.55 10.72
2/1/2021 3:15:00 AM 6.17 43.106 0.999 8.03 6.49 10.72
2/1/2021 3:30:00 AM 6.09 42.962 0.993 8.03 6.49 10.72
2/1/2021 3:45:00 AM 6.02 42.836 0.986 8.04 5.85 10.73
2/1/2021 4:00:00 AM 5.97 42.746 0.98 8.03 6.82 10.74
2/1/2021 4:15:00 AM 5.92 42.656 0.974 8.04 5.7 10.75
2/1/2021 4:30:00 AM 5.94 42.692 0.968 8.04 5.72 10.76
2/1/2021 4:45:00 AM 5.93 42.674 0.961 8.03 6.22 10.76
2/1/2021 5:00:00 AM 5.88 42.584 0.954 8.04 6.18 10.77
2/1/2021 5:15:00 AM 5.87 42.566 0.948 8.05 6.12 10.78
2/1/2021 5:30:00 AM 5.82 42.476 0.942 8.04 6.3 10.79
2/1/2021 5:45:00 AM 5.84 42.512 0.937 8.03 5.75 10.8
2/1/2021 6:00:00 AM 5.84 42.512 0.93 8.05 5.78 10.81
2/1/2021 6:15:00 AM 5.84 42.512 0.924 8.05 5.63 10.82
2/1/2021 6:30:00 AM 5.86 42.548 0.919 8.05 5.81 10.82
2/1/2021 6:45:00 AM 5.88 42.584 0.914 8.05 5.69 10.83
2/1/2021 7:00:00 AM 5.89 42.602 0.909 8.04 5.54 10.84
2/1/2021 7:15:00 AM 5.89 42.602 0.906 8.05 6.2 10.84
2/1/2021 7:30:00 AM 5.87 42.566 0.904 8.05 5.75 10.87
2/1/2021 7:45:00 AM 5.86 42.548 0.902 8.06 6.4 10.91
2/1/2021 8:00:00 AM 5.88 42.584 0.902 8.07 6.32 10.95
2/1/2021 8:15:00 AM 5.91 42.638 0.902 8.07 6.62 11.01
2/1/2021 8:30:00 AM 5.94 42.692 0.901 8.07 6.35 11.1
2/1/2021 8:45:00 AM 5.97 42.746 0.899 8.08 6.61 11.21
2/1/2021 9:00:00 AM 6 42.8 0.897 8.08 6.81 11.34
2/1/2021 9:15:00 AM 6.05 42.89 0.893 8.1 6.51 11.5
2/1/2021 9:30:00 AM 6.1 42.98 0.89 8.11 5.94 11.62
2/1/2021 9:45:00 AM 6.14 43.052 0.887 8.12 6.26 11.67
2/1/2021 10:00:00 AM 6.21 43.178 0.884 8.13 6.03 11.79
2/1/2021 10:15:00 AM 6.28 43.304 0.88 8.14 11.65 11.95
2/1/2021 10:30:00 AM 6.35 43.43 0.878 8.15 6.5 12.08
2/1/2021 10:45:00 AM 6.43 43.574 0.877 8.16 6.55 12.22
2/1/2021 11:00:00 AM 6.51 43.718 0.876 8.19 6.46 12.34
2/1/2021 11:15:00 AM 6.59 43.862 0.877 8.19 6.79 12.45
2/1/2021 11:30:00 AM 6.66 43.988 0.88 8.21 6.25 12.55
2/1/2021 11:45:00 AM 6.7 44.06 0.885 8.21 6.31 12.59
2/1/2021 12:00:00 PM 6.71 44.078 0.892 8.22 6.16 12.58
2/1/2021 12:15:00 PM 6.65 43.97 0.902 8.22 7.21 12.58
2/1/2021 12:30:00 PM 6.54 43.772 0.913 8.22 7.02 12.59
2/1/2021 12:45:00 PM 6.39 43.502 0.923 8.22 6.58 12.61
2/1/2021 1:00:00 PM 6.39 43.502 0.932 8.23 7.26 12.66
2/1/2021 1:15:00 PM 6.34 43.412 0.944 8.23 7.7 12.65
2/1/2021 1:30:00 PM 6.3 43.34 0.956 8.24 7.22 12.64
2/1/2021 1:45:00 PM 6.35 43.43 0.968 8.23 6.78 12.64
2/1/2021 2:00:00 PM 6.24 43.232 0.976 8.23 5.84 12.57
2/1/2021 2:15:00 PM 6.07 42.926 0.982 8.23 6.73 12.47
2/1/2021 2:30:00 PM 6.05 42.89 0.988 8.23 7.27 12.42
2/1/2021 2:45:00 PM 6.1 42.98 0.991 8.22 7.2 12.41
2/1/2021 3:00:00 PM 6.1 42.98 0.994 8.22 6.88 12.36
2/1/2021 3:15:00 PM 6.07 42.926 0.997 8.22 6.07 12.3
2/1/2021 3:30:00 PM 5.98 42.764 0.994 8.21 6.1 12.22
2/1/2021 3:45:00 PM 5.82 42.476 0.991 8.2 6.13 12.16
2/1/2021 4:00:00 PM 5.64 42.152 0.986 8.2 5.94 12.09
2/1/2021 4:15:00 PM 5.48 41.864 0.982 8.2 6.03 12.03
2/1/2021 4:30:00 PM 5.42 41.756 0.977 8.18 6.49 11.99
2/1/2021 4:45:00 PM 5.42 41.756 0.974 8.18 6.24 11.93
2/1/2021 5:00:00 PM 5.47 41.846 0.974 8.17 6.34 11.86
2/1/2021 5:15:00 PM 5.52 41.936 0.973 8.16 6.88 11.79
2/1/2021 5:30:00 PM 5.55 41.99 0.973 8.16 7.72 11.71
2/1/2021 5:45:00 PM 5.5 41.9 0.973 8.15 7.05 11.63
2/1/2021 6:00:00 PM 5.47 41.846 0.974 8.14 6.39 11.57
2/1/2021 6:15:00 PM 5.43 41.774 0.973 8.13 7.03 11.51
2/1/2021 6:30:00 PM 5.37 41.666 0.971 8.13 6.53 11.47
2/1/2021 6:45:00 PM 5.29 41.522 0.97 8.11 6.94 11.43
2/1/2021 7:00:00 PM 5.16 41.288 0.969 8.11 6.59 11.41
2/1/2021 7:15:00 PM 5.07 41.126 0.97 8.11 6.79 11.39
2/1/2021 7:30:00 PM 5.01 41.018 0.971 8.1 6.59 11.37
2/1/2021 7:45:00 PM 4.96 40.928 0.973 8.1 6.74 11.35
2/1/2021 8:00:00 PM 4.96 40.928 0.975 8.09 5.95 11.32
2/1/2021 8:15:00 PM 4.99 40.982 0.976 8.09 6.68 11.3
2/1/2021 8:30:00 PM 5.04 41.072 0.979 8.09 6.67 11.27
2/1/2021 8:45:00 PM 5.12 41.216 0.982 8.08 6.48 11.24
2/1/2021 9:00:00 PM 5.18 41.324 0.984 8.08 6.63 11.2
2/1/2021 9:15:00 PM 5.23 41.414 0.986 8.06 6.3 11.16
2/1/2021 9:30:00 PM 5.22 41.396 0.989 8.07 6.52 11.14
2/1/2021 9:45:00 PM 5.23 41.414 0.992 8.06 6.58 11.11
2/1/2021 10:00:00 PM 5.27 41.486 0.995 8.05 6.33 11.08
2/1/2021 10:15:00 PM 5.31 41.558 0.997 8.05 6.55 11.06
2/1/2021 10:30:00 PM 5.38 41.684 1 8.05 6.76 11.02
2/1/2021 10:45:00 PM 5.44 41.792 1.001 8.04 6.05 10.99
2/1/2021 11:00:00 PM 5.52 41.936 1.005 8.05 5.84 10.95
2/1/2021 11:15:00 PM 5.6 42.08 1.006 8.05 6.24 10.91
2/1/2021 11:30:00 PM 5.7 42.26 1.01 8.05 6.25 10.87
2/1/2021 11:45:00 PM 5.81 42.458 1.011 8.04 6.39 10.82
2/2/2021 12:00:00 AM 5.91 42.638 1.014 8.04 6.1 10.77
2/2/2021 12:15:00 AM 6.02 42.836 1.015 8.03 6.56 10.72
2/2/2021 12:30:00 AM 6.12 43.016 1.015 8.03 6.39 10.67
2/2/2021 12:45:00 AM 6.21 43.178 1.015 8.03 6.17 10.65
2/2/2021 1:00:00 AM 6.29 43.322 1.015 8.03 5.97 10.62
2/2/2021 1:15:00 AM 6.37 43.466 1.015 8.03 6.55 10.59
2/2/2021 1:30:00 AM 6.43 43.574 1.014 8.02 6.07 10.56
2/2/2021 1:45:00 AM 6.49 43.682 1.013 8.03 6.06 10.54
2/2/2021 2:00:00 AM 6.54 43.772 1.01 8.02 6.35 10.51
2/2/2021 2:15:00 AM 6.59 43.862 1.008 8.03 5.57 10.49
2/2/2021 2:30:00 AM 6.63 43.934 1.006 8.02 5.61 10.47
2/2/2021 2:45:00 AM 6.66 43.988 1.003 8.02 5.67 10.46
2/2/2021 3:00:00 AM 6.7 44.06 1.002 8.03 5.57 10.44
2/2/2021 3:15:00 AM 6.74 44.132 1 8.03 6.12 10.43
2/2/2021 3:30:00 AM 6.76 44.168 0.997 8.03 5.32 10.42
2/2/2021 3:45:00 AM 6.79 44.222 0.991 8.03 5.54 10.4
2/2/2021 4:00:00 AM 6.8 44.24 0.985 8.02 5.59 10.4
2/2/2021 4:15:00 AM 6.82 44.276 0.978 8.02 6.56 10.4
2/2/2021 4:30:00 AM 6.83 44.294 0.973 8.03 6.08 10.4
2/2/2021 4:45:00 AM 6.85 44.33 0.967 8.03 6.57 10.4
2/2/2021 5:00:00 AM 6.85 44.33 0.962 8.03 6.37 10.4
2/2/2021 5:15:00 AM 6.85 44.33 0.955 8.04 5.95 10.4
2/2/2021 5:30:00 AM 6.85 44.33 0.947 8.03 6.29 10.41
2/2/2021 5:45:00 AM 6.84 44.312 0.94 8.04 6.04 10.42
2/2/2021 6:00:00 AM 6.84 44.312 0.932 8.04 6.54 10.43
2/2/2021 6:15:00 AM 6.84 44.312 0.925 8.04 6.16 10.44
2/2/2021 6:30:00 AM 6.83 44.294 0.917 8.03 7.18 10.44
2/2/2021 6:45:00 AM 6.81 44.258 0.91 8.03 6.54 10.45
2/2/2021 7:00:00 AM 6.78 44.204 0.907 8.04 6.77 10.46
2/2/2021 7:15:00 AM 6.76 44.168 0.905 8.04 6.87 10.48
2/2/2021 7:30:00 AM 6.74 44.132 0.903 8.04 6.45 10.5
2/2/2021 7:45:00 AM 6.74 44.132 0.904 8.04 7.52 10.54
2/2/2021 8:00:00 AM 6.75 44.15 0.904 8.05 7.78 10.59
2/2/2021 8:15:00 AM 6.77 44.186 0.905 8.04 8.47 10.69
2/2/2021 8:30:00 AM 6.78 44.204 0.906 8.05 7.86 10.81
2/2/2021 8:45:00 AM 6.81 44.258 0.904 8.07 7.64 10.95
2/2/2021 9:00:00 AM 6.84 44.312 0.901 8.08 7.04 11.1
2/2/2021 9:15:00 AM 6.87 44.366 0.897 8.08 8.13 11.24
2/2/2021 9:30:00 AM 6.91 44.438 0.893 8.09 8.07 11.35
2/2/2021 9:45:00 AM 6.96 44.528 0.89 8.11 7.17 11.48
2/2/2021 10:00:00 AM 7.03 44.654 0.886 8.13 7.43 11.65
2/2/2021 10:15:00 AM 7.14 44.852 0.884 8.14 7.42 11.83
2/2/2021 10:30:00 AM 7.27 45.086 0.882 8.16 8.18 11.99
2/2/2021 10:45:00 AM 7.39 45.302 0.883 8.18 7.49 12.14
2/2/2021 11:00:00 AM 7.52 45.536 0.887 8.2 7.47 12.28
2/2/2021 11:15:00 AM 7.71 45.878 0.896 8.21 6.57 12.45
2/2/2021 11:30:00 AM 7.84 46.112 0.907 8.23 6.32 12.58
2/2/2021 11:45:00 AM 7.95 46.31 0.92 8.23 7.03 12.64
2/2/2021 12:00:00 PM 8.06 46.508 0.934 8.24 6.84 12.71
2/2/2021 12:15:00 PM 8.16 46.688 0.95 8.26 7.22 12.76
2/2/2021 12:30:00 PM 8.27 46.886 0.964 8.27 6.3 12.83
2/2/2021 12:45:00 PM 8.38 47.084 0.977 8.29 6.36 12.91
2/2/2021 1:00:00 PM 8.49 47.282 0.988 8.29 6.73 12.94
2/2/2021 1:15:00 PM 8.58 47.444 0.996 8.29 6.92 12.92
2/2/2021 1:30:00 PM 8.67 47.606 1.004 8.29 5.85 12.94
2/2/2021 1:45:00 PM 8.76 47.768 1.015 8.3 6.39 12.94
2/2/2021 2:00:00 PM 8.85 47.93 1.028 8.3 5.82 12.89
2/2/2021 2:15:00 PM 8.91 48.038 1.041 8.29 5.85 12.8
2/2/2021 2:30:00 PM 8.97 48.146 1.052 8.29 6.34 12.72
2/2/2021 2:45:00 PM 9.02 48.236 1.059 8.28 5.78 12.64
2/2/2021 3:00:00 PM 9.03 48.254 1.067 8.27 6.35 12.57
2/2/2021 3:15:00 PM 9 48.2 1.07 8.28 5.7 12.46
2/2/2021 3:30:00 PM 8.96 48.128 1.071 8.27 6.18 12.35
2/2/2021 3:45:00 PM 8.93 48.074 1.072 8.26 5.98 12.28
2/2/2021 4:00:00 PM 8.91 48.038 1.073 8.26 6.07 12.22
2/2/2021 4:15:00 PM 8.91 48.038 1.075 8.25 5.98 12.11
2/2/2021 4:30:00 PM 8.91 48.038 1.075 8.25 5.63 11.96
2/2/2021 4:45:00 PM 8.9 48.02 1.075 8.23 5.68 11.83
2/2/2021 5:00:00 PM 8.87 47.966 1.072 8.21 5.8 11.69
2/2/2021 5:15:00 PM 8.83 47.894 1.07 8.21 5.47 11.53
2/2/2021 5:30:00 PM 8.78 47.804 1.066 8.18 5.63 11.38
2/2/2021 5:45:00 PM 8.74 47.732 1.064 8.16 5.81 11.25
2/2/2021 6:00:00 PM 8.71 47.678 1.061 8.16 6.36 11.13
2/2/2021 6:15:00 PM 8.68 47.624 1.06 8.15 6.53 11.02
2/2/2021 6:30:00 PM 8.63 47.534 1.061 8.14 6.06 10.92
2/2/2021 6:45:00 PM 8.56 47.408 1.063 8.12 6.24 10.83
2/2/2021 7:00:00 PM 8.49 47.282 1.064 8.11 6.06 10.75
2/2/2021 7:15:00 PM 8.41 47.138 1.064 8.1 6.58 10.67
2/2/2021 7:30:00 PM 8.33 46.994 1.063 8.09 6.97 10.61
2/2/2021 7:45:00 PM 8.24 46.832 1.063 8.08 6.65 10.54
2/2/2021 8:00:00 PM 8.16 46.688 1.065 8.07 7.96 10.48
2/2/2021 8:15:00 PM 8.08 46.544 1.068 8.05 6.53 10.42
2/2/2021 8:30:00 PM 8.02 46.436 1.071 8.05 6.17 10.36
2/2/2021 8:45:00 PM 7.95 46.31 1.075 8.04 6.88 10.32
2/2/2021 9:00:00 PM 7.9 46.22 1.078 8.03 7.39 10.27
2/2/2021 9:15:00 PM 7.85 46.13 1.083 8.03 6.85 10.23
2/2/2021 9:30:00 PM 7.81 46.058 1.085 8.01 7.27 10.19
2/2/2021 9:45:00 PM 7.78 46.004 1.085 8 7.06 10.16
2/2/2021 10:00:00 PM 7.74 45.932 1.081 8.01 8.54 10.13
2/2/2021 10:15:00 PM 7.71 45.878 1.078 8 6.49 10.12
2/2/2021 10:30:00 PM 7.68 45.824 1.074 7.99 6.52 10.1
2/2/2021 10:45:00 PM 7.66 45.788 1.072 8 7.06 10.09
2/2/2021 11:00:00 PM 7.64 45.752 1.073 7.99 6.39 10.07
2/2/2021 11:15:00 PM 7.63 45.734 1.073 7.99 7.26 10.06
2/2/2021 11:30:00 PM 7.62 45.716 1.074 7.99 7.1 10.05
2/2/2021 11:45:00 PM 7.61 45.698 1.075 7.99 6.99 10.04
2/3/2021 12:00:00 AM 7.6 45.68 1.075 7.99 6.61 10.04
2/3/2021 12:15:00 AM 7.6 45.68 1.075 7.99 6.37 10.02
2/3/2021 12:30:00 AM 7.59 45.662 1.074 7.98 7.21 10.02
2/3/2021 12:45:00 AM 7.58 45.644 1.074 7.99 7.49 10.01
2/3/2021 1:00:00 AM 7.57 45.626 1.07 7.98 6.4 10
2/3/2021 1:15:00 AM 7.56 45.608 1.068 7.99 6.62 10
2/3/2021 1:30:00 AM 7.55 45.59 1.064 7.99 6.76 10
2/3/2021 1:45:00 AM 7.54 45.572 1.061 7.99 6.57 10
2/3/2021 2:00:00 AM 7.53 45.554 1.056 7.99 6.64 10
2/3/2021 2:15:00 AM 7.5 45.5 1.05 7.99 6.64 10.01
2/3/2021 2:30:00 AM 7.48 45.464 1.044 7.98 6.64 10.03
2/3/2021 2:45:00 AM 7.47 45.446 1.036 7.99 6.42 10.03
2/3/2021 3:00:00 AM 7.46 45.428 1.031 8 5.84 10.04
2/3/2021 3:15:00 AM 7.46 45.428 1.026 8 6.22 10.04
2/3/2021 3:30:00 AM 7.45 45.41 1.02 8 6.19 10.05
2/3/2021 3:45:00 AM 7.44 45.392 1.014 8 6.31 10.06
2/3/2021 4:00:00 AM 7.42 45.356 1.006 8.01 6.08 10.06
2/3/2021 4:15:00 AM 7.41 45.338 0.998 8.01 6.17 10.07
2/3/2021 4:30:00 AM 7.39 45.302 0.991 8 6.16 10.08
2/3/2021 4:45:00 AM 7.38 45.284 0.985 8.01 5.94 10.09
2/3/2021 5:00:00 AM 7.37 45.266 0.978 8.01 6.66 10.1
2/3/2021 5:15:00 AM 7.36 45.248 0.971 8.01 5.66 10.11
2/3/2021 5:30:00 AM 7.34 45.212 0.966 8 5.93 10.11
2/3/2021 5:45:00 AM 7.34 45.212 0.959 8.02 5.85 10.12
2/3/2021 6:00:00 AM 7.32 45.176 0.953 8.02 5.57 10.13
2/3/2021 6:15:00 AM 7.31 45.158 0.946 8.01 6.33 10.14
2/3/2021 6:30:00 AM 7.31 45.158 0.939 8.02 5.91 10.15
2/3/2021 6:45:00 AM 7.3 45.14 0.933 8.02 6.21 10.16
2/3/2021 7:00:00 AM 7.29 45.122 0.929 8.02 6.56 10.17
2/3/2021 7:15:00 AM 7.29 45.122 0.926 8.02 5.88 10.18
2/3/2021 7:30:00 AM 7.28 45.104 0.924 8.03 6.21 10.21
2/3/2021 7:45:00 AM 7.29 45.122 0.922 8.03 7.58 10.26
2/3/2021 8:00:00 AM 7.3 45.14 0.921 8.04 8.16 10.34
2/3/2021 8:15:00 AM 7.33 45.194 0.92 8.05 7.49 10.43
2/3/2021 8:30:00 AM 7.36 45.248 0.92 8.05 8.13 10.55
2/3/2021 8:45:00 AM 7.4 45.32 0.92 8.07 7.92 10.72
2/3/2021 9:00:00 AM 7.44 45.392 0.922 8.07 7.8 10.87
2/3/2021 9:15:00 AM 7.51 45.518 0.924 8.09 8.37 11
2/3/2021 9:30:00 AM 7.57 45.626 0.926 8.1 7.27 11.16
2/3/2021 9:45:00 AM 7.62 45.716 0.926 8.11 7.49 11.28
2/3/2021 10:00:00 AM 7.69 45.842 0.921 8.11 7.82 11.4
2/3/2021 10:15:00 AM 7.76 45.968 0.917 8.13 7.37 11.56
2/3/2021 10:30:00 AM 7.85 46.13 0.913 8.15 6.79 11.74
2/3/2021 10:45:00 AM 7.94 46.292 0.912 8.17 6.9 11.89
2/3/2021 11:00:00 AM 8.03 46.454 0.912 8.18 5.96 12.01
2/3/2021 11:15:00 AM 8.15 46.67 0.916 8.2 5.86 12.16
2/3/2021 11:30:00 AM 8.24 46.832 0.924 8.21 6.23 12.25
2/3/2021 11:45:00 AM 8.34 47.012 0.934 8.21 6.02 12.34
2/3/2021 12:00:00 PM 8.44 47.192 0.946 8.23 6.17 12.43
2/3/2021 12:15:00 PM 8.57 47.426 0.958 8.24 6.23 12.52
2/3/2021 12:30:00 PM 8.69 47.642 0.969 8.25 6.33 12.62
2/3/2021 12:45:00 PM 8.82 47.876 0.98 8.26 6.58 12.72
2/3/2021 1:00:00 PM 8.93 48.074 0.987 8.27 7.66 12.75
2/3/2021 1:15:00 PM 9.03 48.254 0.99 8.27 7.14 12.77
2/3/2021 1:30:00 PM 9.1 48.38 0.993 8.28 6.47 12.79
2/3/2021 1:45:00 PM 9.17 48.506 0.994 8.29 5.91 12.78
2/3/2021 2:00:00 PM 9.22 48.596 0.994 8.29 6.6 12.72
2/3/2021 2:15:00 PM 9.25 48.65 0.994 8.29 6.54 12.67
2/3/2021 2:30:00 PM 9.3 48.74 0.996 8.29 7.05 12.64
2/3/2021 2:45:00 PM 9.35 48.83 1.001 8.29 6.68 12.63
2/3/2021 3:00:00 PM 9.41 48.938 1.008 8.3 6.59 12.64
2/3/2021 3:15:00 PM 9.47 49.046 1.016 8.29 7.04 12.61
2/3/2021 3:30:00 PM 9.51 49.118 1.02 8.29 7.53 12.54
2/3/2021 3:45:00 PM 9.53 49.154 1.023 8.28 6.75 12.44
2/3/2021 4:00:00 PM 9.53 49.154 1.024 8.28 7.8 12.29
2/3/2021 4:15:00 PM 9.52 49.136 1.024 8.27 7.15 12.12
2/3/2021 4:30:00 PM 9.48 49.064 1.024 8.25 6.85 11.96
2/3/2021 4:45:00 PM 9.44 48.992 1.024 8.24 6.86 11.8
2/3/2021 5:00:00 PM 9.4 48.92 1.025 8.23 7.02 11.65
2/3/2021 5:15:00 PM 9.37 48.866 1.025 8.21 7.39 11.5
2/3/2021 5:30:00 PM 9.33 48.794 1.026 8.2 7.86 11.34
2/3/2021 5:45:00 PM 9.27 48.686 1.026 8.18 8.55 11.19
2/3/2021 6:00:00 PM 9.21 48.578 1.026 8.17 8.1 11.06
2/3/2021 6:15:00 PM 9.14 48.452 1.024 8.15 7.85 10.96
2/3/2021 6:30:00 PM 9.07 48.326 1.025 8.14 8.94 10.84
2/3/2021 6:45:00 PM 9.01 48.218 1.027 8.12 8.88 10.75
2/3/2021 7:00:00 PM 8.95 48.11 1.032 8.12 8.43 10.65
2/3/2021 7:15:00 PM 8.89 48.002 1.042 8.11 7.22 10.58
2/3/2021 7:30:00 PM 8.84 47.912 1.052 8.1 7.79 10.49
2/3/2021 7:45:00 PM 8.77 47.786 1.062 8.08 7.99 10.42
2/3/2021 8:00:00 PM 8.71 47.678 1.068 8.08 7.29 10.34
2/3/2021 8:15:00 PM 8.65 47.57 1.073 8.07 6.79 10.27
2/3/2021 8:30:00 PM 8.59 47.462 1.073 8.05 6.85 10.21
2/3/2021 8:45:00 PM 8.54 47.372 1.071 8.05 6.78 10.16
2/3/2021 9:00:00 PM 8.49 47.282 1.068 8.02 6.34 10.11
2/3/2021 9:15:00 PM 8.46 47.228 1.063 8.03 6.42 10.07
2/3/2021 9:30:00 PM 8.43 47.174 1.057 8.03 6.47 10.04
2/3/2021 9:45:00 PM 8.39 47.102 1.054 8.02 7.03 10.01
2/3/2021 10:00:00 PM 8.36 47.048 1.051 8.02 6.56 9.98
2/3/2021 10:15:00 PM 8.33 46.994 1.047 8.02 6.33 9.96
2/3/2021 10:30:00 PM 8.28 46.904 1.045 8.01 6.51 9.95
2/3/2021 10:45:00 PM 8.23 46.814 1.045 7.99 6.52 9.93
2/3/2021 11:00:00 PM 8.19 46.742 1.047 8 5.8 9.91
2/3/2021 11:15:00 PM 8.15 46.67 1.048 8 6.8 9.9
2/3/2021 11:30:00 PM 8.11 46.598 1.049 7.99 6.14 9.89
2/3/2021 11:45:00 PM 8.07 46.526 1.051 7.99 6.11 9.89
2/4/2021 12:00:00 AM 8.03 46.454 1.053 7.99 5.88 9.88
2/4/2021 12:15:00 AM 7.98 46.364 1.054 7.99 6.57 9.89
2/4/2021 12:30:00 AM 7.95 46.31 1.056 7.99 6.75 9.89
2/4/2021 12:45:00 AM 7.91 46.238 1.058 7.98 7.08 9.89
2/4/2021 1:00:00 AM 7.88 46.184 1.059 7.98 6.17 9.9
2/4/2021 1:15:00 AM 7.85 46.13 1.06 7.98 6.37 9.9
2/4/2021 1:30:00 AM 7.81 46.058 1.059 7.98 6.38 9.91
2/4/2021 1:45:00 AM 7.78 46.004 1.057 7.98 6.37 9.91
2/4/2021 2:00:00 AM 7.74 45.932 1.053 7.98 6.43 9.92
2/4/2021 2:15:00 AM 7.69 45.842 1.048 7.99 6.45 9.93
2/4/2021 2:30:00 AM 7.64 45.752 1.043 7.98 6.39 9.95
2/4/2021 2:45:00 AM 7.59 45.662 1.037 7.99 6.26 9.97
2/4/2021 3:00:00 AM 7.54 45.572 1.032 7.99 6.34 9.98
2/4/2021 3:15:00 AM 7.48 45.464 1.027 7.99 6.33 10
2/4/2021 3:30:00 AM 7.44 45.392 1.022 7.98 5.9 10.02
2/4/2021 3:45:00 AM 7.4 45.32 1.018 7.99 7.07 10.04
2/4/2021 4:00:00 AM 7.35 45.23 1.012 8 6.23 10.06
2/4/2021 4:15:00 AM 7.31 45.158 1.005 8 6.22 10.09
2/4/2021 4:30:00 AM 7.26 45.068 0.999 8 6.17 10.11
2/4/2021 4:45:00 AM 7.21 44.978 0.991 8 5.68 10.14
2/4/2021 5:00:00 AM 7.16 44.888 0.984 8 5.95 10.17
2/4/2021 5:15:00 AM 7.1 44.78 0.975 8.02 5.59 10.19
2/4/2021 5:30:00 AM 7.04 44.672 0.966 8 5.73 10.23
2/4/2021 5:45:00 AM 6.98 44.564 0.958 8.01 5.86 10.26
2/4/2021 6:00:00 AM 6.92 44.456 0.951 8.02 5.72 10.29
2/4/2021 6:15:00 AM 6.86 44.348 0.944 8.02 5.27 10.31
2/4/2021 6:30:00 AM 6.81 44.258 0.939 8.02 6.4 10.35
2/4/2021 6:45:00 AM 6.75 44.15 0.934 8.02 5.57 10.38
2/4/2021 7:00:00 AM 6.69 44.042 0.93 8.03 5.75 10.41
2/4/2021 7:15:00 AM 6.63 43.934 0.927 8.03 5.7 10.44
2/4/2021 7:30:00 AM 6.58 43.844 0.925 8.04 6.07 10.5
2/4/2021 7:45:00 AM 6.53 43.754 0.924 8.04 6.95 10.56
2/4/2021 8:00:00 AM 6.5 43.7 0.924 8.05 7.2 10.63
2/4/2021 8:15:00 AM 6.48 43.664 0.925 8.05 6.63 10.72
2/4/2021 8:30:00 AM 6.48 43.664 0.927 8.06 5.69 10.82
2/4/2021 8:45:00 AM 6.5 43.7 0.927 8.07 6 10.92
2/4/2021 9:00:00 AM 6.53 43.754 0.928 8.08 5.56 11.03
2/4/2021 9:15:00 AM 6.59 43.862 0.929 8.08 5.17 11.17
2/4/2021 9:30:00 AM 6.67 44.006 0.928 8.09 6.69 11.29
2/4/2021 9:45:00 AM 6.78 44.204 0.926 8.1 5.51 11.42
2/4/2021 10:00:00 AM 6.9 44.42 0.924 8.12 5.47 11.54
2/4/2021 10:15:00 AM 7.02 44.636 0.922 8.13 5.62 11.68
2/4/2021 10:30:00 AM 7.14 44.852 0.921 8.14 5.94 11.8
2/4/2021 10:45:00 AM 7.29 45.122 0.921 8.15 6.49 11.91
2/4/2021 11:00:00 AM 7.45 45.41 0.922 8.17 5.77 12.02
2/4/2021 11:15:00 AM 7.61 45.698 0.927 8.18 6.25 12.14
2/4/2021 11:30:00 AM 7.8 46.04 0.934 8.19 5.39 12.25
2/4/2021 11:45:00 AM 8 46.4 0.947 8.2 6.41 12.33
2/4/2021 12:00:00 PM 8.21 46.778 0.964 8.21 5.86 12.42
2/4/2021 12:15:00 PM 8.44 47.192 0.983 8.22 5.64 12.51
2/4/2021 12:30:00 PM 8.66 47.588 1.001 8.23 5.85 12.56
2/4/2021 12:45:00 PM 8.86 47.948 1.013 8.24 5.74 12.64
2/4/2021 1:00:00 PM 9.07 48.326 1.023 8.25 5.86 12.68
2/4/2021 1:15:00 PM 9.25 48.65 1.029 8.27 5.83 12.74
2/4/2021 1:30:00 PM 9.42 48.956 1.034 8.27 5.49 12.75
2/4/2021 1:45:00 PM 9.58 49.244 1.037 8.28 6.27 12.78
2/4/2021 2:00:00 PM 9.72 49.496 1.038 8.28 6.03 12.79
2/4/2021 2:15:00 PM 9.85 49.73 1.041 8.29 6.19 12.75
2/4/2021 2:30:00 PM 9.95 49.91 1.042 8.29 5.82 12.71
2/4/2021 2:45:00 PM 10.01 50.018 1.044 8.28 6.6 12.65
2/4/2021 3:00:00 PM 10.06 50.108 1.045 8.28 6.56 12.55
2/4/2021 3:15:00 PM 10.08 50.144 1.045 8.29 6 12.45
2/4/2021 3:30:00 PM 10.08 50.144 1.049 8.26 6.19 12.31
2/4/2021 3:45:00 PM 10.08 50.144 1.054 8.27 5.57 12.16
2/4/2021 4:00:00 PM 10.05 50.09 1.055 8.25 5.73 12
2/4/2021 4:15:00 PM 10.03 50.054 1.058 8.24 5.87 11.83
2/4/2021 4:30:00 PM 10 50 1.059 8.21 6.04 11.65
2/4/2021 4:45:00 PM 9.96 49.928 1.059 8.2 5.94 11.49
2/4/2021 5:00:00 PM 9.92 49.856 1.058 8.19 5.61 11.32
2/4/2021 5:15:00 PM 9.88 49.784 1.056 8.17 6.33 11.15
2/4/2021 5:30:00 PM 9.84 49.712 1.055 8.17 6.14 11.02
2/4/2021 5:45:00 PM 9.8 49.64 1.051 8.16 6.21 10.89
2/4/2021 6:00:00 PM 9.77 49.586 1.05 8.13 6.36 10.78
2/4/2021 6:15:00 PM 9.72 49.496 1.048 8.13 6.31 10.68
2/4/2021 6:30:00 PM 9.68 49.424 1.043 8.12 5.78 10.6
2/4/2021 6:45:00 PM 9.62 49.316 1.038 8.12 6.12 10.53
2/4/2021 7:00:00 PM 9.57 49.226 1.03 8.11 5.77 10.46
2/4/2021 7:15:00 PM 9.51 49.118 1.024 8.1 6.16 10.4
2/4/2021 7:30:00 PM 9.44 48.992 1.017 8.09 6.19 10.34
2/4/2021 7:45:00 PM 9.37 48.866 1.012 8.09 6.24 10.27
2/4/2021 8:00:00 PM 9.29 48.722 1.008 8.08 5.96 10.21
2/4/2021 8:15:00 PM 9.21 48.578 1.006 8.07 6.55 10.16
2/4/2021 8:30:00 PM 9.15 48.47 1.005 8.05 6.6 10.12
2/4/2021 8:45:00 PM 9.07 48.326 1.006 8.04 5.76 10.07
2/4/2021 9:00:00 PM 9 48.2 1.009 8.03 5.77 10.04
2/4/2021 9:15:00 PM 8.94 48.092 1.015 8.03 5.41 10
2/4/2021 9:30:00 PM 8.88 47.984 1.023 8.01 6.02 9.95
2/4/2021 9:45:00 PM 8.83 47.894 1.033 8.02 5.88 9.92
2/4/2021 10:00:00 PM 8.78 47.804 1.042 8.01 5.68 9.9
2/4/2021 10:15:00 PM 8.74 47.732 1.05 8.01 5.55 9.88
2/4/2021 10:30:00 PM 8.69 47.642 1.058 8 6 9.86
2/4/2021 10:45:00 PM 8.65 47.57 1.065 8 6.09 9.85
2/4/2021 11:00:00 PM 8.61 47.498 1.071 8 5.97 9.84
2/4/2021 11:15:00 PM 8.58 47.444 1.076 7.99 5.8 9.83
2/4/2021 11:30:00 PM 8.55 47.39 1.079 7.98 5.6 9.83
2/4/2021 11:45:00 PM 8.52 47.336 1.082 7.99 6.16 9.83
2/5/2021 12:00:00 AM 8.49 47.282 1.083 7.98 5.94 9.83
2/5/2021 12:15:00 AM 8.46 47.228 1.083 7.99 5.91 9.83
2/5/2021 12:30:00 AM 8.44 47.192 1.083 7.98 6.12 9.84
2/5/2021 12:45:00 AM 8.42 47.156 1.084 7.98 5.8 9.84
2/5/2021 1:00:00 AM 8.41 47.138 1.086 7.98 5.62 9.84
2/5/2021 1:15:00 AM 8.39 47.102 1.086 7.98 5.67 9.84
2/5/2021 1:30:00 AM 8.38 47.084 1.085 7.96 5.58 9.85
2/5/2021 1:45:00 AM 8.37 47.066 1.084 7.96 5.98 9.85
2/5/2021 2:00:00 AM 8.36 47.048 1.081 7.97 6.04 9.85
2/5/2021 2:15:00 AM 8.36 47.048 1.077 7.98 5.46 9.86
2/5/2021 2:30:00 AM 8.35 47.03 1.074 7.98 5.35 9.86
2/5/2021 2:45:00 AM 8.34 47.012 1.07 7.98 5.36 9.87
2/5/2021 3:00:00 AM 8.33 46.994 1.064 7.99 5.33 9.87
2/5/2021 3:15:00 AM 8.32 46.976 1.059 7.99 5.36 9.89
2/5/2021 3:30:00 AM 8.31 46.958 1.053 7.99 5.7 9.89
2/5/2021 3:45:00 AM 8.3 46.94 1.047 8 5.75 9.9
2/5/2021 4:00:00 AM 8.29 46.922 1.041 8 5.06 9.91
2/5/2021 4:15:00 AM 8.28 46.904 1.036 8 5.4 9.91
2/5/2021 4:30:00 AM 8.28 46.904 1.03 8 5.4 9.92
2/5/2021 4:45:00 AM 8.26 46.868 1.023 8 5.05 9.93
2/5/2021 5:00:00 AM 8.25 46.85 1.016 8.01 5.3 9.94
2/5/2021 5:15:00 AM 8.22 46.796 1.007 8.01 5.39 9.95
2/5/2021 5:30:00 AM 8.19 46.742 1 8.01 5.17 9.96
2/5/2021 5:45:00 AM 8.17 46.706 0.992 8.01 5.67 9.97
2/5/2021 6:00:00 AM 8.12 46.616 0.986 8.02 5.57 9.98
2/5/2021 6:15:00 AM 8.06 46.508 0.98 8.01 5.26 9.99
2/5/2021 6:30:00 AM 7.97 46.346 0.974 8.02 5.27 10
2/5/2021 6:45:00 AM 7.97 46.346 0.97 8.02 5.12 10.02
2/5/2021 7:00:00 AM 7.98 46.364 0.966 8.02 5.19 10.03
2/5/2021 7:15:00 AM 7.98 46.364 0.964 8.03 5.39 10.04
2/5/2021 7:30:00 AM 7.99 46.382 0.962 8.03 5.32 10.05
2/5/2021 7:45:00 AM 8 46.4 0.959 8.03 6.17 10.08
2/5/2021 8:00:00 AM 8.02 46.436 0.959 8.03 6.8 10.13
2/5/2021 8:15:00 AM 8.05 46.49 0.959 8.04 7.08 10.24
2/5/2021 8:30:00 AM 8.08 46.544 0.96 8.05 6.28 10.4
2/5/2021 8:45:00 AM 8.11 46.598 0.96 8.06 5.42 10.52
2/5/2021 9:00:00 AM 8.13 46.634 0.959 8.07 6.23 10.53
2/5/2021 9:15:00 AM 8.18 46.724 0.958 8.07 8.08 10.65
2/5/2021 9:30:00 AM 8.24 46.832 0.956 8.08 8.91 10.79
2/5/2021 9:45:00 AM 8.3 46.94 0.954 8.09 8.23 10.97
2/5/2021 10:00:00 AM 8.4 47.12 0.951 8.12 8.32 11.11
2/5/2021 10:15:00 AM 8.52 47.336 0.949 8.12 7.05 11.29
2/5/2021 10:30:00 AM 8.66 47.588 0.947 8.14 6.86 11.46
2/5/2021 10:45:00 AM 8.8 47.84 0.946 8.15 7.44 11.57
2/5/2021 11: